<?xml version="1.0" encoding="UTF-8" standalone="no" ?>
<gpx xmlns="http://www.topografix.com/GPX/1/1" xmlns:xsi="http://www.w3.org/2001/XMLSchema-instance" xsi:schemaLocation="http://www.topografix.com/GPX/1/1 http://www.topografix.com/GPX/1/1/gpx.xsd" version="1.1" creator="VisuGPX - https://www.visugpx.com">
  <metadata>
    <name>2021-09-22 13:52:49</name>
    <desc><![CDATA[BrassyRazouSalvault
Départ de l'église de Brassy, pour se diriger vers la gare de Razou.
Pique nique à la chapelle de Savault. 2 table de 6 personnes.
Retour par le grp tour du Morvan ]]></desc>
  </metadata>
  <trk>
    <name><![CDATA[2021-09-22 13:52:49]]></name>
    <extensions>
      <line xmlns="http://www.topografix.com/GPX/gpx_style/0/2">
        <color>0000FF</color>
        <width>4</width>
      </line>
    </extensions>
    <trkseg>
      <trkpt lat="47.26177" lon="3.93668">
        <ele>411.53</ele>
        <time>2021-09-22T06:30:22Z</time>
      </trkpt>
      <trkpt lat="47.26177" lon="3.93668">
        <ele>411.53</ele>
        <time>2021-09-22T06:30:22Z</time>
      </trkpt>
      <trkpt lat="47.26178" lon="3.93666">
        <ele>415.02</ele>
        <time>2021-09-22T06:30:24Z</time>
      </trkpt>
      <trkpt lat="47.26188" lon="3.93642">
        <ele>416.12</ele>
        <time>2021-09-22T06:30:43Z</time>
      </trkpt>
      <trkpt lat="47.26193" lon="3.93618">
        <ele>415.15</ele>
        <time>2021-09-22T06:30:59Z</time>
      </trkpt>
      <trkpt lat="47.26198" lon="3.9359">
        <ele>417.32</ele>
        <time>2021-09-22T06:31:15Z</time>
      </trkpt>
      <trkpt lat="47.26196" lon="3.93561">
        <ele>417.37</ele>
        <time>2021-09-22T06:31:31Z</time>
      </trkpt>
      <trkpt lat="47.26194" lon="3.93525">
        <ele>417.74</ele>
        <time>2021-09-22T06:31:50Z</time>
      </trkpt>
      <trkpt lat="47.26194" lon="3.93499">
        <ele>418.22</ele>
        <time>2021-09-22T06:32:06Z</time>
      </trkpt>
      <trkpt lat="47.26194" lon="3.93491">
        <ele>418.31</ele>
        <time>2021-09-22T06:32:11Z</time>
      </trkpt>
      <trkpt lat="47.26194" lon="3.93488">
        <ele>418.37</ele>
        <time>2021-09-22T06:32:13Z</time>
      </trkpt>
      <trkpt lat="47.26196" lon="3.93474">
        <ele>418.62</ele>
        <time>2021-09-22T06:32:20Z</time>
      </trkpt>
      <trkpt lat="47.26197" lon="3.93444">
        <ele>419.11</ele>
        <time>2021-09-22T06:32:36Z</time>
      </trkpt>
      <trkpt lat="47.26201" lon="3.93419">
        <ele>419.48</ele>
        <time>2021-09-22T06:32:52Z</time>
      </trkpt>
      <trkpt lat="47.26201" lon="3.93417">
        <ele>419.66</ele>
        <time>2021-09-22T06:32:53Z</time>
      </trkpt>
      <trkpt lat="47.26199" lon="3.93406">
        <ele>419.85</ele>
        <time>2021-09-22T06:32:59Z</time>
      </trkpt>
      <trkpt lat="47.2619" lon="3.93383">
        <ele>421.52</ele>
        <time>2021-09-22T06:33:13Z</time>
      </trkpt>
      <trkpt lat="47.26177" lon="3.93357">
        <ele>423.55</ele>
        <time>2021-09-22T06:33:30Z</time>
      </trkpt>
      <trkpt lat="47.26173" lon="3.93315">
        <ele>425.63</ele>
        <time>2021-09-22T06:33:54Z</time>
      </trkpt>
      <trkpt lat="47.2617" lon="3.9328">
        <ele>427.35</ele>
        <time>2021-09-22T06:34:14Z</time>
      </trkpt>
      <trkpt lat="47.26169" lon="3.93268">
        <ele>427.98</ele>
        <time>2021-09-22T06:34:21Z</time>
      </trkpt>
      <trkpt lat="47.26168" lon="3.93267">
        <ele>428.16</ele>
        <time>2021-09-22T06:34:22Z</time>
      </trkpt>
      <trkpt lat="47.26169" lon="3.93265">
        <ele>428.51</ele>
        <time>2021-09-22T06:34:23Z</time>
      </trkpt>
      <trkpt lat="47.26169" lon="3.93263">
        <ele>428.65</ele>
        <time>2021-09-22T06:34:24Z</time>
      </trkpt>
      <trkpt lat="47.26169" lon="3.93261">
        <ele>428.76</ele>
        <time>2021-09-22T06:34:25Z</time>
      </trkpt>
      <trkpt lat="47.26168" lon="3.93234">
        <ele>430.63</ele>
        <time>2021-09-22T06:34:41Z</time>
      </trkpt>
      <trkpt lat="47.26168" lon="3.93231">
        <ele>430.91</ele>
        <time>2021-09-22T06:34:43Z</time>
      </trkpt>
      <trkpt lat="47.26169" lon="3.93206">
        <ele>432.23</ele>
        <time>2021-09-22T06:34:58Z</time>
      </trkpt>
      <trkpt lat="47.2617" lon="3.93175">
        <ele>434.38</ele>
        <time>2021-09-22T06:35:16Z</time>
      </trkpt>
      <trkpt lat="47.2617" lon="3.93127">
        <ele>436.34</ele>
        <time>2021-09-22T06:35:42Z</time>
      </trkpt>
      <trkpt lat="47.26163" lon="3.93096">
        <ele>435.19</ele>
        <time>2021-09-22T06:36:02Z</time>
      </trkpt>
      <trkpt lat="47.26147" lon="3.93092">
        <ele>434.2</ele>
        <time>2021-09-22T06:36:18Z</time>
      </trkpt>
      <trkpt lat="47.26122" lon="3.93099">
        <ele>434.2</ele>
        <time>2021-09-22T06:36:42Z</time>
      </trkpt>
      <trkpt lat="47.26093" lon="3.93109">
        <ele>434.53</ele>
        <time>2021-09-22T06:37:06Z</time>
      </trkpt>
      <trkpt lat="47.26087" lon="3.93111">
        <ele>434.56</ele>
        <time>2021-09-22T06:37:19Z</time>
      </trkpt>
      <trkpt lat="47.26082" lon="3.93107">
        <ele>434.41</ele>
        <time>2021-09-22T06:37:24Z</time>
      </trkpt>
      <trkpt lat="47.26071" lon="3.93089">
        <ele>433.99</ele>
        <time>2021-09-22T06:37:39Z</time>
      </trkpt>
      <trkpt lat="47.26062" lon="3.93073">
        <ele>432.7</ele>
        <time>2021-09-22T06:37:59Z</time>
      </trkpt>
      <trkpt lat="47.2607" lon="3.93098">
        <ele>433.57</ele>
        <time>2021-09-22T06:38:20Z</time>
      </trkpt>
      <trkpt lat="47.26074" lon="3.93117">
        <ele>435.23</ele>
        <time>2021-09-22T06:38:39Z</time>
      </trkpt>
      <trkpt lat="47.26059" lon="3.93126">
        <ele>436.5</ele>
        <time>2021-09-22T06:38:55Z</time>
      </trkpt>
      <trkpt lat="47.26058" lon="3.93126">
        <ele>436.62</ele>
        <time>2021-09-22T06:38:56Z</time>
      </trkpt>
      <trkpt lat="47.26032" lon="3.93123">
        <ele>439.06</ele>
        <time>2021-09-22T06:39:20Z</time>
      </trkpt>
      <trkpt lat="47.26016" lon="3.93112">
        <ele>442.39</ele>
        <time>2021-09-22T06:39:41Z</time>
      </trkpt>
      <trkpt lat="47.26" lon="3.9309">
        <ele>444.05</ele>
        <time>2021-09-22T06:40:01Z</time>
      </trkpt>
      <trkpt lat="47.25977" lon="3.93053">
        <ele>445.14</ele>
        <time>2021-09-22T06:40:26Z</time>
      </trkpt>
      <trkpt lat="47.25956" lon="3.93032">
        <ele>445.49</ele>
        <time>2021-09-22T06:40:46Z</time>
      </trkpt>
      <trkpt lat="47.25935" lon="3.93006">
        <ele>446.28</ele>
        <time>2021-09-22T06:41:06Z</time>
      </trkpt>
      <trkpt lat="47.25928" lon="3.92999">
        <ele>445.95</ele>
        <time>2021-09-22T06:41:12Z</time>
      </trkpt>
      <trkpt lat="47.25927" lon="3.92998">
        <ele>445.9</ele>
        <time>2021-09-22T06:41:13Z</time>
      </trkpt>
      <trkpt lat="47.25926" lon="3.92997">
        <ele>445.82</ele>
        <time>2021-09-22T06:41:14Z</time>
      </trkpt>
      <trkpt lat="47.25924" lon="3.92995">
        <ele>445.8</ele>
        <time>2021-09-22T06:41:15Z</time>
      </trkpt>
      <trkpt lat="47.2591" lon="3.92983">
        <ele>445.54</ele>
        <time>2021-09-22T06:41:29Z</time>
      </trkpt>
      <trkpt lat="47.25908" lon="3.92979">
        <ele>445.48</ele>
        <time>2021-09-22T06:41:32Z</time>
      </trkpt>
      <trkpt lat="47.25907" lon="3.92977">
        <ele>445.44</ele>
        <time>2021-09-22T06:41:33Z</time>
      </trkpt>
      <trkpt lat="47.25896" lon="3.92962">
        <ele>444.68</ele>
        <time>2021-09-22T06:41:43Z</time>
      </trkpt>
      <trkpt lat="47.25895" lon="3.92961">
        <ele>444.55</ele>
        <time>2021-09-22T06:41:44Z</time>
      </trkpt>
      <trkpt lat="47.25894" lon="3.9296">
        <ele>444.45</ele>
        <time>2021-09-22T06:41:45Z</time>
      </trkpt>
      <trkpt lat="47.25892" lon="3.92959">
        <ele>444.37</ele>
        <time>2021-09-22T06:41:46Z</time>
      </trkpt>
      <trkpt lat="47.25891" lon="3.92958">
        <ele>444.25</ele>
        <time>2021-09-22T06:41:47Z</time>
      </trkpt>
      <trkpt lat="47.25888" lon="3.92953">
        <ele>443.76</ele>
        <time>2021-09-22T06:41:51Z</time>
      </trkpt>
      <trkpt lat="47.25882" lon="3.92942">
        <ele>443.13</ele>
        <time>2021-09-22T06:42:00Z</time>
      </trkpt>
      <trkpt lat="47.25881" lon="3.9294">
        <ele>443.09</ele>
        <time>2021-09-22T06:42:01Z</time>
      </trkpt>
      <trkpt lat="47.25877" lon="3.92933">
        <ele>442.61</ele>
        <time>2021-09-22T06:42:06Z</time>
      </trkpt>
      <trkpt lat="47.25876" lon="3.92931">
        <ele>442.54</ele>
        <time>2021-09-22T06:42:07Z</time>
      </trkpt>
      <trkpt lat="47.25868" lon="3.92916">
        <ele>441.41</ele>
        <time>2021-09-22T06:42:18Z</time>
      </trkpt>
      <trkpt lat="47.25859" lon="3.9289">
        <ele>440.63</ele>
        <time>2021-09-22T06:42:33Z</time>
      </trkpt>
      <trkpt lat="47.2585" lon="3.92867">
        <ele>439.66</ele>
        <time>2021-09-22T06:42:47Z</time>
      </trkpt>
      <trkpt lat="47.25841" lon="3.92848">
        <ele>438.34</ele>
        <time>2021-09-22T06:42:59Z</time>
      </trkpt>
      <trkpt lat="47.25829" lon="3.92837">
        <ele>437.6</ele>
        <time>2021-09-22T06:43:11Z</time>
      </trkpt>
      <trkpt lat="47.25828" lon="3.92836">
        <ele>437.52</ele>
        <time>2021-09-22T06:43:12Z</time>
      </trkpt>
      <trkpt lat="47.25827" lon="3.92834">
        <ele>437.45</ele>
        <time>2021-09-22T06:43:13Z</time>
      </trkpt>
      <trkpt lat="47.25825" lon="3.92833">
        <ele>437.38</ele>
        <time>2021-09-22T06:43:14Z</time>
      </trkpt>
      <trkpt lat="47.25824" lon="3.92832">
        <ele>437.33</ele>
        <time>2021-09-22T06:43:15Z</time>
      </trkpt>
      <trkpt lat="47.25823" lon="3.92831">
        <ele>437.19</ele>
        <time>2021-09-22T06:43:16Z</time>
      </trkpt>
      <trkpt lat="47.25811" lon="3.92817">
        <ele>435.62</ele>
        <time>2021-09-22T06:43:30Z</time>
      </trkpt>
      <trkpt lat="47.25809" lon="3.92815">
        <ele>435.47</ele>
        <time>2021-09-22T06:43:31Z</time>
      </trkpt>
      <trkpt lat="47.25796" lon="3.92799">
        <ele>432.85</ele>
        <time>2021-09-22T06:43:46Z</time>
      </trkpt>
      <trkpt lat="47.25787" lon="3.92789">
        <ele>429.8</ele>
        <time>2021-09-22T06:44:00Z</time>
      </trkpt>
      <trkpt lat="47.2577" lon="3.92776">
        <ele>427.48</ele>
        <time>2021-09-22T06:44:21Z</time>
      </trkpt>
      <trkpt lat="47.25753" lon="3.92768">
        <ele>424.32</ele>
        <time>2021-09-22T06:44:39Z</time>
      </trkpt>
      <trkpt lat="47.25727" lon="3.92762">
        <ele>421.98</ele>
        <time>2021-09-22T06:44:58Z</time>
      </trkpt>
      <trkpt lat="47.25701" lon="3.92742">
        <ele>418.8</ele>
        <time>2021-09-22T06:45:17Z</time>
      </trkpt>
      <trkpt lat="47.25682" lon="3.9272">
        <ele>416.36</ele>
        <time>2021-09-22T06:45:33Z</time>
      </trkpt>
      <trkpt lat="47.2567" lon="3.92708">
        <ele>413.19</ele>
        <time>2021-09-22T06:45:44Z</time>
      </trkpt>
      <trkpt lat="47.25657" lon="3.92694">
        <ele>411.18</ele>
        <time>2021-09-22T06:45:58Z</time>
      </trkpt>
      <trkpt lat="47.25654" lon="3.92691">
        <ele>410.83</ele>
        <time>2021-09-22T06:46:02Z</time>
      </trkpt>
      <trkpt lat="47.25651" lon="3.92685">
        <ele>410.3</ele>
        <time>2021-09-22T06:46:07Z</time>
      </trkpt>
      <trkpt lat="47.2565" lon="3.92684">
        <ele>410.17</ele>
        <time>2021-09-22T06:46:08Z</time>
      </trkpt>
      <trkpt lat="47.25649" lon="3.92684">
        <ele>410.03</ele>
        <time>2021-09-22T06:46:09Z</time>
      </trkpt>
      <trkpt lat="47.25633" lon="3.92674">
        <ele>407.62</ele>
        <time>2021-09-22T06:46:22Z</time>
      </trkpt>
      <trkpt lat="47.2563" lon="3.92673">
        <ele>407.16</ele>
        <time>2021-09-22T06:46:25Z</time>
      </trkpt>
      <trkpt lat="47.25629" lon="3.92672">
        <ele>406.93</ele>
        <time>2021-09-22T06:46:26Z</time>
      </trkpt>
      <trkpt lat="47.25627" lon="3.92671">
        <ele>406.73</ele>
        <time>2021-09-22T06:46:27Z</time>
      </trkpt>
      <trkpt lat="47.25626" lon="3.92671">
        <ele>406.57</ele>
        <time>2021-09-22T06:46:28Z</time>
      </trkpt>
      <trkpt lat="47.25625" lon="3.9267">
        <ele>406.45</ele>
        <time>2021-09-22T06:46:29Z</time>
      </trkpt>
      <trkpt lat="47.25607" lon="3.92663">
        <ele>404.4</ele>
        <time>2021-09-22T06:46:44Z</time>
      </trkpt>
      <trkpt lat="47.2559" lon="3.92655">
        <ele>401.39</ele>
        <time>2021-09-22T06:46:58Z</time>
      </trkpt>
      <trkpt lat="47.2558" lon="3.92629">
        <ele>399.14</ele>
        <time>2021-09-22T06:47:14Z</time>
      </trkpt>
      <trkpt lat="47.25576" lon="3.926">
        <ele>398.56</ele>
        <time>2021-09-22T06:47:31Z</time>
      </trkpt>
      <trkpt lat="47.25576" lon="3.92598">
        <ele>398.56</ele>
        <time>2021-09-22T06:47:32Z</time>
      </trkpt>
      <trkpt lat="47.25575" lon="3.9259">
        <ele>398.82</ele>
        <time>2021-09-22T06:47:46Z</time>
      </trkpt>
      <trkpt lat="47.25575" lon="3.92594">
        <ele>398.18</ele>
        <time>2021-09-22T06:48:16Z</time>
      </trkpt>
      <trkpt lat="47.25569" lon="3.92581">
        <ele>397.73</ele>
        <time>2021-09-22T06:48:28Z</time>
      </trkpt>
      <trkpt lat="47.25565" lon="3.92574">
        <ele>397.77</ele>
        <time>2021-09-22T06:48:34Z</time>
      </trkpt>
      <trkpt lat="47.25564" lon="3.92573">
        <ele>397.78</ele>
        <time>2021-09-22T06:48:35Z</time>
      </trkpt>
      <trkpt lat="47.25563" lon="3.92572">
        <ele>397.79</ele>
        <time>2021-09-22T06:48:36Z</time>
      </trkpt>
      <trkpt lat="47.25541" lon="3.92567">
        <ele>399.27</ele>
        <time>2021-09-22T06:48:54Z</time>
      </trkpt>
      <trkpt lat="47.25515" lon="3.9257">
        <ele>401.72</ele>
        <time>2021-09-22T06:49:16Z</time>
      </trkpt>
      <trkpt lat="47.255" lon="3.92563">
        <ele>403.34</ele>
        <time>2021-09-22T06:49:32Z</time>
      </trkpt>
      <trkpt lat="47.25493" lon="3.92557">
        <ele>406.06</ele>
        <time>2021-09-22T06:49:39Z</time>
      </trkpt>
      <trkpt lat="47.25492" lon="3.92557">
        <ele>406.19</ele>
        <time>2021-09-22T06:49:40Z</time>
      </trkpt>
      <trkpt lat="47.2549" lon="3.92557">
        <ele>406.33</ele>
        <time>2021-09-22T06:49:42Z</time>
      </trkpt>
      <trkpt lat="47.25489" lon="3.92557">
        <ele>406.37</ele>
        <time>2021-09-22T06:49:43Z</time>
      </trkpt>
      <trkpt lat="47.25488" lon="3.92556">
        <ele>406.43</ele>
        <time>2021-09-22T06:49:44Z</time>
      </trkpt>
      <trkpt lat="47.25487" lon="3.92555">
        <ele>406.51</ele>
        <time>2021-09-22T06:49:45Z</time>
      </trkpt>
      <trkpt lat="47.25486" lon="3.92554">
        <ele>406.59</ele>
        <time>2021-09-22T06:49:46Z</time>
      </trkpt>
      <trkpt lat="47.25485" lon="3.92553">
        <ele>406.65</ele>
        <time>2021-09-22T06:49:47Z</time>
      </trkpt>
      <trkpt lat="47.25484" lon="3.92552">
        <ele>406.7</ele>
        <time>2021-09-22T06:49:48Z</time>
      </trkpt>
      <trkpt lat="47.25483" lon="3.92551">
        <ele>406.76</ele>
        <time>2021-09-22T06:49:49Z</time>
      </trkpt>
      <trkpt lat="47.25482" lon="3.9255">
        <ele>406.84</ele>
        <time>2021-09-22T06:49:50Z</time>
      </trkpt>
      <trkpt lat="47.25471" lon="3.92542">
        <ele>408.11</ele>
        <time>2021-09-22T06:50:01Z</time>
      </trkpt>
      <trkpt lat="47.25469" lon="3.92541">
        <ele>408.29</ele>
        <time>2021-09-22T06:50:02Z</time>
      </trkpt>
      <trkpt lat="47.25468" lon="3.9254">
        <ele>408.49</ele>
        <time>2021-09-22T06:50:03Z</time>
      </trkpt>
      <trkpt lat="47.25467" lon="3.9254">
        <ele>408.91</ele>
        <time>2021-09-22T06:50:04Z</time>
      </trkpt>
      <trkpt lat="47.25466" lon="3.92539">
        <ele>409.07</ele>
        <time>2021-09-22T06:50:05Z</time>
      </trkpt>
      <trkpt lat="47.25465" lon="3.92538">
        <ele>409.19</ele>
        <time>2021-09-22T06:50:06Z</time>
      </trkpt>
      <trkpt lat="47.25448" lon="3.92513">
        <ele>411.4</ele>
        <time>2021-09-22T06:50:27Z</time>
      </trkpt>
      <trkpt lat="47.25436" lon="3.92478">
        <ele>411.74</ele>
        <time>2021-09-22T06:50:48Z</time>
      </trkpt>
      <trkpt lat="47.25433" lon="3.92458">
        <ele>411.8</ele>
        <time>2021-09-22T06:51:05Z</time>
      </trkpt>
      <trkpt lat="47.25431" lon="3.92458">
        <ele>411.85</ele>
        <time>2021-09-22T06:51:12Z</time>
      </trkpt>
      <trkpt lat="47.2543" lon="3.92457">
        <ele>411.85</ele>
        <time>2021-09-22T06:51:13Z</time>
      </trkpt>
      <trkpt lat="47.25429" lon="3.92456">
        <ele>411.85</ele>
        <time>2021-09-22T06:51:14Z</time>
      </trkpt>
      <trkpt lat="47.25428" lon="3.92455">
        <ele>411.83</ele>
        <time>2021-09-22T06:51:15Z</time>
      </trkpt>
      <trkpt lat="47.25428" lon="3.92453">
        <ele>411.81</ele>
        <time>2021-09-22T06:51:16Z</time>
      </trkpt>
      <trkpt lat="47.25414" lon="3.92421">
        <ele>410.72</ele>
        <time>2021-09-22T06:51:36Z</time>
      </trkpt>
      <trkpt lat="47.25395" lon="3.92386">
        <ele>409.4</ele>
        <time>2021-09-22T06:51:59Z</time>
      </trkpt>
      <trkpt lat="47.25377" lon="3.92354">
        <ele>409.3</ele>
        <time>2021-09-22T06:52:21Z</time>
      </trkpt>
      <trkpt lat="47.25361" lon="3.92322">
        <ele>409.05</ele>
        <time>2021-09-22T06:52:42Z</time>
      </trkpt>
      <trkpt lat="47.25351" lon="3.92293">
        <ele>409.85</ele>
        <time>2021-09-22T06:53:01Z</time>
      </trkpt>
      <trkpt lat="47.25349" lon="3.92283">
        <ele>406.76</ele>
        <time>2021-09-22T06:53:07Z</time>
      </trkpt>
      <trkpt lat="47.25347" lon="3.92276">
        <ele>411.49</ele>
        <time>2021-09-22T06:53:11Z</time>
      </trkpt>
      <trkpt lat="47.25346" lon="3.92273">
        <ele>412.11</ele>
        <time>2021-09-22T06:53:13Z</time>
      </trkpt>
      <trkpt lat="47.25336" lon="3.92233">
        <ele>414.8</ele>
        <time>2021-09-22T06:53:39Z</time>
      </trkpt>
      <trkpt lat="47.25333" lon="3.92203">
        <ele>417.83</ele>
        <time>2021-09-22T06:53:58Z</time>
      </trkpt>
      <trkpt lat="47.25333" lon="3.92173">
        <ele>420.85</ele>
        <time>2021-09-22T06:54:18Z</time>
      </trkpt>
      <trkpt lat="47.25332" lon="3.9214">
        <ele>423.85</ele>
        <time>2021-09-22T06:54:39Z</time>
      </trkpt>
      <trkpt lat="47.25332" lon="3.92104">
        <ele>425.79</ele>
        <time>2021-09-22T06:55:02Z</time>
      </trkpt>
      <trkpt lat="47.25329" lon="3.92064">
        <ele>428.84</ele>
        <time>2021-09-22T06:55:29Z</time>
      </trkpt>
      <trkpt lat="47.25324" lon="3.92037">
        <ele>431.94</ele>
        <time>2021-09-22T06:55:49Z</time>
      </trkpt>
      <trkpt lat="47.25315" lon="3.92012">
        <ele>435.01</ele>
        <time>2021-09-22T06:56:10Z</time>
      </trkpt>
      <trkpt lat="47.25314" lon="3.92011">
        <ele>435.18</ele>
        <time>2021-09-22T06:56:11Z</time>
      </trkpt>
      <trkpt lat="47.25307" lon="3.92">
        <ele>436.62</ele>
        <time>2021-09-22T06:56:24Z</time>
      </trkpt>
      <trkpt lat="47.25306" lon="3.91999">
        <ele>436.7</ele>
        <time>2021-09-22T06:56:25Z</time>
      </trkpt>
      <trkpt lat="47.25304" lon="3.91996">
        <ele>437.57</ele>
        <time>2021-09-22T06:56:38Z</time>
      </trkpt>
      <trkpt lat="47.25301" lon="3.91991">
        <ele>438</ele>
        <time>2021-09-22T06:56:42Z</time>
      </trkpt>
      <trkpt lat="47.25283" lon="3.91955">
        <ele>439.57</ele>
        <time>2021-09-22T06:57:09Z</time>
      </trkpt>
      <trkpt lat="47.25269" lon="3.91912">
        <ele>442.53</ele>
        <time>2021-09-22T06:57:39Z</time>
      </trkpt>
      <trkpt lat="47.25259" lon="3.91878">
        <ele>445.61</ele>
        <time>2021-09-22T06:58:02Z</time>
      </trkpt>
      <trkpt lat="47.25246" lon="3.91849">
        <ele>446.73</ele>
        <time>2021-09-22T06:58:22Z</time>
      </trkpt>
      <trkpt lat="47.25231" lon="3.91809">
        <ele>446.7</ele>
        <time>2021-09-22T06:58:46Z</time>
      </trkpt>
      <trkpt lat="47.25225" lon="3.91771">
        <ele>446.53</ele>
        <time>2021-09-22T06:59:09Z</time>
      </trkpt>
      <trkpt lat="47.25218" lon="3.91724">
        <ele>446.65</ele>
        <time>2021-09-22T06:59:34Z</time>
      </trkpt>
      <trkpt lat="47.25218" lon="3.91711">
        <ele>445.01</ele>
        <time>2021-09-22T06:59:41Z</time>
      </trkpt>
      <trkpt lat="47.25219" lon="3.91707">
        <ele>444.74</ele>
        <time>2021-09-22T06:59:44Z</time>
      </trkpt>
      <trkpt lat="47.25221" lon="3.91695">
        <ele>444.3</ele>
        <time>2021-09-22T06:59:52Z</time>
      </trkpt>
      <trkpt lat="47.25221" lon="3.91693">
        <ele>444.29</ele>
        <time>2021-09-22T06:59:53Z</time>
      </trkpt>
      <trkpt lat="47.25221" lon="3.91691">
        <ele>444.27</ele>
        <time>2021-09-22T06:59:54Z</time>
      </trkpt>
      <trkpt lat="47.25225" lon="3.91659">
        <ele>443.24</ele>
        <time>2021-09-22T07:00:10Z</time>
      </trkpt>
      <trkpt lat="47.25229" lon="3.91624">
        <ele>443.15</ele>
        <time>2021-09-22T07:00:28Z</time>
      </trkpt>
      <trkpt lat="47.25241" lon="3.91577">
        <ele>442.6</ele>
        <time>2021-09-22T07:00:54Z</time>
      </trkpt>
      <trkpt lat="47.25245" lon="3.91528">
        <ele>441.86</ele>
        <time>2021-09-22T07:01:21Z</time>
      </trkpt>
      <trkpt lat="47.25249" lon="3.91483">
        <ele>440.09</ele>
        <time>2021-09-22T07:01:45Z</time>
      </trkpt>
      <trkpt lat="47.25263" lon="3.91425">
        <ele>438.34</ele>
        <time>2021-09-22T07:02:16Z</time>
      </trkpt>
      <trkpt lat="47.25272" lon="3.91383">
        <ele>437.11</ele>
        <time>2021-09-22T07:02:40Z</time>
      </trkpt>
      <trkpt lat="47.25281" lon="3.91355">
        <ele>434.09</ele>
        <time>2021-09-22T07:02:56Z</time>
      </trkpt>
      <trkpt lat="47.25281" lon="3.91353">
        <ele>433.83</ele>
        <time>2021-09-22T07:02:57Z</time>
      </trkpt>
      <trkpt lat="47.25283" lon="3.91343">
        <ele>435.93</ele>
        <time>2021-09-22T07:03:03Z</time>
      </trkpt>
      <trkpt lat="47.25285" lon="3.91299">
        <ele>436.27</ele>
        <time>2021-09-22T07:03:28Z</time>
      </trkpt>
      <trkpt lat="47.25285" lon="3.91253">
        <ele>439.12</ele>
        <time>2021-09-22T07:03:55Z</time>
      </trkpt>
      <trkpt lat="47.25284" lon="3.91201">
        <ele>440.94</ele>
        <time>2021-09-22T07:04:26Z</time>
      </trkpt>
      <trkpt lat="47.25284" lon="3.91166">
        <ele>439.59</ele>
        <time>2021-09-22T07:04:47Z</time>
      </trkpt>
      <trkpt lat="47.25288" lon="3.91139">
        <ele>440.94</ele>
        <time>2021-09-22T07:05:03Z</time>
      </trkpt>
      <trkpt lat="47.25301" lon="3.91108">
        <ele>442.18</ele>
        <time>2021-09-22T07:05:23Z</time>
      </trkpt>
      <trkpt lat="47.25317" lon="3.91071">
        <ele>442.71</ele>
        <time>2021-09-22T07:05:46Z</time>
      </trkpt>
      <trkpt lat="47.25324" lon="3.91041">
        <ele>442.16</ele>
        <time>2021-09-22T07:06:03Z</time>
      </trkpt>
      <trkpt lat="47.25329" lon="3.91004">
        <ele>441.98</ele>
        <time>2021-09-22T07:06:23Z</time>
      </trkpt>
      <trkpt lat="47.25337" lon="3.90973">
        <ele>442.42</ele>
        <time>2021-09-22T07:06:42Z</time>
      </trkpt>
      <trkpt lat="47.25339" lon="3.90957">
        <ele>442.67</ele>
        <time>2021-09-22T07:06:51Z</time>
      </trkpt>
      <trkpt lat="47.25339" lon="3.90944">
        <ele>442.91</ele>
        <time>2021-09-22T07:06:58Z</time>
      </trkpt>
      <trkpt lat="47.25338" lon="3.90943">
        <ele>442.94</ele>
        <time>2021-09-22T07:06:59Z</time>
      </trkpt>
      <trkpt lat="47.25338" lon="3.90941">
        <ele>442.96</ele>
        <time>2021-09-22T07:07:00Z</time>
      </trkpt>
      <trkpt lat="47.25337" lon="3.90939">
        <ele>442.99</ele>
        <time>2021-09-22T07:07:01Z</time>
      </trkpt>
      <trkpt lat="47.25337" lon="3.90937">
        <ele>443.01</ele>
        <time>2021-09-22T07:07:02Z</time>
      </trkpt>
      <trkpt lat="47.25337" lon="3.90935">
        <ele>443.02</ele>
        <time>2021-09-22T07:07:03Z</time>
      </trkpt>
      <trkpt lat="47.25337" lon="3.90927">
        <ele>443.09</ele>
        <time>2021-09-22T07:07:07Z</time>
      </trkpt>
      <trkpt lat="47.25337" lon="3.90925">
        <ele>443.13</ele>
        <time>2021-09-22T07:07:08Z</time>
      </trkpt>
      <trkpt lat="47.25337" lon="3.90923">
        <ele>443.13</ele>
        <time>2021-09-22T07:07:09Z</time>
      </trkpt>
      <trkpt lat="47.25337" lon="3.90922">
        <ele>443.13</ele>
        <time>2021-09-22T07:07:10Z</time>
      </trkpt>
      <trkpt lat="47.25337" lon="3.9092">
        <ele>443.13</ele>
        <time>2021-09-22T07:07:11Z</time>
      </trkpt>
      <trkpt lat="47.25337" lon="3.90918">
        <ele>443.13</ele>
        <time>2021-09-22T07:07:12Z</time>
      </trkpt>
      <trkpt lat="47.25337" lon="3.90916">
        <ele>443.14</ele>
        <time>2021-09-22T07:07:13Z</time>
      </trkpt>
      <trkpt lat="47.25337" lon="3.90911">
        <ele>443.28</ele>
        <time>2021-09-22T07:07:16Z</time>
      </trkpt>
      <trkpt lat="47.25337" lon="3.90882">
        <ele>443.81</ele>
        <time>2021-09-22T07:07:33Z</time>
      </trkpt>
      <trkpt lat="47.25337" lon="3.90881">
        <ele>443.93</ele>
        <time>2021-09-22T07:07:34Z</time>
      </trkpt>
      <trkpt lat="47.25337" lon="3.90879">
        <ele>444.04</ele>
        <time>2021-09-22T07:07:35Z</time>
      </trkpt>
      <trkpt lat="47.25337" lon="3.90877">
        <ele>444.06</ele>
        <time>2021-09-22T07:07:36Z</time>
      </trkpt>
      <trkpt lat="47.2534" lon="3.90858">
        <ele>443.41</ele>
        <time>2021-09-22T07:07:48Z</time>
      </trkpt>
      <trkpt lat="47.2534" lon="3.90854">
        <ele>443.42</ele>
        <time>2021-09-22T07:07:50Z</time>
      </trkpt>
      <trkpt lat="47.2534" lon="3.90852">
        <ele>443.49</ele>
        <time>2021-09-22T07:07:51Z</time>
      </trkpt>
      <trkpt lat="47.25335" lon="3.90846">
        <ele>443.97</ele>
        <time>2021-09-22T07:08:02Z</time>
      </trkpt>
      <trkpt lat="47.25334" lon="3.90847">
        <ele>444.04</ele>
        <time>2021-09-22T07:08:03Z</time>
      </trkpt>
      <trkpt lat="47.25333" lon="3.90854">
        <ele>444.3</ele>
        <time>2021-09-22T07:08:08Z</time>
      </trkpt>
      <trkpt lat="47.25312" lon="3.90846">
        <ele>445.17</ele>
        <time>2021-09-22T07:08:31Z</time>
      </trkpt>
      <trkpt lat="47.2529" lon="3.90846">
        <ele>447.22</ele>
        <time>2021-09-22T07:08:54Z</time>
      </trkpt>
      <trkpt lat="47.25277" lon="3.90833">
        <ele>447.87</ele>
        <time>2021-09-22T07:09:16Z</time>
      </trkpt>
      <trkpt lat="47.25268" lon="3.908">
        <ele>450.11</ele>
        <time>2021-09-22T07:09:35Z</time>
      </trkpt>
      <trkpt lat="47.25267" lon="3.90783">
        <ele>450.51</ele>
        <time>2021-09-22T07:09:49Z</time>
      </trkpt>
      <trkpt lat="47.2527" lon="3.90759">
        <ele>450.26</ele>
        <time>2021-09-22T07:10:13Z</time>
      </trkpt>
      <trkpt lat="47.25283" lon="3.90745">
        <ele>446.74</ele>
        <time>2021-09-22T07:10:36Z</time>
      </trkpt>
      <trkpt lat="47.25284" lon="3.90745">
        <ele>448.2</ele>
        <time>2021-09-22T07:10:37Z</time>
      </trkpt>
      <trkpt lat="47.25284" lon="3.90744">
        <ele>449.57</ele>
        <time>2021-09-22T07:10:39Z</time>
      </trkpt>
      <trkpt lat="47.25289" lon="3.90742">
        <ele>449.78</ele>
        <time>2021-09-22T07:10:44Z</time>
      </trkpt>
      <trkpt lat="47.25293" lon="3.90729">
        <ele>449.13</ele>
        <time>2021-09-22T07:10:58Z</time>
      </trkpt>
      <trkpt lat="47.25292" lon="3.90722">
        <ele>449.16</ele>
        <time>2021-09-22T07:11:02Z</time>
      </trkpt>
      <trkpt lat="47.25291" lon="3.90721">
        <ele>449.2</ele>
        <time>2021-09-22T07:11:03Z</time>
      </trkpt>
      <trkpt lat="47.25291" lon="3.9072">
        <ele>449.29</ele>
        <time>2021-09-22T07:11:04Z</time>
      </trkpt>
      <trkpt lat="47.25285" lon="3.90703">
        <ele>450.85</ele>
        <time>2021-09-22T07:11:20Z</time>
      </trkpt>
      <trkpt lat="47.25267" lon="3.90676">
        <ele>453.26</ele>
        <time>2021-09-22T07:11:44Z</time>
      </trkpt>
      <trkpt lat="47.25252" lon="3.90645">
        <ele>455.43</ele>
        <time>2021-09-22T07:12:10Z</time>
      </trkpt>
      <trkpt lat="47.25231" lon="3.90612">
        <ele>456.76</ele>
        <time>2021-09-22T07:12:34Z</time>
      </trkpt>
      <trkpt lat="47.25224" lon="3.90598">
        <ele>457.15</ele>
        <time>2021-09-22T07:12:41Z</time>
      </trkpt>
      <trkpt lat="47.25222" lon="3.90596">
        <ele>457.22</ele>
        <time>2021-09-22T07:12:42Z</time>
      </trkpt>
      <trkpt lat="47.25213" lon="3.90571">
        <ele>459.25</ele>
        <time>2021-09-22T07:12:57Z</time>
      </trkpt>
      <trkpt lat="47.252" lon="3.90542">
        <ele>460.81</ele>
        <time>2021-09-22T07:13:15Z</time>
      </trkpt>
      <trkpt lat="47.25187" lon="3.90511">
        <ele>461.71</ele>
        <time>2021-09-22T07:13:35Z</time>
      </trkpt>
      <trkpt lat="47.25168" lon="3.9047">
        <ele>463.51</ele>
        <time>2021-09-22T07:14:03Z</time>
      </trkpt>
      <trkpt lat="47.25158" lon="3.90443">
        <ele>464.78</ele>
        <time>2021-09-22T07:14:22Z</time>
      </trkpt>
      <trkpt lat="47.25155" lon="3.90426">
        <ele>465.41</ele>
        <time>2021-09-22T07:14:32Z</time>
      </trkpt>
      <trkpt lat="47.25155" lon="3.90425">
        <ele>465.43</ele>
        <time>2021-09-22T07:14:33Z</time>
      </trkpt>
      <trkpt lat="47.25154" lon="3.90414">
        <ele>465.62</ele>
        <time>2021-09-22T07:14:39Z</time>
      </trkpt>
      <trkpt lat="47.25154" lon="3.90413">
        <ele>465.69</ele>
        <time>2021-09-22T07:14:40Z</time>
      </trkpt>
      <trkpt lat="47.25153" lon="3.90411">
        <ele>465.74</ele>
        <time>2021-09-22T07:14:41Z</time>
      </trkpt>
      <trkpt lat="47.25153" lon="3.90409">
        <ele>465.79</ele>
        <time>2021-09-22T07:14:42Z</time>
      </trkpt>
      <trkpt lat="47.25153" lon="3.90408">
        <ele>465.87</ele>
        <time>2021-09-22T07:14:43Z</time>
      </trkpt>
      <trkpt lat="47.25153" lon="3.90406">
        <ele>465.95</ele>
        <time>2021-09-22T07:14:44Z</time>
      </trkpt>
      <trkpt lat="47.25152" lon="3.90405">
        <ele>466.03</ele>
        <time>2021-09-22T07:14:45Z</time>
      </trkpt>
      <trkpt lat="47.25152" lon="3.904">
        <ele>466.17</ele>
        <time>2021-09-22T07:14:48Z</time>
      </trkpt>
      <trkpt lat="47.25152" lon="3.90398">
        <ele>466.22</ele>
        <time>2021-09-22T07:14:49Z</time>
      </trkpt>
      <trkpt lat="47.25152" lon="3.90396">
        <ele>466.27</ele>
        <time>2021-09-22T07:14:50Z</time>
      </trkpt>
      <trkpt lat="47.25152" lon="3.90395">
        <ele>466.3</ele>
        <time>2021-09-22T07:14:51Z</time>
      </trkpt>
      <trkpt lat="47.25152" lon="3.90393">
        <ele>466.31</ele>
        <time>2021-09-22T07:14:52Z</time>
      </trkpt>
      <trkpt lat="47.25151" lon="3.90386">
        <ele>466.39</ele>
        <time>2021-09-22T07:14:56Z</time>
      </trkpt>
      <trkpt lat="47.25151" lon="3.90384">
        <ele>466.41</ele>
        <time>2021-09-22T07:14:57Z</time>
      </trkpt>
      <trkpt lat="47.25151" lon="3.90382">
        <ele>466.43</ele>
        <time>2021-09-22T07:14:58Z</time>
      </trkpt>
      <trkpt lat="47.25151" lon="3.9038">
        <ele>466.45</ele>
        <time>2021-09-22T07:14:59Z</time>
      </trkpt>
      <trkpt lat="47.2515" lon="3.90379">
        <ele>466.51</ele>
        <time>2021-09-22T07:15:00Z</time>
      </trkpt>
      <trkpt lat="47.2515" lon="3.90377">
        <ele>466.57</ele>
        <time>2021-09-22T07:15:01Z</time>
      </trkpt>
      <trkpt lat="47.2515" lon="3.90375">
        <ele>466.61</ele>
        <time>2021-09-22T07:15:02Z</time>
      </trkpt>
      <trkpt lat="47.25144" lon="3.90342">
        <ele>466.91</ele>
        <time>2021-09-22T07:15:22Z</time>
      </trkpt>
      <trkpt lat="47.25142" lon="3.90339">
        <ele>466.93</ele>
        <time>2021-09-22T07:15:24Z</time>
      </trkpt>
      <trkpt lat="47.25142" lon="3.90338">
        <ele>466.93</ele>
        <time>2021-09-22T07:15:25Z</time>
      </trkpt>
      <trkpt lat="47.25141" lon="3.90336">
        <ele>466.94</ele>
        <time>2021-09-22T07:15:26Z</time>
      </trkpt>
      <trkpt lat="47.25141" lon="3.90335">
        <ele>467</ele>
        <time>2021-09-22T07:15:27Z</time>
      </trkpt>
      <trkpt lat="47.2514" lon="3.90333">
        <ele>467.05</ele>
        <time>2021-09-22T07:15:28Z</time>
      </trkpt>
      <trkpt lat="47.25139" lon="3.90331">
        <ele>467.1</ele>
        <time>2021-09-22T07:15:29Z</time>
      </trkpt>
      <trkpt lat="47.25138" lon="3.9033">
        <ele>467.15</ele>
        <time>2021-09-22T07:15:30Z</time>
      </trkpt>
      <trkpt lat="47.25139" lon="3.90323">
        <ele>465.03</ele>
        <time>2021-09-22T07:15:36Z</time>
      </trkpt>
      <trkpt lat="47.25131" lon="3.90304">
        <ele>466.96</ele>
        <time>2021-09-22T07:15:48Z</time>
      </trkpt>
      <trkpt lat="47.25131" lon="3.90302">
        <ele>466.85</ele>
        <time>2021-09-22T07:15:49Z</time>
      </trkpt>
      <trkpt lat="47.2513" lon="3.903">
        <ele>466.81</ele>
        <time>2021-09-22T07:15:50Z</time>
      </trkpt>
      <trkpt lat="47.25123" lon="3.90281">
        <ele>466.71</ele>
        <time>2021-09-22T07:16:04Z</time>
      </trkpt>
      <trkpt lat="47.25121" lon="3.90277">
        <ele>466.83</ele>
        <time>2021-09-22T07:16:07Z</time>
      </trkpt>
      <trkpt lat="47.25121" lon="3.90276">
        <ele>466.93</ele>
        <time>2021-09-22T07:16:08Z</time>
      </trkpt>
      <trkpt lat="47.25116" lon="3.90258">
        <ele>467.86</ele>
        <time>2021-09-22T07:16:20Z</time>
      </trkpt>
      <trkpt lat="47.25107" lon="3.90237">
        <ele>468.91</ele>
        <time>2021-09-22T07:16:34Z</time>
      </trkpt>
      <trkpt lat="47.25094" lon="3.90215">
        <ele>469.78</ele>
        <time>2021-09-22T07:16:49Z</time>
      </trkpt>
      <trkpt lat="47.25087" lon="3.90202">
        <ele>470.66</ele>
        <time>2021-09-22T07:16:59Z</time>
      </trkpt>
      <trkpt lat="47.25085" lon="3.90194">
        <ele>470.97</ele>
        <time>2021-09-22T07:17:04Z</time>
      </trkpt>
      <trkpt lat="47.25085" lon="3.90192">
        <ele>471.01</ele>
        <time>2021-09-22T07:17:05Z</time>
      </trkpt>
      <trkpt lat="47.25085" lon="3.9019">
        <ele>471.1</ele>
        <time>2021-09-22T07:17:06Z</time>
      </trkpt>
      <trkpt lat="47.25084" lon="3.90188">
        <ele>471.16</ele>
        <time>2021-09-22T07:17:07Z</time>
      </trkpt>
      <trkpt lat="47.2508" lon="3.90162">
        <ele>471.88</ele>
        <time>2021-09-22T07:17:22Z</time>
      </trkpt>
      <trkpt lat="47.25078" lon="3.90152">
        <ele>472.3</ele>
        <time>2021-09-22T07:17:28Z</time>
      </trkpt>
      <trkpt lat="47.25074" lon="3.90127">
        <ele>473.22</ele>
        <time>2021-09-22T07:17:43Z</time>
      </trkpt>
      <trkpt lat="47.25066" lon="3.90104">
        <ele>474.18</ele>
        <time>2021-09-22T07:17:57Z</time>
      </trkpt>
      <trkpt lat="47.25054" lon="3.90076">
        <ele>476.2</ele>
        <time>2021-09-22T07:18:17Z</time>
      </trkpt>
      <trkpt lat="47.25053" lon="3.90064">
        <ele>477.56</ele>
        <time>2021-09-22T07:18:31Z</time>
      </trkpt>
      <trkpt lat="47.25053" lon="3.90057">
        <ele>478.02</ele>
        <time>2021-09-22T07:18:36Z</time>
      </trkpt>
      <trkpt lat="47.25051" lon="3.90034">
        <ele>479.36</ele>
        <time>2021-09-22T07:18:52Z</time>
      </trkpt>
      <trkpt lat="47.25038" lon="3.9">
        <ele>481.77</ele>
        <time>2021-09-22T07:19:15Z</time>
      </trkpt>
      <trkpt lat="47.25031" lon="3.89983">
        <ele>481.9</ele>
        <time>2021-09-22T07:19:28Z</time>
      </trkpt>
      <trkpt lat="47.2502" lon="3.89957">
        <ele>482.97</ele>
        <time>2021-09-22T07:19:44Z</time>
      </trkpt>
      <trkpt lat="47.25018" lon="3.89952">
        <ele>483.04</ele>
        <time>2021-09-22T07:19:47Z</time>
      </trkpt>
      <trkpt lat="47.25015" lon="3.89946">
        <ele>483.14</ele>
        <time>2021-09-22T07:19:51Z</time>
      </trkpt>
      <trkpt lat="47.25008" lon="3.89922">
        <ele>483.8</ele>
        <time>2021-09-22T07:20:06Z</time>
      </trkpt>
      <trkpt lat="47.25008" lon="3.89921">
        <ele>483.89</ele>
        <time>2021-09-22T07:20:07Z</time>
      </trkpt>
      <trkpt lat="47.25007" lon="3.89919">
        <ele>483.95</ele>
        <time>2021-09-22T07:20:08Z</time>
      </trkpt>
      <trkpt lat="47.2499" lon="3.899">
        <ele>485.96</ele>
        <time>2021-09-22T07:20:28Z</time>
      </trkpt>
      <trkpt lat="47.24974" lon="3.89887">
        <ele>487.09</ele>
        <time>2021-09-22T07:20:45Z</time>
      </trkpt>
      <trkpt lat="47.24958" lon="3.89875">
        <ele>488.17</ele>
        <time>2021-09-22T07:21:02Z</time>
      </trkpt>
      <trkpt lat="47.24942" lon="3.89867">
        <ele>488.61</ele>
        <time>2021-09-22T07:21:18Z</time>
      </trkpt>
      <trkpt lat="47.24924" lon="3.89859">
        <ele>489.33</ele>
        <time>2021-09-22T07:21:37Z</time>
      </trkpt>
      <trkpt lat="47.24901" lon="3.89848">
        <ele>488.9</ele>
        <time>2021-09-22T07:21:59Z</time>
      </trkpt>
      <trkpt lat="47.24878" lon="3.89838">
        <ele>488.99</ele>
        <time>2021-09-22T07:22:18Z</time>
      </trkpt>
      <trkpt lat="47.24858" lon="3.89821">
        <ele>490.15</ele>
        <time>2021-09-22T07:22:39Z</time>
      </trkpt>
      <trkpt lat="47.24851" lon="3.89813">
        <ele>490.57</ele>
        <time>2021-09-22T07:22:59Z</time>
      </trkpt>
      <trkpt lat="47.24853" lon="3.89815">
        <ele>490.66</ele>
        <time>2021-09-22T07:23:02Z</time>
      </trkpt>
      <trkpt lat="47.2486" lon="3.89828">
        <ele>490.61</ele>
        <time>2021-09-22T07:23:18Z</time>
      </trkpt>
      <trkpt lat="47.24848" lon="3.89846">
        <ele>490.75</ele>
        <time>2021-09-22T07:23:35Z</time>
      </trkpt>
      <trkpt lat="47.24829" lon="3.89866">
        <ele>491.44</ele>
        <time>2021-09-22T07:23:57Z</time>
      </trkpt>
      <trkpt lat="47.24805" lon="3.8988">
        <ele>492.1</ele>
        <time>2021-09-22T07:24:19Z</time>
      </trkpt>
      <trkpt lat="47.2477" lon="3.89902">
        <ele>490.79</ele>
        <time>2021-09-22T07:24:44Z</time>
      </trkpt>
      <trkpt lat="47.24752" lon="3.89914">
        <ele>491.68</ele>
        <time>2021-09-22T07:25:02Z</time>
      </trkpt>
      <trkpt lat="47.24746" lon="3.89917">
        <ele>492.05</ele>
        <time>2021-09-22T07:25:07Z</time>
      </trkpt>
      <trkpt lat="47.24743" lon="3.89918">
        <ele>491.98</ele>
        <time>2021-09-22T07:25:09Z</time>
      </trkpt>
      <trkpt lat="47.24742" lon="3.89919">
        <ele>491.91</ele>
        <time>2021-09-22T07:25:10Z</time>
      </trkpt>
      <trkpt lat="47.24736" lon="3.89925">
        <ele>491.94</ele>
        <time>2021-09-22T07:25:27Z</time>
      </trkpt>
      <trkpt lat="47.24723" lon="3.89934">
        <ele>492.09</ele>
        <time>2021-09-22T07:25:53Z</time>
      </trkpt>
      <trkpt lat="47.24715" lon="3.89943">
        <ele>492.03</ele>
        <time>2021-09-22T07:26:05Z</time>
      </trkpt>
      <trkpt lat="47.24714" lon="3.89944">
        <ele>492.03</ele>
        <time>2021-09-22T07:26:06Z</time>
      </trkpt>
      <trkpt lat="47.24713" lon="3.89945">
        <ele>492.03</ele>
        <time>2021-09-22T07:26:07Z</time>
      </trkpt>
      <trkpt lat="47.24712" lon="3.89946">
        <ele>492.03</ele>
        <time>2021-09-22T07:26:08Z</time>
      </trkpt>
      <trkpt lat="47.24699" lon="3.89958">
        <ele>490.51</ele>
        <time>2021-09-22T07:26:23Z</time>
      </trkpt>
      <trkpt lat="47.24681" lon="3.89978">
        <ele>489.72</ele>
        <time>2021-09-22T07:26:45Z</time>
      </trkpt>
      <trkpt lat="47.24658" lon="3.90009">
        <ele>488.78</ele>
        <time>2021-09-22T07:27:08Z</time>
      </trkpt>
      <trkpt lat="47.2465" lon="3.90018">
        <ele>488.75</ele>
        <time>2021-09-22T07:27:16Z</time>
      </trkpt>
      <trkpt lat="47.24632" lon="3.90045">
        <ele>489.32</ele>
        <time>2021-09-22T07:27:36Z</time>
      </trkpt>
      <trkpt lat="47.24618" lon="3.90076">
        <ele>488.39</ele>
        <time>2021-09-22T07:27:53Z</time>
      </trkpt>
      <trkpt lat="47.24601" lon="3.90092">
        <ele>487.14</ele>
        <time>2021-09-22T07:28:10Z</time>
      </trkpt>
      <trkpt lat="47.24585" lon="3.90114">
        <ele>485.69</ele>
        <time>2021-09-22T07:28:27Z</time>
      </trkpt>
      <trkpt lat="47.24575" lon="3.90132">
        <ele>484.36</ele>
        <time>2021-09-22T07:28:39Z</time>
      </trkpt>
      <trkpt lat="47.24574" lon="3.90133">
        <ele>484.27</ele>
        <time>2021-09-22T07:28:40Z</time>
      </trkpt>
      <trkpt lat="47.24561" lon="3.90153">
        <ele>483.2</ele>
        <time>2021-09-22T07:28:54Z</time>
      </trkpt>
      <trkpt lat="47.2455" lon="3.90178">
        <ele>482.31</ele>
        <time>2021-09-22T07:29:11Z</time>
      </trkpt>
      <trkpt lat="47.24541" lon="3.90202">
        <ele>481.91</ele>
        <time>2021-09-22T07:29:25Z</time>
      </trkpt>
      <trkpt lat="47.24533" lon="3.90224">
        <ele>481.24</ele>
        <time>2021-09-22T07:29:39Z</time>
      </trkpt>
      <trkpt lat="47.24528" lon="3.9025">
        <ele>480.71</ele>
        <time>2021-09-22T07:29:54Z</time>
      </trkpt>
      <trkpt lat="47.24524" lon="3.90271">
        <ele>480.18</ele>
        <time>2021-09-22T07:30:07Z</time>
      </trkpt>
      <trkpt lat="47.24523" lon="3.90273">
        <ele>480.1</ele>
        <time>2021-09-22T07:30:08Z</time>
      </trkpt>
      <trkpt lat="47.24522" lon="3.90302">
        <ele>479.08</ele>
        <time>2021-09-22T07:30:22Z</time>
      </trkpt>
      <trkpt lat="47.24521" lon="3.90303">
        <ele>479.03</ele>
        <time>2021-09-22T07:30:23Z</time>
      </trkpt>
      <trkpt lat="47.24521" lon="3.90327">
        <ele>477.79</ele>
        <time>2021-09-22T07:30:36Z</time>
      </trkpt>
      <trkpt lat="47.24522" lon="3.90359">
        <ele>476.49</ele>
        <time>2021-09-22T07:30:53Z</time>
      </trkpt>
      <trkpt lat="47.24522" lon="3.90392">
        <ele>475.12</ele>
        <time>2021-09-22T07:31:09Z</time>
      </trkpt>
      <trkpt lat="47.2452" lon="3.90414">
        <ele>471.97</ele>
        <time>2021-09-22T07:31:23Z</time>
      </trkpt>
      <trkpt lat="47.24518" lon="3.90422">
        <ele>468.91</ele>
        <time>2021-09-22T07:31:30Z</time>
      </trkpt>
      <trkpt lat="47.24517" lon="3.90423">
        <ele>468.69</ele>
        <time>2021-09-22T07:31:31Z</time>
      </trkpt>
      <trkpt lat="47.24504" lon="3.90453">
        <ele>469.5</ele>
        <time>2021-09-22T07:31:50Z</time>
      </trkpt>
      <trkpt lat="47.24504" lon="3.90456">
        <ele>469.38</ele>
        <time>2021-09-22T07:31:51Z</time>
      </trkpt>
      <trkpt lat="47.24503" lon="3.90458">
        <ele>469.23</ele>
        <time>2021-09-22T07:31:52Z</time>
      </trkpt>
      <trkpt lat="47.24496" lon="3.9048">
        <ele>468.94</ele>
        <time>2021-09-22T07:32:05Z</time>
      </trkpt>
      <trkpt lat="47.24482" lon="3.90503">
        <ele>469.32</ele>
        <time>2021-09-22T07:32:22Z</time>
      </trkpt>
      <trkpt lat="47.24478" lon="3.90507">
        <ele>468.66</ele>
        <time>2021-09-22T07:32:25Z</time>
      </trkpt>
      <trkpt lat="47.2447" lon="3.90506">
        <ele>469.76</ele>
        <time>2021-09-22T07:32:32Z</time>
      </trkpt>
      <trkpt lat="47.24449" lon="3.905">
        <ele>468.13</ele>
        <time>2021-09-22T07:32:46Z</time>
      </trkpt>
      <trkpt lat="47.24431" lon="3.90489">
        <ele>468.2</ele>
        <time>2021-09-22T07:33:01Z</time>
      </trkpt>
      <trkpt lat="47.24417" lon="3.90479">
        <ele>468.28</ele>
        <time>2021-09-22T07:33:15Z</time>
      </trkpt>
      <trkpt lat="47.244" lon="3.90462">
        <ele>468.24</ele>
        <time>2021-09-22T07:33:30Z</time>
      </trkpt>
      <trkpt lat="47.24381" lon="3.9043">
        <ele>466.64</ele>
        <time>2021-09-22T07:33:51Z</time>
      </trkpt>
      <trkpt lat="47.24373" lon="3.90403">
        <ele>465.73</ele>
        <time>2021-09-22T07:34:08Z</time>
      </trkpt>
      <trkpt lat="47.24373" lon="3.904">
        <ele>465.7</ele>
        <time>2021-09-22T07:34:10Z</time>
      </trkpt>
      <trkpt lat="47.24373" lon="3.90398">
        <ele>465.62</ele>
        <time>2021-09-22T07:34:11Z</time>
      </trkpt>
      <trkpt lat="47.24372" lon="3.90396">
        <ele>465.5</ele>
        <time>2021-09-22T07:34:12Z</time>
      </trkpt>
      <trkpt lat="47.24374" lon="3.90373">
        <ele>464.93</ele>
        <time>2021-09-22T07:34:29Z</time>
      </trkpt>
      <trkpt lat="47.24373" lon="3.90377">
        <ele>464.77</ele>
        <time>2021-09-22T07:34:34Z</time>
      </trkpt>
      <trkpt lat="47.24372" lon="3.90378">
        <ele>464.64</ele>
        <time>2021-09-22T07:34:35Z</time>
      </trkpt>
      <trkpt lat="47.24371" lon="3.9038">
        <ele>464.46</ele>
        <time>2021-09-22T07:34:36Z</time>
      </trkpt>
      <trkpt lat="47.2437" lon="3.90381">
        <ele>464.3</ele>
        <time>2021-09-22T07:34:37Z</time>
      </trkpt>
      <trkpt lat="47.24369" lon="3.90383">
        <ele>464.18</ele>
        <time>2021-09-22T07:34:38Z</time>
      </trkpt>
      <trkpt lat="47.24346" lon="3.90389">
        <ele>464.33</ele>
        <time>2021-09-22T07:34:57Z</time>
      </trkpt>
      <trkpt lat="47.24334" lon="3.90386">
        <ele>465.52</ele>
        <time>2021-09-22T07:35:08Z</time>
      </trkpt>
      <trkpt lat="47.24321" lon="3.90375">
        <ele>466.37</ele>
        <time>2021-09-22T07:35:23Z</time>
      </trkpt>
      <trkpt lat="47.24304" lon="3.90365">
        <ele>467.97</ele>
        <time>2021-09-22T07:35:41Z</time>
      </trkpt>
      <trkpt lat="47.24278" lon="3.90356">
        <ele>469.96</ele>
        <time>2021-09-22T07:36:05Z</time>
      </trkpt>
      <trkpt lat="47.24246" lon="3.90346">
        <ele>471.61</ele>
        <time>2021-09-22T07:36:34Z</time>
      </trkpt>
      <trkpt lat="47.24222" lon="3.90339">
        <ele>474.67</ele>
        <time>2021-09-22T07:36:53Z</time>
      </trkpt>
      <trkpt lat="47.24191" lon="3.90335">
        <ele>476.77</ele>
        <time>2021-09-22T07:37:21Z</time>
      </trkpt>
      <trkpt lat="47.24182" lon="3.90335">
        <ele>477.37</ele>
        <time>2021-09-22T07:37:28Z</time>
      </trkpt>
      <trkpt lat="47.2418" lon="3.90335">
        <ele>477.39</ele>
        <time>2021-09-22T07:37:29Z</time>
      </trkpt>
      <trkpt lat="47.24152" lon="3.9033">
        <ele>480.2</ele>
        <time>2021-09-22T07:37:58Z</time>
      </trkpt>
      <trkpt lat="47.24121" lon="3.90323">
        <ele>482.57</ele>
        <time>2021-09-22T07:38:27Z</time>
      </trkpt>
      <trkpt lat="47.24088" lon="3.90319">
        <ele>484.88</ele>
        <time>2021-09-22T07:38:54Z</time>
      </trkpt>
      <trkpt lat="47.24058" lon="3.90324">
        <ele>487.95</ele>
        <time>2021-09-22T07:39:18Z</time>
      </trkpt>
      <trkpt lat="47.24038" lon="3.90327">
        <ele>487.37</ele>
        <time>2021-09-22T07:39:36Z</time>
      </trkpt>
      <trkpt lat="47.24017" lon="3.90333">
        <ele>484.21</ele>
        <time>2021-09-22T07:39:56Z</time>
      </trkpt>
      <trkpt lat="47.23982" lon="3.90356">
        <ele>482.4</ele>
        <time>2021-09-22T07:40:25Z</time>
      </trkpt>
      <trkpt lat="47.23947" lon="3.90379">
        <ele>482.25</ele>
        <time>2021-09-22T07:40:50Z</time>
      </trkpt>
      <trkpt lat="47.23941" lon="3.90385">
        <ele>482.72</ele>
        <time>2021-09-22T07:40:55Z</time>
      </trkpt>
      <trkpt lat="47.23923" lon="3.90396">
        <ele>482.24</ele>
        <time>2021-09-22T07:41:13Z</time>
      </trkpt>
      <trkpt lat="47.23909" lon="3.90407">
        <ele>483.25</ele>
        <time>2021-09-22T07:41:27Z</time>
      </trkpt>
      <trkpt lat="47.2389" lon="3.90435">
        <ele>484.87</ele>
        <time>2021-09-22T07:41:51Z</time>
      </trkpt>
      <trkpt lat="47.23874" lon="3.90465">
        <ele>486.45</ele>
        <time>2021-09-22T07:42:14Z</time>
      </trkpt>
      <trkpt lat="47.23871" lon="3.90472">
        <ele>486.64</ele>
        <time>2021-09-22T07:42:17Z</time>
      </trkpt>
      <trkpt lat="47.23851" lon="3.90502">
        <ele>488.2</ele>
        <time>2021-09-22T07:42:41Z</time>
      </trkpt>
      <trkpt lat="47.2383" lon="3.90533">
        <ele>489.02</ele>
        <time>2021-09-22T07:43:05Z</time>
      </trkpt>
      <trkpt lat="47.23817" lon="3.90555">
        <ele>488.4</ele>
        <time>2021-09-22T07:43:25Z</time>
      </trkpt>
      <trkpt lat="47.23794" lon="3.90584">
        <ele>486.47</ele>
        <time>2021-09-22T07:43:50Z</time>
      </trkpt>
      <trkpt lat="47.23771" lon="3.90617">
        <ele>485.59</ele>
        <time>2021-09-22T07:44:12Z</time>
      </trkpt>
      <trkpt lat="47.23765" lon="3.90635">
        <ele>485.17</ele>
        <time>2021-09-22T07:44:22Z</time>
      </trkpt>
      <trkpt lat="47.2376" lon="3.90676">
        <ele>484.18</ele>
        <time>2021-09-22T07:44:42Z</time>
      </trkpt>
      <trkpt lat="47.2376" lon="3.90701">
        <ele>485.3</ele>
        <time>2021-09-22T07:44:56Z</time>
      </trkpt>
      <trkpt lat="47.23759" lon="3.90703">
        <ele>485.3</ele>
        <time>2021-09-22T07:44:57Z</time>
      </trkpt>
      <trkpt lat="47.23755" lon="3.90734">
        <ele>485.82</ele>
        <time>2021-09-22T07:45:14Z</time>
      </trkpt>
      <trkpt lat="47.23756" lon="3.90742">
        <ele>486.1</ele>
        <time>2021-09-22T07:45:18Z</time>
      </trkpt>
      <trkpt lat="47.23755" lon="3.9077">
        <ele>487.36</ele>
        <time>2021-09-22T07:45:35Z</time>
      </trkpt>
      <trkpt lat="47.23754" lon="3.90801">
        <ele>488.3</ele>
        <time>2021-09-22T07:45:51Z</time>
      </trkpt>
      <trkpt lat="47.23752" lon="3.9082">
        <ele>489.06</ele>
        <time>2021-09-22T07:46:04Z</time>
      </trkpt>
      <trkpt lat="47.23752" lon="3.90843">
        <ele>490.25</ele>
        <time>2021-09-22T07:46:21Z</time>
      </trkpt>
      <trkpt lat="47.23749" lon="3.90873">
        <ele>489.74</ele>
        <time>2021-09-22T07:46:38Z</time>
      </trkpt>
      <trkpt lat="47.23748" lon="3.90883">
        <ele>492.83</ele>
        <time>2021-09-22T07:46:43Z</time>
      </trkpt>
      <trkpt lat="47.23739" lon="3.9093">
        <ele>494.33</ele>
        <time>2021-09-22T07:47:12Z</time>
      </trkpt>
      <trkpt lat="47.23735" lon="3.90983">
        <ele>496.58</ele>
        <time>2021-09-22T07:47:42Z</time>
      </trkpt>
      <trkpt lat="47.23733" lon="3.90988">
        <ele>496.66</ele>
        <time>2021-09-22T07:47:44Z</time>
      </trkpt>
      <trkpt lat="47.23727" lon="3.91019">
        <ele>497.41</ele>
        <time>2021-09-22T07:48:02Z</time>
      </trkpt>
      <trkpt lat="47.2372" lon="3.9103">
        <ele>498.11</ele>
        <time>2021-09-22T07:48:09Z</time>
      </trkpt>
      <trkpt lat="47.23714" lon="3.91041">
        <ele>498.43</ele>
        <time>2021-09-22T07:48:16Z</time>
      </trkpt>
      <trkpt lat="47.23712" lon="3.91042">
        <ele>498.53</ele>
        <time>2021-09-22T07:48:17Z</time>
      </trkpt>
      <trkpt lat="47.23711" lon="3.91043">
        <ele>498.66</ele>
        <time>2021-09-22T07:48:18Z</time>
      </trkpt>
      <trkpt lat="47.237" lon="3.9106">
        <ele>500.5</ele>
        <time>2021-09-22T07:48:33Z</time>
      </trkpt>
      <trkpt lat="47.23699" lon="3.91061">
        <ele>500.62</ele>
        <time>2021-09-22T07:48:34Z</time>
      </trkpt>
      <trkpt lat="47.23698" lon="3.91062">
        <ele>500.77</ele>
        <time>2021-09-22T07:48:35Z</time>
      </trkpt>
      <trkpt lat="47.23681" lon="3.91076">
        <ele>502.44</ele>
        <time>2021-09-22T07:48:52Z</time>
      </trkpt>
      <trkpt lat="47.23656" lon="3.91084">
        <ele>504.54</ele>
        <time>2021-09-22T07:49:13Z</time>
      </trkpt>
      <trkpt lat="47.23625" lon="3.91083">
        <ele>507.23</ele>
        <time>2021-09-22T07:49:40Z</time>
      </trkpt>
      <trkpt lat="47.23587" lon="3.91079">
        <ele>508.51</ele>
        <time>2021-09-22T07:50:12Z</time>
      </trkpt>
      <trkpt lat="47.23586" lon="3.91078">
        <ele>508.58</ele>
        <time>2021-09-22T07:50:13Z</time>
      </trkpt>
      <trkpt lat="47.23585" lon="3.91078">
        <ele>508.66</ele>
        <time>2021-09-22T07:50:14Z</time>
      </trkpt>
      <trkpt lat="47.23584" lon="3.91077">
        <ele>508.71</ele>
        <time>2021-09-22T07:50:15Z</time>
      </trkpt>
      <trkpt lat="47.23582" lon="3.91077">
        <ele>508.77</ele>
        <time>2021-09-22T07:50:16Z</time>
      </trkpt>
      <trkpt lat="47.23581" lon="3.91077">
        <ele>508.88</ele>
        <time>2021-09-22T07:50:17Z</time>
      </trkpt>
      <trkpt lat="47.23554" lon="3.91077">
        <ele>509.87</ele>
        <time>2021-09-22T07:50:40Z</time>
      </trkpt>
      <trkpt lat="47.23546" lon="3.91076">
        <ele>510.66</ele>
        <time>2021-09-22T07:50:47Z</time>
      </trkpt>
      <trkpt lat="47.23545" lon="3.91077">
        <ele>510.7</ele>
        <time>2021-09-22T07:50:48Z</time>
      </trkpt>
      <trkpt lat="47.23543" lon="3.91077">
        <ele>510.74</ele>
        <time>2021-09-22T07:50:49Z</time>
      </trkpt>
      <trkpt lat="47.23542" lon="3.91077">
        <ele>510.78</ele>
        <time>2021-09-22T07:50:50Z</time>
      </trkpt>
      <trkpt lat="47.23541" lon="3.91077">
        <ele>510.83</ele>
        <time>2021-09-22T07:50:51Z</time>
      </trkpt>
      <trkpt lat="47.23506" lon="3.91077">
        <ele>512.66</ele>
        <time>2021-09-22T07:51:19Z</time>
      </trkpt>
      <trkpt lat="47.23474" lon="3.91077">
        <ele>512.63</ele>
        <time>2021-09-22T07:51:44Z</time>
      </trkpt>
      <trkpt lat="47.23444" lon="3.91068">
        <ele>510.79</ele>
        <time>2021-09-22T07:52:07Z</time>
      </trkpt>
      <trkpt lat="47.23426" lon="3.91053">
        <ele>510.02</ele>
        <time>2021-09-22T07:52:24Z</time>
      </trkpt>
      <trkpt lat="47.2342" lon="3.91052">
        <ele>510</ele>
        <time>2021-09-22T07:52:31Z</time>
      </trkpt>
      <trkpt lat="47.23415" lon="3.91058">
        <ele>510.73</ele>
        <time>2021-09-22T07:52:39Z</time>
      </trkpt>
      <trkpt lat="47.23412" lon="3.91059">
        <ele>511.2</ele>
        <time>2021-09-22T07:52:42Z</time>
      </trkpt>
      <trkpt lat="47.234" lon="3.91057">
        <ele>512.35</ele>
        <time>2021-09-22T07:52:54Z</time>
      </trkpt>
      <trkpt lat="47.23399" lon="3.91056">
        <ele>512.42</ele>
        <time>2021-09-22T07:52:55Z</time>
      </trkpt>
      <trkpt lat="47.23397" lon="3.91054">
        <ele>512.61</ele>
        <time>2021-09-22T07:52:57Z</time>
      </trkpt>
      <trkpt lat="47.23396" lon="3.91053">
        <ele>512.73</ele>
        <time>2021-09-22T07:52:58Z</time>
      </trkpt>
      <trkpt lat="47.23394" lon="3.91048">
        <ele>512.74</ele>
        <time>2021-09-22T07:53:01Z</time>
      </trkpt>
      <trkpt lat="47.23393" lon="3.91047">
        <ele>512.75</ele>
        <time>2021-09-22T07:53:02Z</time>
      </trkpt>
      <trkpt lat="47.23392" lon="3.91046">
        <ele>512.75</ele>
        <time>2021-09-22T07:53:03Z</time>
      </trkpt>
      <trkpt lat="47.23391" lon="3.91045">
        <ele>512.75</ele>
        <time>2021-09-22T07:53:04Z</time>
      </trkpt>
      <trkpt lat="47.23389" lon="3.91044">
        <ele>512.74</ele>
        <time>2021-09-22T07:53:05Z</time>
      </trkpt>
      <trkpt lat="47.23388" lon="3.91044">
        <ele>512.73</ele>
        <time>2021-09-22T07:53:06Z</time>
      </trkpt>
      <trkpt lat="47.23387" lon="3.91044">
        <ele>512.71</ele>
        <time>2021-09-22T07:53:07Z</time>
      </trkpt>
      <trkpt lat="47.23364" lon="3.9104">
        <ele>513.02</ele>
        <time>2021-09-22T07:53:24Z</time>
      </trkpt>
      <trkpt lat="47.23346" lon="3.91036">
        <ele>513.44</ele>
        <time>2021-09-22T07:53:40Z</time>
      </trkpt>
      <trkpt lat="47.23345" lon="3.91036">
        <ele>513.49</ele>
        <time>2021-09-22T07:53:41Z</time>
      </trkpt>
      <trkpt lat="47.23344" lon="3.91035">
        <ele>513.52</ele>
        <time>2021-09-22T07:53:42Z</time>
      </trkpt>
      <trkpt lat="47.23342" lon="3.91035">
        <ele>513.57</ele>
        <time>2021-09-22T07:53:44Z</time>
      </trkpt>
      <trkpt lat="47.2333" lon="3.91032">
        <ele>514.19</ele>
        <time>2021-09-22T07:53:56Z</time>
      </trkpt>
      <trkpt lat="47.23315" lon="3.91031">
        <ele>515.05</ele>
        <time>2021-09-22T07:54:09Z</time>
      </trkpt>
      <trkpt lat="47.23298" lon="3.91032">
        <ele>516.25</ele>
        <time>2021-09-22T07:54:24Z</time>
      </trkpt>
      <trkpt lat="47.23294" lon="3.91034">
        <ele>516.45</ele>
        <time>2021-09-22T07:54:28Z</time>
      </trkpt>
      <trkpt lat="47.23278" lon="3.91038">
        <ele>517.19</ele>
        <time>2021-09-22T07:54:42Z</time>
      </trkpt>
      <trkpt lat="47.23277" lon="3.91038">
        <ele>517.23</ele>
        <time>2021-09-22T07:54:43Z</time>
      </trkpt>
      <trkpt lat="47.23252" lon="3.91045">
        <ele>517.91</ele>
        <time>2021-09-22T07:55:02Z</time>
      </trkpt>
      <trkpt lat="47.23247" lon="3.91047">
        <ele>517.92</ele>
        <time>2021-09-22T07:55:07Z</time>
      </trkpt>
      <trkpt lat="47.23245" lon="3.91047">
        <ele>517.93</ele>
        <time>2021-09-22T07:55:08Z</time>
      </trkpt>
      <trkpt lat="47.23232" lon="3.91055">
        <ele>518.06</ele>
        <time>2021-09-22T07:55:20Z</time>
      </trkpt>
      <trkpt lat="47.23211" lon="3.91065">
        <ele>517.51</ele>
        <time>2021-09-22T07:55:37Z</time>
      </trkpt>
      <trkpt lat="47.23209" lon="3.91065">
        <ele>517.48</ele>
        <time>2021-09-22T07:55:38Z</time>
      </trkpt>
      <trkpt lat="47.23192" lon="3.91072">
        <ele>516.73</ele>
        <time>2021-09-22T07:55:52Z</time>
      </trkpt>
      <trkpt lat="47.23175" lon="3.91079">
        <ele>515.75</ele>
        <time>2021-09-22T07:56:06Z</time>
      </trkpt>
      <trkpt lat="47.23152" lon="3.91089">
        <ele>513.97</ele>
        <time>2021-09-22T07:56:23Z</time>
      </trkpt>
      <trkpt lat="47.2313" lon="3.91092">
        <ele>512.65</ele>
        <time>2021-09-22T07:56:39Z</time>
      </trkpt>
      <trkpt lat="47.23115" lon="3.91095">
        <ele>512.66</ele>
        <time>2021-09-22T07:56:52Z</time>
      </trkpt>
      <trkpt lat="47.23095" lon="3.91099">
        <ele>512.15</ele>
        <time>2021-09-22T07:57:08Z</time>
      </trkpt>
      <trkpt lat="47.23093" lon="3.911">
        <ele>512.04</ele>
        <time>2021-09-22T07:57:09Z</time>
      </trkpt>
      <trkpt lat="47.23092" lon="3.911">
        <ele>511.94</ele>
        <time>2021-09-22T07:57:10Z</time>
      </trkpt>
      <trkpt lat="47.23075" lon="3.91113">
        <ele>511.17</ele>
        <time>2021-09-22T07:57:27Z</time>
      </trkpt>
      <trkpt lat="47.23056" lon="3.91123">
        <ele>509.95</ele>
        <time>2021-09-22T07:57:44Z</time>
      </trkpt>
      <trkpt lat="47.23038" lon="3.9113">
        <ele>508.39</ele>
        <time>2021-09-22T07:57:59Z</time>
      </trkpt>
      <trkpt lat="47.23017" lon="3.9114">
        <ele>506.35</ele>
        <time>2021-09-22T07:58:15Z</time>
      </trkpt>
      <trkpt lat="47.23001" lon="3.91158">
        <ele>505.27</ele>
        <time>2021-09-22T07:58:30Z</time>
      </trkpt>
      <trkpt lat="47.22992" lon="3.91167">
        <ele>504.8</ele>
        <time>2021-09-22T07:58:47Z</time>
      </trkpt>
      <trkpt lat="47.22991" lon="3.91168">
        <ele>504.46</ele>
        <time>2021-09-22T07:58:51Z</time>
      </trkpt>
      <trkpt lat="47.2299" lon="3.91169">
        <ele>504.45</ele>
        <time>2021-09-22T07:58:52Z</time>
      </trkpt>
      <trkpt lat="47.22989" lon="3.9117">
        <ele>504.45</ele>
        <time>2021-09-22T07:58:53Z</time>
      </trkpt>
      <trkpt lat="47.22968" lon="3.91183">
        <ele>501.9</ele>
        <time>2021-09-22T07:59:12Z</time>
      </trkpt>
      <trkpt lat="47.22947" lon="3.91205">
        <ele>499.47</ele>
        <time>2021-09-22T07:59:30Z</time>
      </trkpt>
      <trkpt lat="47.22925" lon="3.91233">
        <ele>496.41</ele>
        <time>2021-09-22T07:59:50Z</time>
      </trkpt>
      <trkpt lat="47.229" lon="3.91256">
        <ele>496.1</ele>
        <time>2021-09-22T08:00:12Z</time>
      </trkpt>
      <trkpt lat="47.22872" lon="3.9129">
        <ele>494.05</ele>
        <time>2021-09-22T08:00:38Z</time>
      </trkpt>
      <trkpt lat="47.22844" lon="3.91332">
        <ele>492.04</ele>
        <time>2021-09-22T08:01:08Z</time>
      </trkpt>
      <trkpt lat="47.22825" lon="3.91361">
        <ele>492.63</ele>
        <time>2021-09-22T08:01:28Z</time>
      </trkpt>
      <trkpt lat="47.22818" lon="3.91372">
        <ele>492.03</ele>
        <time>2021-09-22T08:01:36Z</time>
      </trkpt>
      <trkpt lat="47.22817" lon="3.91374">
        <ele>491.99</ele>
        <time>2021-09-22T08:01:37Z</time>
      </trkpt>
      <trkpt lat="47.22816" lon="3.91376">
        <ele>491.96</ele>
        <time>2021-09-22T08:01:38Z</time>
      </trkpt>
      <trkpt lat="47.2281" lon="3.91384">
        <ele>491.64</ele>
        <time>2021-09-22T08:01:45Z</time>
      </trkpt>
      <trkpt lat="47.22793" lon="3.9141">
        <ele>492.26</ele>
        <time>2021-09-22T08:02:04Z</time>
      </trkpt>
      <trkpt lat="47.22782" lon="3.91436">
        <ele>493.12</ele>
        <time>2021-09-22T08:02:22Z</time>
      </trkpt>
      <trkpt lat="47.22772" lon="3.91463">
        <ele>493.68</ele>
        <time>2021-09-22T08:02:38Z</time>
      </trkpt>
      <trkpt lat="47.22764" lon="3.91485">
        <ele>494.17</ele>
        <time>2021-09-22T08:02:52Z</time>
      </trkpt>
      <trkpt lat="47.22759" lon="3.91504">
        <ele>494.44</ele>
        <time>2021-09-22T08:03:03Z</time>
      </trkpt>
      <trkpt lat="47.22759" lon="3.91505">
        <ele>494.47</ele>
        <time>2021-09-22T08:03:04Z</time>
      </trkpt>
      <trkpt lat="47.22759" lon="3.91507">
        <ele>494.5</ele>
        <time>2021-09-22T08:03:05Z</time>
      </trkpt>
      <trkpt lat="47.22755" lon="3.91533">
        <ele>495.03</ele>
        <time>2021-09-22T08:03:18Z</time>
      </trkpt>
      <trkpt lat="47.22755" lon="3.91535">
        <ele>495.05</ele>
        <time>2021-09-22T08:03:19Z</time>
      </trkpt>
      <trkpt lat="47.22755" lon="3.91536">
        <ele>495.09</ele>
        <time>2021-09-22T08:03:20Z</time>
      </trkpt>
      <trkpt lat="47.22749" lon="3.91565">
        <ele>494.79</ele>
        <time>2021-09-22T08:03:35Z</time>
      </trkpt>
      <trkpt lat="47.22743" lon="3.91595">
        <ele>492.22</ele>
        <time>2021-09-22T08:03:51Z</time>
      </trkpt>
      <trkpt lat="47.22735" lon="3.91627">
        <ele>493.51</ele>
        <time>2021-09-22T08:04:08Z</time>
      </trkpt>
      <trkpt lat="47.22727" lon="3.9167">
        <ele>492.53</ele>
        <time>2021-09-22T08:04:29Z</time>
      </trkpt>
      <trkpt lat="47.22717" lon="3.91713">
        <ele>493.16</ele>
        <time>2021-09-22T08:04:52Z</time>
      </trkpt>
      <trkpt lat="47.22713" lon="3.91757">
        <ele>492.76</ele>
        <time>2021-09-22T08:05:15Z</time>
      </trkpt>
      <trkpt lat="47.22712" lon="3.91774">
        <ele>493.26</ele>
        <time>2021-09-22T08:05:24Z</time>
      </trkpt>
      <trkpt lat="47.22708" lon="3.91819">
        <ele>493.27</ele>
        <time>2021-09-22T08:05:48Z</time>
      </trkpt>
      <trkpt lat="47.22705" lon="3.91844">
        <ele>493.56</ele>
        <time>2021-09-22T08:06:02Z</time>
      </trkpt>
      <trkpt lat="47.22702" lon="3.91881">
        <ele>493.79</ele>
        <time>2021-09-22T08:06:23Z</time>
      </trkpt>
      <trkpt lat="47.22692" lon="3.91915">
        <ele>493.26</ele>
        <time>2021-09-22T08:06:42Z</time>
      </trkpt>
      <trkpt lat="47.22683" lon="3.91948">
        <ele>492.48</ele>
        <time>2021-09-22T08:07:00Z</time>
      </trkpt>
      <trkpt lat="47.22676" lon="3.91967">
        <ele>489.47</ele>
        <time>2021-09-22T08:07:11Z</time>
      </trkpt>
      <trkpt lat="47.22663" lon="3.92007">
        <ele>488.67</ele>
        <time>2021-09-22T08:07:34Z</time>
      </trkpt>
      <trkpt lat="47.22653" lon="3.92042">
        <ele>488.41</ele>
        <time>2021-09-22T08:07:53Z</time>
      </trkpt>
      <trkpt lat="47.22638" lon="3.92082">
        <ele>488.19</ele>
        <time>2021-09-22T08:08:16Z</time>
      </trkpt>
      <trkpt lat="47.2262" lon="3.92115">
        <ele>487.4</ele>
        <time>2021-09-22T08:08:39Z</time>
      </trkpt>
      <trkpt lat="47.22607" lon="3.92139">
        <ele>485.56</ele>
        <time>2021-09-22T08:08:55Z</time>
      </trkpt>
      <trkpt lat="47.2259" lon="3.92192">
        <ele>487.19</ele>
        <time>2021-09-22T08:09:25Z</time>
      </trkpt>
      <trkpt lat="47.22583" lon="3.92242">
        <ele>488.4</ele>
        <time>2021-09-22T08:09:52Z</time>
      </trkpt>
      <trkpt lat="47.22574" lon="3.92289">
        <ele>487.74</ele>
        <time>2021-09-22T08:10:17Z</time>
      </trkpt>
      <trkpt lat="47.22565" lon="3.92342">
        <ele>485.88</ele>
        <time>2021-09-22T08:10:44Z</time>
      </trkpt>
      <trkpt lat="47.22556" lon="3.92394">
        <ele>484.13</ele>
        <time>2021-09-22T08:11:11Z</time>
      </trkpt>
      <trkpt lat="47.22546" lon="3.92439">
        <ele>482.68</ele>
        <time>2021-09-22T08:11:36Z</time>
      </trkpt>
      <trkpt lat="47.22546" lon="3.92443">
        <ele>481.3</ele>
        <time>2021-09-22T08:11:52Z</time>
      </trkpt>
      <trkpt lat="47.22544" lon="3.92446">
        <ele>482.37</ele>
        <time>2021-09-22T08:12:06Z</time>
      </trkpt>
      <trkpt lat="47.22543" lon="3.92452">
        <ele>482.57</ele>
        <time>2021-09-22T08:12:11Z</time>
      </trkpt>
      <trkpt lat="47.22543" lon="3.92453">
        <ele>482.61</ele>
        <time>2021-09-22T08:12:12Z</time>
      </trkpt>
      <trkpt lat="47.22542" lon="3.92455">
        <ele>482.63</ele>
        <time>2021-09-22T08:12:13Z</time>
      </trkpt>
      <trkpt lat="47.22536" lon="3.9248">
        <ele>482.01</ele>
        <time>2021-09-22T08:12:31Z</time>
      </trkpt>
      <trkpt lat="47.22536" lon="3.92484">
        <ele>481.74</ele>
        <time>2021-09-22T08:12:53Z</time>
      </trkpt>
      <trkpt lat="47.22536" lon="3.92485">
        <ele>481.77</ele>
        <time>2021-09-22T08:12:54Z</time>
      </trkpt>
      <trkpt lat="47.22536" lon="3.92487">
        <ele>481.78</ele>
        <time>2021-09-22T08:12:55Z</time>
      </trkpt>
      <trkpt lat="47.22535" lon="3.92488">
        <ele>481.79</ele>
        <time>2021-09-22T08:12:56Z</time>
      </trkpt>
      <trkpt lat="47.22535" lon="3.9249">
        <ele>481.78</ele>
        <time>2021-09-22T08:12:57Z</time>
      </trkpt>
      <trkpt lat="47.22535" lon="3.92492">
        <ele>481.76</ele>
        <time>2021-09-22T08:12:58Z</time>
      </trkpt>
      <trkpt lat="47.22535" lon="3.92493">
        <ele>481.73</ele>
        <time>2021-09-22T08:12:59Z</time>
      </trkpt>
      <trkpt lat="47.22534" lon="3.92495">
        <ele>481.7</ele>
        <time>2021-09-22T08:13:00Z</time>
      </trkpt>
      <trkpt lat="47.22534" lon="3.92497">
        <ele>481.67</ele>
        <time>2021-09-22T08:13:01Z</time>
      </trkpt>
      <trkpt lat="47.22529" lon="3.92533">
        <ele>481.39</ele>
        <time>2021-09-22T08:13:22Z</time>
      </trkpt>
      <trkpt lat="47.22527" lon="3.92567">
        <ele>481</ele>
        <time>2021-09-22T08:13:42Z</time>
      </trkpt>
      <trkpt lat="47.22526" lon="3.92595">
        <ele>480.48</ele>
        <time>2021-09-22T08:14:03Z</time>
      </trkpt>
      <trkpt lat="47.22526" lon="3.92601">
        <ele>481.96</ele>
        <time>2021-09-22T08:14:19Z</time>
      </trkpt>
      <trkpt lat="47.22526" lon="3.92602">
        <ele>481.96</ele>
        <time>2021-09-22T08:14:20Z</time>
      </trkpt>
      <trkpt lat="47.22526" lon="3.92604">
        <ele>481.96</ele>
        <time>2021-09-22T08:14:21Z</time>
      </trkpt>
      <trkpt lat="47.22525" lon="3.92642">
        <ele>482.29</ele>
        <time>2021-09-22T08:14:43Z</time>
      </trkpt>
      <trkpt lat="47.22523" lon="3.92686">
        <ele>481.75</ele>
        <time>2021-09-22T08:15:09Z</time>
      </trkpt>
      <trkpt lat="47.2252" lon="3.92707">
        <ele>481.44</ele>
        <time>2021-09-22T08:15:29Z</time>
      </trkpt>
      <trkpt lat="47.2252" lon="3.92707">
        <ele>480.22</ele>
        <time>2021-09-22T08:15:32Z</time>
      </trkpt>
      <trkpt lat="47.22517" lon="3.92725">
        <ele>479.28</ele>
        <time>2021-09-22T08:15:48Z</time>
      </trkpt>
      <trkpt lat="47.22518" lon="3.92726">
        <ele>478.3</ele>
        <time>2021-09-22T08:16:12Z</time>
      </trkpt>
      <trkpt lat="47.22514" lon="3.92759">
        <ele>478.78</ele>
        <time>2021-09-22T08:16:33Z</time>
      </trkpt>
      <trkpt lat="47.22506" lon="3.92794">
        <ele>478.04</ele>
        <time>2021-09-22T08:16:53Z</time>
      </trkpt>
      <trkpt lat="47.22497" lon="3.9283">
        <ele>476.01</ele>
        <time>2021-09-22T08:17:14Z</time>
      </trkpt>
      <trkpt lat="47.22489" lon="3.92859">
        <ele>473.78</ele>
        <time>2021-09-22T08:17:31Z</time>
      </trkpt>
      <trkpt lat="47.22477" lon="3.92888">
        <ele>471.31</ele>
        <time>2021-09-22T08:17:49Z</time>
      </trkpt>
      <trkpt lat="47.22452" lon="3.92928">
        <ele>469.68</ele>
        <time>2021-09-22T08:18:17Z</time>
      </trkpt>
      <trkpt lat="47.22434" lon="3.92962">
        <ele>468.71</ele>
        <time>2021-09-22T08:18:40Z</time>
      </trkpt>
      <trkpt lat="47.22414" lon="3.92993">
        <ele>468.42</ele>
        <time>2021-09-22T08:19:02Z</time>
      </trkpt>
      <trkpt lat="47.22391" lon="3.93015">
        <ele>468.11</ele>
        <time>2021-09-22T08:19:23Z</time>
      </trkpt>
      <trkpt lat="47.22364" lon="3.93036">
        <ele>466.91</ele>
        <time>2021-09-22T08:19:45Z</time>
      </trkpt>
      <trkpt lat="47.22343" lon="3.93029">
        <ele>465.91</ele>
        <time>2021-09-22T08:20:02Z</time>
      </trkpt>
      <trkpt lat="47.22318" lon="3.9302">
        <ele>464.81</ele>
        <time>2021-09-22T08:20:22Z</time>
      </trkpt>
      <trkpt lat="47.2231" lon="3.93018">
        <ele>464.4</ele>
        <time>2021-09-22T08:20:28Z</time>
      </trkpt>
      <trkpt lat="47.22309" lon="3.93018">
        <ele>464.36</ele>
        <time>2021-09-22T08:20:29Z</time>
      </trkpt>
      <trkpt lat="47.22307" lon="3.93018">
        <ele>464.31</ele>
        <time>2021-09-22T08:20:30Z</time>
      </trkpt>
      <trkpt lat="47.22306" lon="3.93017">
        <ele>464.17</ele>
        <time>2021-09-22T08:20:31Z</time>
      </trkpt>
      <trkpt lat="47.22305" lon="3.93017">
        <ele>463.77</ele>
        <time>2021-09-22T08:20:32Z</time>
      </trkpt>
      <trkpt lat="47.22304" lon="3.93016">
        <ele>463.17</ele>
        <time>2021-09-22T08:20:33Z</time>
      </trkpt>
      <trkpt lat="47.2228" lon="3.93011">
        <ele>463.76</ele>
        <time>2021-09-22T08:20:52Z</time>
      </trkpt>
      <trkpt lat="47.22272" lon="3.93012">
        <ele>463.62</ele>
        <time>2021-09-22T08:20:58Z</time>
      </trkpt>
      <trkpt lat="47.22272" lon="3.93013">
        <ele>463.58</ele>
        <time>2021-09-22T08:20:59Z</time>
      </trkpt>
      <trkpt lat="47.22274" lon="3.93049">
        <ele>461.66</ele>
        <time>2021-09-22T08:21:17Z</time>
      </trkpt>
      <trkpt lat="47.22274" lon="3.93053">
        <ele>460.95</ele>
        <time>2021-09-22T08:21:19Z</time>
      </trkpt>
      <trkpt lat="47.22281" lon="3.93095">
        <ele>461.44</ele>
        <time>2021-09-22T08:21:41Z</time>
      </trkpt>
      <trkpt lat="47.22283" lon="3.93102">
        <ele>459.68</ele>
        <time>2021-09-22T08:21:45Z</time>
      </trkpt>
      <trkpt lat="47.22286" lon="3.93141">
        <ele>460.34</ele>
        <time>2021-09-22T08:22:05Z</time>
      </trkpt>
      <trkpt lat="47.22291" lon="3.93177">
        <ele>459.76</ele>
        <time>2021-09-22T08:22:25Z</time>
      </trkpt>
      <trkpt lat="47.22291" lon="3.93182">
        <ele>460.02</ele>
        <time>2021-09-22T08:22:28Z</time>
      </trkpt>
      <trkpt lat="47.2229" lon="3.93184">
        <ele>460.07</ele>
        <time>2021-09-22T08:22:30Z</time>
      </trkpt>
      <trkpt lat="47.22278" lon="3.93189">
        <ele>458.85</ele>
        <time>2021-09-22T08:22:46Z</time>
      </trkpt>
      <trkpt lat="47.22273" lon="3.93197">
        <ele>457.71</ele>
        <time>2021-09-22T08:22:52Z</time>
      </trkpt>
      <trkpt lat="47.22271" lon="3.93201">
        <ele>457.49</ele>
        <time>2021-09-22T08:22:54Z</time>
      </trkpt>
      <trkpt lat="47.2227" lon="3.93202">
        <ele>457.39</ele>
        <time>2021-09-22T08:22:55Z</time>
      </trkpt>
      <trkpt lat="47.22269" lon="3.93204">
        <ele>457.3</ele>
        <time>2021-09-22T08:22:56Z</time>
      </trkpt>
      <trkpt lat="47.22268" lon="3.93206">
        <ele>457.23</ele>
        <time>2021-09-22T08:22:57Z</time>
      </trkpt>
      <trkpt lat="47.22268" lon="3.93208">
        <ele>457.11</ele>
        <time>2021-09-22T08:22:58Z</time>
      </trkpt>
      <trkpt lat="47.22265" lon="3.93236">
        <ele>453.99</ele>
        <time>2021-09-22T08:23:14Z</time>
      </trkpt>
      <trkpt lat="47.22262" lon="3.93257">
        <ele>451.76</ele>
        <time>2021-09-22T08:23:27Z</time>
      </trkpt>
      <trkpt lat="47.22255" lon="3.93286">
        <ele>448.73</ele>
        <time>2021-09-22T08:23:46Z</time>
      </trkpt>
      <trkpt lat="47.22252" lon="3.93308">
        <ele>448.31</ele>
        <time>2021-09-22T08:23:57Z</time>
      </trkpt>
      <trkpt lat="47.22248" lon="3.93355">
        <ele>446.66</ele>
        <time>2021-09-22T08:24:23Z</time>
      </trkpt>
      <trkpt lat="47.22244" lon="3.93383">
        <ele>445.27</ele>
        <time>2021-09-22T08:24:38Z</time>
      </trkpt>
      <trkpt lat="47.22236" lon="3.93418">
        <ele>444.15</ele>
        <time>2021-09-22T08:24:55Z</time>
      </trkpt>
      <trkpt lat="47.22228" lon="3.93444">
        <ele>444.05</ele>
        <time>2021-09-22T08:25:11Z</time>
      </trkpt>
      <trkpt lat="47.22223" lon="3.93465">
        <ele>443.87</ele>
        <time>2021-09-22T08:25:27Z</time>
      </trkpt>
      <trkpt lat="47.2222" lon="3.93482">
        <ele>443.38</ele>
        <time>2021-09-22T08:25:38Z</time>
      </trkpt>
      <trkpt lat="47.22211" lon="3.93495">
        <ele>442.49</ele>
        <time>2021-09-22T08:25:51Z</time>
      </trkpt>
      <trkpt lat="47.222" lon="3.93522">
        <ele>443.87</ele>
        <time>2021-09-22T08:26:11Z</time>
      </trkpt>
      <trkpt lat="47.22186" lon="3.93544">
        <ele>446.73</ele>
        <time>2021-09-22T08:26:29Z</time>
      </trkpt>
      <trkpt lat="47.22185" lon="3.93545">
        <ele>446.93</ele>
        <time>2021-09-22T08:26:30Z</time>
      </trkpt>
      <trkpt lat="47.22165" lon="3.93558">
        <ele>448.73</ele>
        <time>2021-09-22T08:26:53Z</time>
      </trkpt>
      <trkpt lat="47.22139" lon="3.93572">
        <ele>451.37</ele>
        <time>2021-09-22T08:27:15Z</time>
      </trkpt>
      <trkpt lat="47.22122" lon="3.93581">
        <ele>454.11</ele>
        <time>2021-09-22T08:27:36Z</time>
      </trkpt>
      <trkpt lat="47.22121" lon="3.93582">
        <ele>454.37</ele>
        <time>2021-09-22T08:27:37Z</time>
      </trkpt>
      <trkpt lat="47.22101" lon="3.93605">
        <ele>457.42</ele>
        <time>2021-09-22T08:28:03Z</time>
      </trkpt>
      <trkpt lat="47.22091" lon="3.93627">
        <ele>460.4</ele>
        <time>2021-09-22T08:28:23Z</time>
      </trkpt>
      <trkpt lat="47.22078" lon="3.93647">
        <ele>463.48</ele>
        <time>2021-09-22T08:28:44Z</time>
      </trkpt>
      <trkpt lat="47.22077" lon="3.93649">
        <ele>463.61</ele>
        <time>2021-09-22T08:28:45Z</time>
      </trkpt>
      <trkpt lat="47.22074" lon="3.93654">
        <ele>464.22</ele>
        <time>2021-09-22T08:28:50Z</time>
      </trkpt>
      <trkpt lat="47.2206" lon="3.93672">
        <ele>466.78</ele>
        <time>2021-09-22T08:29:09Z</time>
      </trkpt>
      <trkpt lat="47.22049" lon="3.93687">
        <ele>467.55</ele>
        <time>2021-09-22T08:29:25Z</time>
      </trkpt>
      <trkpt lat="47.22029" lon="3.93707">
        <ele>469.09</ele>
        <time>2021-09-22T08:29:46Z</time>
      </trkpt>
      <trkpt lat="47.22017" lon="3.93734">
        <ele>471.21</ele>
        <time>2021-09-22T08:30:05Z</time>
      </trkpt>
      <trkpt lat="47.22005" lon="3.93754">
        <ele>472.36</ele>
        <time>2021-09-22T08:30:21Z</time>
      </trkpt>
      <trkpt lat="47.21993" lon="3.9377">
        <ele>473.89</ele>
        <time>2021-09-22T08:30:36Z</time>
      </trkpt>
      <trkpt lat="47.21979" lon="3.93791">
        <ele>476.36</ele>
        <time>2021-09-22T08:30:55Z</time>
      </trkpt>
      <trkpt lat="47.21967" lon="3.93818">
        <ele>478.44</ele>
        <time>2021-09-22T08:31:17Z</time>
      </trkpt>
      <trkpt lat="47.21964" lon="3.93827">
        <ele>479.23</ele>
        <time>2021-09-22T08:31:24Z</time>
      </trkpt>
      <trkpt lat="47.21959" lon="3.93843">
        <ele>480.93</ele>
        <time>2021-09-22T08:31:37Z</time>
      </trkpt>
      <trkpt lat="47.21957" lon="3.93853">
        <ele>481.62</ele>
        <time>2021-09-22T08:31:43Z</time>
      </trkpt>
      <trkpt lat="47.21954" lon="3.93861">
        <ele>482.45</ele>
        <time>2021-09-22T08:31:49Z</time>
      </trkpt>
      <trkpt lat="47.21948" lon="3.93874">
        <ele>483.06</ele>
        <time>2021-09-22T08:32:03Z</time>
      </trkpt>
      <trkpt lat="47.21947" lon="3.93876">
        <ele>483.28</ele>
        <time>2021-09-22T08:32:04Z</time>
      </trkpt>
      <trkpt lat="47.21946" lon="3.93882">
        <ele>483.48</ele>
        <time>2021-09-22T08:32:06Z</time>
      </trkpt>
      <trkpt lat="47.2194" lon="3.93905">
        <ele>484.25</ele>
        <time>2021-09-22T08:32:22Z</time>
      </trkpt>
      <trkpt lat="47.21935" lon="3.93933">
        <ele>487.04</ele>
        <time>2021-09-22T08:32:40Z</time>
      </trkpt>
      <trkpt lat="47.21931" lon="3.93954">
        <ele>489.21</ele>
        <time>2021-09-22T08:32:55Z</time>
      </trkpt>
      <trkpt lat="47.2193" lon="3.9397">
        <ele>490.49</ele>
        <time>2021-09-22T08:33:05Z</time>
      </trkpt>
      <trkpt lat="47.21931" lon="3.93993">
        <ele>492.92</ele>
        <time>2021-09-22T08:33:22Z</time>
      </trkpt>
      <trkpt lat="47.21932" lon="3.94015">
        <ele>495.59</ele>
        <time>2021-09-22T08:33:40Z</time>
      </trkpt>
      <trkpt lat="47.21931" lon="3.94041">
        <ele>496.25</ele>
        <time>2021-09-22T08:34:02Z</time>
      </trkpt>
      <trkpt lat="47.21925" lon="3.9407">
        <ele>499.19</ele>
        <time>2021-09-22T08:34:26Z</time>
      </trkpt>
      <trkpt lat="47.21922" lon="3.9411">
        <ele>501.47</ele>
        <time>2021-09-22T08:34:53Z</time>
      </trkpt>
      <trkpt lat="47.2192" lon="3.94118">
        <ele>501.91</ele>
        <time>2021-09-22T08:34:57Z</time>
      </trkpt>
      <trkpt lat="47.2192" lon="3.94121">
        <ele>502.01</ele>
        <time>2021-09-22T08:34:58Z</time>
      </trkpt>
      <trkpt lat="47.21918" lon="3.94129">
        <ele>502.15</ele>
        <time>2021-09-22T08:35:00Z</time>
      </trkpt>
      <trkpt lat="47.21909" lon="3.94167">
        <ele>503.69</ele>
        <time>2021-09-22T08:35:20Z</time>
      </trkpt>
      <trkpt lat="47.21899" lon="3.94198">
        <ele>505.42</ele>
        <time>2021-09-22T08:35:40Z</time>
      </trkpt>
      <trkpt lat="47.21897" lon="3.94209">
        <ele>504.35</ele>
        <time>2021-09-22T08:35:48Z</time>
      </trkpt>
      <trkpt lat="47.21896" lon="3.9421">
        <ele>504.35</ele>
        <time>2021-09-22T08:35:49Z</time>
      </trkpt>
      <trkpt lat="47.21886" lon="3.94242">
        <ele>505.37</ele>
        <time>2021-09-22T08:36:10Z</time>
      </trkpt>
      <trkpt lat="47.21884" lon="3.94253">
        <ele>503.44</ele>
        <time>2021-09-22T08:36:16Z</time>
      </trkpt>
      <trkpt lat="47.21881" lon="3.94281">
        <ele>505.15</ele>
        <time>2021-09-22T08:36:31Z</time>
      </trkpt>
      <trkpt lat="47.21877" lon="3.94313">
        <ele>504.29</ele>
        <time>2021-09-22T08:36:49Z</time>
      </trkpt>
      <trkpt lat="47.21875" lon="3.94348">
        <ele>505.63</ele>
        <time>2021-09-22T08:37:09Z</time>
      </trkpt>
      <trkpt lat="47.21876" lon="3.94385">
        <ele>506.19</ele>
        <time>2021-09-22T08:37:30Z</time>
      </trkpt>
      <trkpt lat="47.21879" lon="3.94423">
        <ele>507.87</ele>
        <time>2021-09-22T08:37:52Z</time>
      </trkpt>
      <trkpt lat="47.21889" lon="3.94451">
        <ele>509.35</ele>
        <time>2021-09-22T08:38:10Z</time>
      </trkpt>
      <trkpt lat="47.21904" lon="3.94484">
        <ele>508.71</ele>
        <time>2021-09-22T08:38:32Z</time>
      </trkpt>
      <trkpt lat="47.21906" lon="3.94486">
        <ele>508.92</ele>
        <time>2021-09-22T08:38:46Z</time>
      </trkpt>
      <trkpt lat="47.21909" lon="3.94488">
        <ele>508.92</ele>
        <time>2021-09-22T08:38:48Z</time>
      </trkpt>
      <trkpt lat="47.21928" lon="3.94515">
        <ele>506.19</ele>
        <time>2021-09-22T08:39:11Z</time>
      </trkpt>
      <trkpt lat="47.21934" lon="3.94555">
        <ele>503.17</ele>
        <time>2021-09-22T08:39:34Z</time>
      </trkpt>
      <trkpt lat="47.21941" lon="3.9459">
        <ele>500.04</ele>
        <time>2021-09-22T08:39:54Z</time>
      </trkpt>
      <trkpt lat="47.21942" lon="3.94593">
        <ele>499.08</ele>
        <time>2021-09-22T08:40:04Z</time>
      </trkpt>
      <trkpt lat="47.21942" lon="3.94595">
        <ele>499</ele>
        <time>2021-09-22T08:40:05Z</time>
      </trkpt>
      <trkpt lat="47.21943" lon="3.94597">
        <ele>498.91</ele>
        <time>2021-09-22T08:40:06Z</time>
      </trkpt>
      <trkpt lat="47.21945" lon="3.9461">
        <ele>497.83</ele>
        <time>2021-09-22T08:40:22Z</time>
      </trkpt>
      <trkpt lat="47.21945" lon="3.94612">
        <ele>497.82</ele>
        <time>2021-09-22T08:40:23Z</time>
      </trkpt>
      <trkpt lat="47.21945" lon="3.94613">
        <ele>497.79</ele>
        <time>2021-09-22T08:40:24Z</time>
      </trkpt>
      <trkpt lat="47.21945" lon="3.94615">
        <ele>497.72</ele>
        <time>2021-09-22T08:40:25Z</time>
      </trkpt>
      <trkpt lat="47.21945" lon="3.94617">
        <ele>497.61</ele>
        <time>2021-09-22T08:40:26Z</time>
      </trkpt>
      <trkpt lat="47.21945" lon="3.94618">
        <ele>497.48</ele>
        <time>2021-09-22T08:40:27Z</time>
      </trkpt>
      <trkpt lat="47.21945" lon="3.9462">
        <ele>497.27</ele>
        <time>2021-09-22T08:40:28Z</time>
      </trkpt>
      <trkpt lat="47.21945" lon="3.94622">
        <ele>497.17</ele>
        <time>2021-09-22T08:40:29Z</time>
      </trkpt>
      <trkpt lat="47.21944" lon="3.94624">
        <ele>497.05</ele>
        <time>2021-09-22T08:40:30Z</time>
      </trkpt>
      <trkpt lat="47.21944" lon="3.94625">
        <ele>496.91</ele>
        <time>2021-09-22T08:40:31Z</time>
      </trkpt>
      <trkpt lat="47.21944" lon="3.94627">
        <ele>496.75</ele>
        <time>2021-09-22T08:40:32Z</time>
      </trkpt>
      <trkpt lat="47.21944" lon="3.94628">
        <ele>496.57</ele>
        <time>2021-09-22T08:40:33Z</time>
      </trkpt>
      <trkpt lat="47.21943" lon="3.9463">
        <ele>496.43</ele>
        <time>2021-09-22T08:40:34Z</time>
      </trkpt>
      <trkpt lat="47.21935" lon="3.94665">
        <ele>493.3</ele>
        <time>2021-09-22T08:40:54Z</time>
      </trkpt>
      <trkpt lat="47.21928" lon="3.94701">
        <ele>490.26</ele>
        <time>2021-09-22T08:41:14Z</time>
      </trkpt>
      <trkpt lat="47.21921" lon="3.94745">
        <ele>487.23</ele>
        <time>2021-09-22T08:41:37Z</time>
      </trkpt>
      <trkpt lat="47.21922" lon="3.94786">
        <ele>484.57</ele>
        <time>2021-09-22T08:41:58Z</time>
      </trkpt>
      <trkpt lat="47.21921" lon="3.94828">
        <ele>482.5</ele>
        <time>2021-09-22T08:42:19Z</time>
      </trkpt>
      <trkpt lat="47.21922" lon="3.94873">
        <ele>480.07</ele>
        <time>2021-09-22T08:42:43Z</time>
      </trkpt>
      <trkpt lat="47.21926" lon="3.94909">
        <ele>477.03</ele>
        <time>2021-09-22T08:43:05Z</time>
      </trkpt>
      <trkpt lat="47.21931" lon="3.94912">
        <ele>476.11</ele>
        <time>2021-09-22T08:43:12Z</time>
      </trkpt>
      <trkpt lat="47.21955" lon="3.9491">
        <ele>474.17</ele>
        <time>2021-09-22T08:43:29Z</time>
      </trkpt>
      <trkpt lat="47.21978" lon="3.94926">
        <ele>472.95</ele>
        <time>2021-09-22T08:43:48Z</time>
      </trkpt>
      <trkpt lat="47.21992" lon="3.94961">
        <ele>472.19</ele>
        <time>2021-09-22T08:44:08Z</time>
      </trkpt>
      <trkpt lat="47.22003" lon="3.94999">
        <ele>470.68</ele>
        <time>2021-09-22T08:44:30Z</time>
      </trkpt>
      <trkpt lat="47.22006" lon="3.95009">
        <ele>470.32</ele>
        <time>2021-09-22T08:44:36Z</time>
      </trkpt>
      <trkpt lat="47.22006" lon="3.9501">
        <ele>470.33</ele>
        <time>2021-09-22T08:44:37Z</time>
      </trkpt>
      <trkpt lat="47.22007" lon="3.95013">
        <ele>470.5</ele>
        <time>2021-09-22T08:44:39Z</time>
      </trkpt>
      <trkpt lat="47.22007" lon="3.95015">
        <ele>470.64</ele>
        <time>2021-09-22T08:44:40Z</time>
      </trkpt>
      <trkpt lat="47.22008" lon="3.95017">
        <ele>470.72</ele>
        <time>2021-09-22T08:44:41Z</time>
      </trkpt>
      <trkpt lat="47.22008" lon="3.95018">
        <ele>470.76</ele>
        <time>2021-09-22T08:44:42Z</time>
      </trkpt>
      <trkpt lat="47.22009" lon="3.9502">
        <ele>470.76</ele>
        <time>2021-09-22T08:44:43Z</time>
      </trkpt>
      <trkpt lat="47.22011" lon="3.95031">
        <ele>470.3</ele>
        <time>2021-09-22T08:44:50Z</time>
      </trkpt>
      <trkpt lat="47.22011" lon="3.95035">
        <ele>470.29</ele>
        <time>2021-09-22T08:44:53Z</time>
      </trkpt>
      <trkpt lat="47.22015" lon="3.95053">
        <ele>470.25</ele>
        <time>2021-09-22T08:45:08Z</time>
      </trkpt>
      <trkpt lat="47.22017" lon="3.95055">
        <ele>470.35</ele>
        <time>2021-09-22T08:45:11Z</time>
      </trkpt>
      <trkpt lat="47.22018" lon="3.95057">
        <ele>470.42</ele>
        <time>2021-09-22T08:45:12Z</time>
      </trkpt>
      <trkpt lat="47.22018" lon="3.95058">
        <ele>470.64</ele>
        <time>2021-09-22T08:45:13Z</time>
      </trkpt>
      <trkpt lat="47.22025" lon="3.95097">
        <ele>471.53</ele>
        <time>2021-09-22T08:45:35Z</time>
      </trkpt>
      <trkpt lat="47.22029" lon="3.95132">
        <ele>470.81</ele>
        <time>2021-09-22T08:45:55Z</time>
      </trkpt>
      <trkpt lat="47.22031" lon="3.95159">
        <ele>469.88</ele>
        <time>2021-09-22T08:46:11Z</time>
      </trkpt>
      <trkpt lat="47.22031" lon="3.95161">
        <ele>469.85</ele>
        <time>2021-09-22T08:46:12Z</time>
      </trkpt>
      <trkpt lat="47.22031" lon="3.95163">
        <ele>469.85</ele>
        <time>2021-09-22T08:46:13Z</time>
      </trkpt>
      <trkpt lat="47.22031" lon="3.95198">
        <ele>470.36</ele>
        <time>2021-09-22T08:46:31Z</time>
      </trkpt>
      <trkpt lat="47.2203" lon="3.95238">
        <ele>471.89</ele>
        <time>2021-09-22T08:46:52Z</time>
      </trkpt>
      <trkpt lat="47.22025" lon="3.9527">
        <ele>472.47</ele>
        <time>2021-09-22T08:47:10Z</time>
      </trkpt>
      <trkpt lat="47.22023" lon="3.95321">
        <ele>470.3</ele>
        <time>2021-09-22T08:47:37Z</time>
      </trkpt>
      <trkpt lat="47.22021" lon="3.95361">
        <ele>468.31</ele>
        <time>2021-09-22T08:47:59Z</time>
      </trkpt>
      <trkpt lat="47.2202" lon="3.95385">
        <ele>466.47</ele>
        <time>2021-09-22T08:48:14Z</time>
      </trkpt>
      <trkpt lat="47.22018" lon="3.95426">
        <ele>465.11</ele>
        <time>2021-09-22T08:48:34Z</time>
      </trkpt>
      <trkpt lat="47.22018" lon="3.9548">
        <ele>464.36</ele>
        <time>2021-09-22T08:49:01Z</time>
      </trkpt>
      <trkpt lat="47.22019" lon="3.95504">
        <ele>464.47</ele>
        <time>2021-09-22T08:49:14Z</time>
      </trkpt>
      <trkpt lat="47.22019" lon="3.95506">
        <ele>464.5</ele>
        <time>2021-09-22T08:49:15Z</time>
      </trkpt>
      <trkpt lat="47.22019" lon="3.95508">
        <ele>464.55</ele>
        <time>2021-09-22T08:49:16Z</time>
      </trkpt>
      <trkpt lat="47.22019" lon="3.9551">
        <ele>464.62</ele>
        <time>2021-09-22T08:49:17Z</time>
      </trkpt>
      <trkpt lat="47.22019" lon="3.95512">
        <ele>464.75</ele>
        <time>2021-09-22T08:49:18Z</time>
      </trkpt>
      <trkpt lat="47.22019" lon="3.95514">
        <ele>464.82</ele>
        <time>2021-09-22T08:49:19Z</time>
      </trkpt>
      <trkpt lat="47.22019" lon="3.95515">
        <ele>464.91</ele>
        <time>2021-09-22T08:49:20Z</time>
      </trkpt>
      <trkpt lat="47.22019" lon="3.95517">
        <ele>464.97</ele>
        <time>2021-09-22T08:49:21Z</time>
      </trkpt>
      <trkpt lat="47.22019" lon="3.95519">
        <ele>465.02</ele>
        <time>2021-09-22T08:49:22Z</time>
      </trkpt>
      <trkpt lat="47.22019" lon="3.95521">
        <ele>465.05</ele>
        <time>2021-09-22T08:49:23Z</time>
      </trkpt>
      <trkpt lat="47.22016" lon="3.95556">
        <ele>465.4</ele>
        <time>2021-09-22T08:49:41Z</time>
      </trkpt>
      <trkpt lat="47.22018" lon="3.95593">
        <ele>465.34</ele>
        <time>2021-09-22T08:50:00Z</time>
      </trkpt>
      <trkpt lat="47.22018" lon="3.95631">
        <ele>464.36</ele>
        <time>2021-09-22T08:50:22Z</time>
      </trkpt>
      <trkpt lat="47.22019" lon="3.95652">
        <ele>463.27</ele>
        <time>2021-09-22T08:50:36Z</time>
      </trkpt>
      <trkpt lat="47.22018" lon="3.95688">
        <ele>461.54</ele>
        <time>2021-09-22T08:50:54Z</time>
      </trkpt>
      <trkpt lat="47.22024" lon="3.95731">
        <ele>459.65</ele>
        <time>2021-09-22T08:51:14Z</time>
      </trkpt>
      <trkpt lat="47.22033" lon="3.95775">
        <ele>456.54</ele>
        <time>2021-09-22T08:51:38Z</time>
      </trkpt>
      <trkpt lat="47.22034" lon="3.9578">
        <ele>455.11</ele>
        <time>2021-09-22T08:51:41Z</time>
      </trkpt>
      <trkpt lat="47.22033" lon="3.95808">
        <ele>453.99</ele>
        <time>2021-09-22T08:51:56Z</time>
      </trkpt>
      <trkpt lat="47.22018" lon="3.95837">
        <ele>452.14</ele>
        <time>2021-09-22T08:52:15Z</time>
      </trkpt>
      <trkpt lat="47.22012" lon="3.95865">
        <ele>450.96</ele>
        <time>2021-09-22T08:52:32Z</time>
      </trkpt>
      <trkpt lat="47.22006" lon="3.95904">
        <ele>449.45</ele>
        <time>2021-09-22T08:52:52Z</time>
      </trkpt>
      <trkpt lat="47.22003" lon="3.9593">
        <ele>447.73</ele>
        <time>2021-09-22T08:53:09Z</time>
      </trkpt>
      <trkpt lat="47.22" lon="3.95958">
        <ele>447.04</ele>
        <time>2021-09-22T08:53:24Z</time>
      </trkpt>
      <trkpt lat="47.21999" lon="3.9596">
        <ele>447.04</ele>
        <time>2021-09-22T08:53:25Z</time>
      </trkpt>
      <trkpt lat="47.21992" lon="3.95995">
        <ele>446.04</ele>
        <time>2021-09-22T08:53:42Z</time>
      </trkpt>
      <trkpt lat="47.21991" lon="3.96001">
        <ele>443.57</ele>
        <time>2021-09-22T08:53:45Z</time>
      </trkpt>
      <trkpt lat="47.21987" lon="3.96032">
        <ele>444.98</ele>
        <time>2021-09-22T08:54:01Z</time>
      </trkpt>
      <trkpt lat="47.21982" lon="3.96062">
        <ele>444.96</ele>
        <time>2021-09-22T08:54:17Z</time>
      </trkpt>
      <trkpt lat="47.21976" lon="3.9609">
        <ele>444.99</ele>
        <time>2021-09-22T08:54:35Z</time>
      </trkpt>
      <trkpt lat="47.21965" lon="3.96131">
        <ele>442.34</ele>
        <time>2021-09-22T08:54:58Z</time>
      </trkpt>
      <trkpt lat="47.21959" lon="3.96145">
        <ele>441.15</ele>
        <time>2021-09-22T08:55:07Z</time>
      </trkpt>
      <trkpt lat="47.21943" lon="3.96147">
        <ele>439.45</ele>
        <time>2021-09-22T08:55:20Z</time>
      </trkpt>
      <trkpt lat="47.21941" lon="3.96147">
        <ele>439.45</ele>
        <time>2021-09-22T08:55:21Z</time>
      </trkpt>
      <trkpt lat="47.21918" lon="3.96142">
        <ele>437.97</ele>
        <time>2021-09-22T08:55:44Z</time>
      </trkpt>
      <trkpt lat="47.21906" lon="3.96162">
        <ele>438.45</ele>
        <time>2021-09-22T08:55:57Z</time>
      </trkpt>
      <trkpt lat="47.21897" lon="3.96207">
        <ele>438.38</ele>
        <time>2021-09-22T08:56:18Z</time>
      </trkpt>
      <trkpt lat="47.21898" lon="3.96225">
        <ele>438.77</ele>
        <time>2021-09-22T08:56:26Z</time>
      </trkpt>
      <trkpt lat="47.21898" lon="3.96227">
        <ele>439.08</ele>
        <time>2021-09-22T08:56:27Z</time>
      </trkpt>
      <trkpt lat="47.21899" lon="3.96229">
        <ele>439.46</ele>
        <time>2021-09-22T08:56:28Z</time>
      </trkpt>
      <trkpt lat="47.21899" lon="3.96231">
        <ele>439.74</ele>
        <time>2021-09-22T08:56:29Z</time>
      </trkpt>
      <trkpt lat="47.219" lon="3.96233">
        <ele>439.91</ele>
        <time>2021-09-22T08:56:30Z</time>
      </trkpt>
      <trkpt lat="47.21912" lon="3.9626">
        <ele>440.35</ele>
        <time>2021-09-22T08:56:47Z</time>
      </trkpt>
      <trkpt lat="47.2193" lon="3.96289">
        <ele>441.96</ele>
        <time>2021-09-22T08:57:09Z</time>
      </trkpt>
      <trkpt lat="47.21943" lon="3.96311">
        <ele>442.77</ele>
        <time>2021-09-22T08:57:28Z</time>
      </trkpt>
      <trkpt lat="47.21964" lon="3.96324">
        <ele>443.9</ele>
        <time>2021-09-22T08:57:46Z</time>
      </trkpt>
      <trkpt lat="47.21984" lon="3.96326">
        <ele>445.43</ele>
        <time>2021-09-22T08:58:03Z</time>
      </trkpt>
      <trkpt lat="47.21987" lon="3.96326">
        <ele>445.49</ele>
        <time>2021-09-22T08:58:04Z</time>
      </trkpt>
      <trkpt lat="47.21989" lon="3.96327">
        <ele>445.54</ele>
        <time>2021-09-22T08:58:05Z</time>
      </trkpt>
      <trkpt lat="47.21991" lon="3.96327">
        <ele>445.6</ele>
        <time>2021-09-22T08:58:06Z</time>
      </trkpt>
      <trkpt lat="47.21993" lon="3.96326">
        <ele>445.66</ele>
        <time>2021-09-22T08:58:07Z</time>
      </trkpt>
      <trkpt lat="47.22018" lon="3.96326">
        <ele>448.11</ele>
        <time>2021-09-22T08:58:30Z</time>
      </trkpt>
      <trkpt lat="47.22019" lon="3.96326">
        <ele>448.21</ele>
        <time>2021-09-22T08:58:31Z</time>
      </trkpt>
      <trkpt lat="47.2202" lon="3.96326">
        <ele>448.29</ele>
        <time>2021-09-22T08:58:32Z</time>
      </trkpt>
      <trkpt lat="47.22021" lon="3.96326">
        <ele>448.33</ele>
        <time>2021-09-22T08:58:33Z</time>
      </trkpt>
      <trkpt lat="47.22022" lon="3.96326">
        <ele>448.37</ele>
        <time>2021-09-22T08:58:34Z</time>
      </trkpt>
      <trkpt lat="47.22024" lon="3.96326">
        <ele>448.41</ele>
        <time>2021-09-22T08:58:35Z</time>
      </trkpt>
      <trkpt lat="47.22059" lon="3.96317">
        <ele>449.27</ele>
        <time>2021-09-22T08:59:02Z</time>
      </trkpt>
      <trkpt lat="47.22093" lon="3.96311">
        <ele>450.45</ele>
        <time>2021-09-22T08:59:29Z</time>
      </trkpt>
      <trkpt lat="47.22095" lon="3.9631">
        <ele>450.6</ele>
        <time>2021-09-22T08:59:48Z</time>
      </trkpt>
      <trkpt lat="47.22096" lon="3.96311">
        <ele>450.61</ele>
        <time>2021-09-22T08:59:50Z</time>
      </trkpt>
      <trkpt lat="47.22098" lon="3.96311">
        <ele>450.62</ele>
        <time>2021-09-22T08:59:51Z</time>
      </trkpt>
      <trkpt lat="47.221" lon="3.96313">
        <ele>450.65</ele>
        <time>2021-09-22T08:59:53Z</time>
      </trkpt>
      <trkpt lat="47.22117" lon="3.96336">
        <ele>449.65</ele>
        <time>2021-09-22T09:00:11Z</time>
      </trkpt>
      <trkpt lat="47.22133" lon="3.9637">
        <ele>450.04</ele>
        <time>2021-09-22T09:00:32Z</time>
      </trkpt>
      <trkpt lat="47.22129" lon="3.96402">
        <ele>452.65</ele>
        <time>2021-09-22T09:00:50Z</time>
      </trkpt>
      <trkpt lat="47.22128" lon="3.96412">
        <ele>453.46</ele>
        <time>2021-09-22T09:00:56Z</time>
      </trkpt>
      <trkpt lat="47.22128" lon="3.96413">
        <ele>453.64</ele>
        <time>2021-09-22T09:00:57Z</time>
      </trkpt>
      <trkpt lat="47.22127" lon="3.96415">
        <ele>453.77</ele>
        <time>2021-09-22T09:00:58Z</time>
      </trkpt>
      <trkpt lat="47.2211" lon="3.9645">
        <ele>455.9</ele>
        <time>2021-09-22T09:01:22Z</time>
      </trkpt>
      <trkpt lat="47.22094" lon="3.96485">
        <ele>457.65</ele>
        <time>2021-09-22T09:01:46Z</time>
      </trkpt>
      <trkpt lat="47.22087" lon="3.96529">
        <ele>459.79</ele>
        <time>2021-09-22T09:02:12Z</time>
      </trkpt>
      <trkpt lat="47.22089" lon="3.96592">
        <ele>462.7</ele>
        <time>2021-09-22T09:02:46Z</time>
      </trkpt>
      <trkpt lat="47.22095" lon="3.96641">
        <ele>463.43</ele>
        <time>2021-09-22T09:03:13Z</time>
      </trkpt>
      <trkpt lat="47.22102" lon="3.967">
        <ele>466.07</ele>
        <time>2021-09-22T09:03:47Z</time>
      </trkpt>
      <trkpt lat="47.22106" lon="3.96751">
        <ele>468.92</ele>
        <time>2021-09-22T09:04:17Z</time>
      </trkpt>
      <trkpt lat="47.22105" lon="3.96782">
        <ele>471.61</ele>
        <time>2021-09-22T09:04:35Z</time>
      </trkpt>
      <trkpt lat="47.22098" lon="3.96839">
        <ele>474.17</ele>
        <time>2021-09-22T09:05:08Z</time>
      </trkpt>
      <trkpt lat="47.2209" lon="3.9689">
        <ele>474.84</ele>
        <time>2021-09-22T09:05:38Z</time>
      </trkpt>
      <trkpt lat="47.22083" lon="3.96926">
        <ele>475.39</ele>
        <time>2021-09-22T09:05:58Z</time>
      </trkpt>
      <trkpt lat="47.2207" lon="3.96978">
        <ele>475.36</ele>
        <time>2021-09-22T09:06:26Z</time>
      </trkpt>
      <trkpt lat="47.22071" lon="3.97012">
        <ele>476.32</ele>
        <time>2021-09-22T09:06:44Z</time>
      </trkpt>
      <trkpt lat="47.22079" lon="3.9705">
        <ele>475.36</ele>
        <time>2021-09-22T09:07:05Z</time>
      </trkpt>
      <trkpt lat="47.2208" lon="3.97078">
        <ele>478.46</ele>
        <time>2021-09-22T09:07:20Z</time>
      </trkpt>
      <trkpt lat="47.22076" lon="3.97128">
        <ele>477.46</ele>
        <time>2021-09-22T09:07:46Z</time>
      </trkpt>
      <trkpt lat="47.22075" lon="3.97139">
        <ele>475.44</ele>
        <time>2021-09-22T09:07:52Z</time>
      </trkpt>
      <trkpt lat="47.22072" lon="3.97153">
        <ele>478.47</ele>
        <time>2021-09-22T09:08:00Z</time>
      </trkpt>
      <trkpt lat="47.22068" lon="3.97159">
        <ele>479.62</ele>
        <time>2021-09-22T09:08:05Z</time>
      </trkpt>
      <trkpt lat="47.22067" lon="3.97159">
        <ele>479.62</ele>
        <time>2021-09-22T09:08:06Z</time>
      </trkpt>
      <trkpt lat="47.22066" lon="3.9716">
        <ele>479.49</ele>
        <time>2021-09-22T09:08:07Z</time>
      </trkpt>
      <trkpt lat="47.22065" lon="3.97161">
        <ele>479.42</ele>
        <time>2021-09-22T09:08:08Z</time>
      </trkpt>
      <trkpt lat="47.22064" lon="3.97162">
        <ele>479.37</ele>
        <time>2021-09-22T09:08:09Z</time>
      </trkpt>
      <trkpt lat="47.22054" lon="3.9717">
        <ele>479.59</ele>
        <time>2021-09-22T09:08:22Z</time>
      </trkpt>
      <trkpt lat="47.22052" lon="3.97171">
        <ele>479.63</ele>
        <time>2021-09-22T09:08:23Z</time>
      </trkpt>
      <trkpt lat="47.22051" lon="3.97171">
        <ele>479.67</ele>
        <time>2021-09-22T09:08:24Z</time>
      </trkpt>
      <trkpt lat="47.22031" lon="3.9718">
        <ele>482.71</ele>
        <time>2021-09-22T09:08:42Z</time>
      </trkpt>
      <trkpt lat="47.22011" lon="3.97181">
        <ele>485.95</ele>
        <time>2021-09-22T09:08:59Z</time>
      </trkpt>
      <trkpt lat="47.21976" lon="3.97179">
        <ele>488.05</ele>
        <time>2021-09-22T09:09:27Z</time>
      </trkpt>
      <trkpt lat="47.21948" lon="3.97176">
        <ele>487.46</ele>
        <time>2021-09-22T09:09:50Z</time>
      </trkpt>
      <trkpt lat="47.21925" lon="3.97169">
        <ele>488.05</ele>
        <time>2021-09-22T09:10:10Z</time>
      </trkpt>
      <trkpt lat="47.21901" lon="3.97159">
        <ele>487.94</ele>
        <time>2021-09-22T09:10:30Z</time>
      </trkpt>
      <trkpt lat="47.21887" lon="3.97151">
        <ele>489.14</ele>
        <time>2021-09-22T09:10:47Z</time>
      </trkpt>
      <trkpt lat="47.21888" lon="3.97149">
        <ele>489.21</ele>
        <time>2021-09-22T09:10:48Z</time>
      </trkpt>
      <trkpt lat="47.21888" lon="3.97148">
        <ele>489.27</ele>
        <time>2021-09-22T09:10:49Z</time>
      </trkpt>
      <trkpt lat="47.21898" lon="3.97116">
        <ele>492.27</ele>
        <time>2021-09-22T09:11:11Z</time>
      </trkpt>
      <trkpt lat="47.21904" lon="3.97081">
        <ele>494.28</ele>
        <time>2021-09-22T09:11:30Z</time>
      </trkpt>
      <trkpt lat="47.21912" lon="3.97034">
        <ele>495.27</ele>
        <time>2021-09-22T09:11:56Z</time>
      </trkpt>
      <trkpt lat="47.2192" lon="3.96983">
        <ele>496.78</ele>
        <time>2021-09-22T09:12:26Z</time>
      </trkpt>
      <trkpt lat="47.2193" lon="3.96956">
        <ele>499.36</ele>
        <time>2021-09-22T09:12:45Z</time>
      </trkpt>
      <trkpt lat="47.21935" lon="3.96942">
        <ele>500.21</ele>
        <time>2021-09-22T09:12:56Z</time>
      </trkpt>
      <trkpt lat="47.21928" lon="3.96928">
        <ele>501.79</ele>
        <time>2021-09-22T09:13:08Z</time>
      </trkpt>
      <trkpt lat="47.21926" lon="3.96921">
        <ele>502.72</ele>
        <time>2021-09-22T09:13:13Z</time>
      </trkpt>
      <trkpt lat="47.21927" lon="3.9692">
        <ele>502.91</ele>
        <time>2021-09-22T09:13:14Z</time>
      </trkpt>
      <trkpt lat="47.21939" lon="3.96899">
        <ele>505.37</ele>
        <time>2021-09-22T09:13:32Z</time>
      </trkpt>
      <trkpt lat="47.2195" lon="3.96877">
        <ele>508.32</ele>
        <time>2021-09-22T09:13:52Z</time>
      </trkpt>
      <trkpt lat="47.21951" lon="3.96869">
        <ele>508.94</ele>
        <time>2021-09-22T09:13:57Z</time>
      </trkpt>
      <trkpt lat="47.21951" lon="3.96868">
        <ele>509.06</ele>
        <time>2021-09-22T09:13:58Z</time>
      </trkpt>
      <trkpt lat="47.21954" lon="3.96845">
        <ele>511.03</ele>
        <time>2021-09-22T09:14:13Z</time>
      </trkpt>
      <trkpt lat="47.21953" lon="3.96816">
        <ele>512.51</ele>
        <time>2021-09-22T09:14:30Z</time>
      </trkpt>
      <trkpt lat="47.21952" lon="3.96806">
        <ele>513.5</ele>
        <time>2021-09-22T09:14:44Z</time>
      </trkpt>
      <trkpt lat="47.2195" lon="3.96804">
        <ele>513.75</ele>
        <time>2021-09-22T09:14:58Z</time>
      </trkpt>
      <trkpt lat="47.21949" lon="3.968">
        <ele>513.47</ele>
        <time>2021-09-22T09:15:01Z</time>
      </trkpt>
      <trkpt lat="47.21936" lon="3.96771">
        <ele>515.36</ele>
        <time>2021-09-22T09:15:23Z</time>
      </trkpt>
      <trkpt lat="47.21921" lon="3.96757">
        <ele>518.38</ele>
        <time>2021-09-22T09:15:40Z</time>
      </trkpt>
      <trkpt lat="47.21905" lon="3.96747">
        <ele>521.48</ele>
        <time>2021-09-22T09:15:57Z</time>
      </trkpt>
      <trkpt lat="47.21881" lon="3.9674">
        <ele>524.73</ele>
        <time>2021-09-22T09:16:22Z</time>
      </trkpt>
      <trkpt lat="47.21857" lon="3.96741">
        <ele>527.39</ele>
        <time>2021-09-22T09:16:46Z</time>
      </trkpt>
      <trkpt lat="47.21838" lon="3.96756">
        <ele>529.14</ele>
        <time>2021-09-22T09:17:09Z</time>
      </trkpt>
      <trkpt lat="47.21822" lon="3.96775">
        <ele>530.64</ele>
        <time>2021-09-22T09:17:33Z</time>
      </trkpt>
      <trkpt lat="47.21821" lon="3.96774">
        <ele>528.73</ele>
        <time>2021-09-22T09:17:49Z</time>
      </trkpt>
      <trkpt lat="47.21822" lon="3.96772">
        <ele>531.67</ele>
        <time>2021-09-22T09:18:54Z</time>
      </trkpt>
      <trkpt lat="47.21821" lon="3.96771">
        <ele>532.17</ele>
        <time>2021-09-22T09:20:54Z</time>
      </trkpt>
      <trkpt lat="47.21821" lon="3.96772">
        <ele>532.07</ele>
        <time>2021-09-22T09:21:37Z</time>
      </trkpt>
      <trkpt lat="47.2182" lon="3.96774">
        <ele>531.96</ele>
        <time>2021-09-22T09:22:23Z</time>
      </trkpt>
      <trkpt lat="47.21821" lon="3.96773">
        <ele>531.96</ele>
        <time>2021-09-22T09:25:00Z</time>
      </trkpt>
      <trkpt lat="47.21821" lon="3.96775">
        <ele>531.96</ele>
        <time>2021-09-22T09:27:57Z</time>
      </trkpt>
      <trkpt lat="47.21821" lon="3.96775">
        <ele>531.96</ele>
        <time>2021-09-22T09:31:36Z</time>
      </trkpt>
      <trkpt lat="47.21822" lon="3.96776">
        <ele>531.96</ele>
        <time>2021-09-22T09:35:44Z</time>
      </trkpt>
      <trkpt lat="47.21824" lon="3.96778">
        <ele>531.96</ele>
        <time>2021-09-22T09:40:13Z</time>
      </trkpt>
      <trkpt lat="47.21822" lon="3.96775">
        <ele>531.96</ele>
        <time>2021-09-22T09:42:56Z</time>
      </trkpt>
      <trkpt lat="47.21822" lon="3.96776">
        <ele>531.96</ele>
        <time>2021-09-22T09:44:47Z</time>
      </trkpt>
      <trkpt lat="47.21821" lon="3.96776">
        <ele>531.96</ele>
        <time>2021-09-22T09:48:14Z</time>
      </trkpt>
      <trkpt lat="47.21821" lon="3.96777">
        <ele>531.96</ele>
        <time>2021-09-22T09:49:39Z</time>
      </trkpt>
      <trkpt lat="47.21821" lon="3.96777">
        <ele>531.96</ele>
        <time>2021-09-22T09:52:20Z</time>
      </trkpt>
      <trkpt lat="47.21821" lon="3.96776">
        <ele>531.96</ele>
        <time>2021-09-22T09:54:59Z</time>
      </trkpt>
      <trkpt lat="47.21821" lon="3.96774">
        <ele>531.96</ele>
        <time>2021-09-22T09:59:29Z</time>
      </trkpt>
      <trkpt lat="47.21821" lon="3.96774">
        <ele>531.96</ele>
        <time>2021-09-22T10:00:12Z</time>
      </trkpt>
      <trkpt lat="47.21823" lon="3.96774">
        <ele>531.96</ele>
        <time>2021-09-22T10:01:18Z</time>
      </trkpt>
      <trkpt lat="47.21822" lon="3.96773">
        <ele>531.96</ele>
        <time>2021-09-22T10:02:02Z</time>
      </trkpt>
      <trkpt lat="47.21822" lon="3.96775">
        <ele>531.96</ele>
        <time>2021-09-22T10:02:59Z</time>
      </trkpt>
      <trkpt lat="47.21822" lon="3.96773">
        <ele>531.96</ele>
        <time>2021-09-22T10:06:42Z</time>
      </trkpt>
      <trkpt lat="47.21828" lon="3.96765">
        <ele>532.11</ele>
        <time>2021-09-22T10:06:57Z</time>
      </trkpt>
      <trkpt lat="47.21831" lon="3.96762">
        <ele>532.07</ele>
        <time>2021-09-22T10:07:01Z</time>
      </trkpt>
      <trkpt lat="47.21853" lon="3.96741">
        <ele>531.02</ele>
        <time>2021-09-22T10:07:26Z</time>
      </trkpt>
      <trkpt lat="47.21861" lon="3.96746">
        <ele>530.22</ele>
        <time>2021-09-22T10:07:42Z</time>
      </trkpt>
      <trkpt lat="47.21863" lon="3.96738">
        <ele>529.8</ele>
        <time>2021-09-22T10:08:06Z</time>
      </trkpt>
      <trkpt lat="47.21872" lon="3.96735">
        <ele>528.53</ele>
        <time>2021-09-22T10:08:18Z</time>
      </trkpt>
      <trkpt lat="47.21873" lon="3.96735">
        <ele>528.44</ele>
        <time>2021-09-22T10:08:19Z</time>
      </trkpt>
      <trkpt lat="47.21897" lon="3.96741">
        <ele>526.89</ele>
        <time>2021-09-22T10:08:41Z</time>
      </trkpt>
      <trkpt lat="47.21922" lon="3.96753">
        <ele>523.79</ele>
        <time>2021-09-22T10:09:05Z</time>
      </trkpt>
      <trkpt lat="47.21934" lon="3.96764">
        <ele>520.42</ele>
        <time>2021-09-22T10:09:18Z</time>
      </trkpt>
      <trkpt lat="47.21936" lon="3.96766">
        <ele>519.74</ele>
        <time>2021-09-22T10:09:20Z</time>
      </trkpt>
      <trkpt lat="47.21948" lon="3.96786">
        <ele>517.63</ele>
        <time>2021-09-22T10:09:37Z</time>
      </trkpt>
      <trkpt lat="47.21953" lon="3.96816">
        <ele>515.23</ele>
        <time>2021-09-22T10:09:55Z</time>
      </trkpt>
      <trkpt lat="47.21954" lon="3.96819">
        <ele>515.13</ele>
        <time>2021-09-22T10:09:57Z</time>
      </trkpt>
      <trkpt lat="47.21954" lon="3.96821">
        <ele>515.11</ele>
        <time>2021-09-22T10:09:58Z</time>
      </trkpt>
      <trkpt lat="47.21955" lon="3.96828">
        <ele>514.94</ele>
        <time>2021-09-22T10:10:03Z</time>
      </trkpt>
      <trkpt lat="47.21955" lon="3.96832">
        <ele>514.82</ele>
        <time>2021-09-22T10:10:05Z</time>
      </trkpt>
      <trkpt lat="47.21955" lon="3.96833">
        <ele>514.74</ele>
        <time>2021-09-22T10:10:06Z</time>
      </trkpt>
      <trkpt lat="47.21955" lon="3.96835">
        <ele>514.66</ele>
        <time>2021-09-22T10:10:07Z</time>
      </trkpt>
      <trkpt lat="47.21951" lon="3.96857">
        <ele>513.37</ele>
        <time>2021-09-22T10:10:22Z</time>
      </trkpt>
      <trkpt lat="47.21946" lon="3.96878">
        <ele>511.86</ele>
        <time>2021-09-22T10:10:35Z</time>
      </trkpt>
      <trkpt lat="47.21934" lon="3.96901">
        <ele>509.34</ele>
        <time>2021-09-22T10:10:52Z</time>
      </trkpt>
      <trkpt lat="47.21925" lon="3.96918">
        <ele>507.59</ele>
        <time>2021-09-22T10:11:05Z</time>
      </trkpt>
      <trkpt lat="47.21925" lon="3.96921">
        <ele>507.36</ele>
        <time>2021-09-22T10:11:07Z</time>
      </trkpt>
      <trkpt lat="47.21926" lon="3.96923">
        <ele>507.22</ele>
        <time>2021-09-22T10:11:08Z</time>
      </trkpt>
      <trkpt lat="47.21927" lon="3.96924">
        <ele>507.08</ele>
        <time>2021-09-22T10:11:09Z</time>
      </trkpt>
      <trkpt lat="47.21928" lon="3.96925">
        <ele>506.93</ele>
        <time>2021-09-22T10:11:10Z</time>
      </trkpt>
      <trkpt lat="47.21929" lon="3.96926">
        <ele>506.76</ele>
        <time>2021-09-22T10:11:11Z</time>
      </trkpt>
      <trkpt lat="47.2193" lon="3.96927">
        <ele>506.58</ele>
        <time>2021-09-22T10:11:12Z</time>
      </trkpt>
      <trkpt lat="47.21931" lon="3.96928">
        <ele>506.36</ele>
        <time>2021-09-22T10:11:13Z</time>
      </trkpt>
      <trkpt lat="47.21932" lon="3.96929">
        <ele>506.15</ele>
        <time>2021-09-22T10:11:14Z</time>
      </trkpt>
      <trkpt lat="47.2193" lon="3.96952">
        <ele>504.02</ele>
        <time>2021-09-22T10:11:27Z</time>
      </trkpt>
      <trkpt lat="47.21918" lon="3.96993">
        <ele>501.59</ele>
        <time>2021-09-22T10:11:51Z</time>
      </trkpt>
      <trkpt lat="47.2191" lon="3.97036">
        <ele>498.52</ele>
        <time>2021-09-22T10:12:15Z</time>
      </trkpt>
      <trkpt lat="47.21906" lon="3.97064">
        <ele>497.19</ele>
        <time>2021-09-22T10:12:40Z</time>
      </trkpt>
      <trkpt lat="47.21905" lon="3.97068">
        <ele>495.99</ele>
        <time>2021-09-22T10:12:50Z</time>
      </trkpt>
      <trkpt lat="47.21905" lon="3.9707">
        <ele>495.96</ele>
        <time>2021-09-22T10:12:51Z</time>
      </trkpt>
      <trkpt lat="47.21905" lon="3.97071">
        <ele>495.89</ele>
        <time>2021-09-22T10:12:52Z</time>
      </trkpt>
      <trkpt lat="47.21904" lon="3.97073">
        <ele>495.94</ele>
        <time>2021-09-22T10:12:53Z</time>
      </trkpt>
      <trkpt lat="47.21904" lon="3.97075">
        <ele>496.03</ele>
        <time>2021-09-22T10:12:54Z</time>
      </trkpt>
      <trkpt lat="47.21904" lon="3.97077">
        <ele>496.14</ele>
        <time>2021-09-22T10:12:55Z</time>
      </trkpt>
      <trkpt lat="47.21903" lon="3.97079">
        <ele>496.15</ele>
        <time>2021-09-22T10:12:56Z</time>
      </trkpt>
      <trkpt lat="47.21903" lon="3.9708">
        <ele>496.15</ele>
        <time>2021-09-22T10:12:57Z</time>
      </trkpt>
      <trkpt lat="47.21903" lon="3.97082">
        <ele>496.02</ele>
        <time>2021-09-22T10:12:58Z</time>
      </trkpt>
      <trkpt lat="47.21893" lon="3.97126">
        <ele>496.02</ele>
        <time>2021-09-22T10:13:23Z</time>
      </trkpt>
      <trkpt lat="47.21885" lon="3.9716">
        <ele>493.46</ele>
        <time>2021-09-22T10:13:45Z</time>
      </trkpt>
      <trkpt lat="47.21887" lon="3.97161">
        <ele>493.39</ele>
        <time>2021-09-22T10:13:46Z</time>
      </trkpt>
      <trkpt lat="47.21888" lon="3.97162">
        <ele>493.3</ele>
        <time>2021-09-22T10:13:47Z</time>
      </trkpt>
      <trkpt lat="47.21915" lon="3.9717">
        <ele>491.36</ele>
        <time>2021-09-22T10:14:09Z</time>
      </trkpt>
      <trkpt lat="47.21942" lon="3.97178">
        <ele>491.08</ele>
        <time>2021-09-22T10:14:31Z</time>
      </trkpt>
      <trkpt lat="47.21976" lon="3.9718">
        <ele>489.74</ele>
        <time>2021-09-22T10:14:58Z</time>
      </trkpt>
      <trkpt lat="47.22014" lon="3.97181">
        <ele>488.19</ele>
        <time>2021-09-22T10:15:28Z</time>
      </trkpt>
      <trkpt lat="47.22041" lon="3.97176">
        <ele>486.01</ele>
        <time>2021-09-22T10:15:50Z</time>
      </trkpt>
      <trkpt lat="47.22066" lon="3.97156">
        <ele>482.94</ele>
        <time>2021-09-22T10:16:13Z</time>
      </trkpt>
      <trkpt lat="47.22073" lon="3.97137">
        <ele>479.74</ele>
        <time>2021-09-22T10:16:25Z</time>
      </trkpt>
      <trkpt lat="47.22076" lon="3.97107">
        <ele>478.76</ele>
        <time>2021-09-22T10:16:42Z</time>
      </trkpt>
      <trkpt lat="47.22079" lon="3.97071">
        <ele>479.69</ele>
        <time>2021-09-22T10:17:02Z</time>
      </trkpt>
      <trkpt lat="47.22087" lon="3.97047">
        <ele>478.08</ele>
        <time>2021-09-22T10:17:19Z</time>
      </trkpt>
      <trkpt lat="47.2209" lon="3.97038">
        <ele>477.49</ele>
        <time>2021-09-22T10:17:26Z</time>
      </trkpt>
      <trkpt lat="47.22092" lon="3.97027">
        <ele>476.9</ele>
        <time>2021-09-22T10:17:32Z</time>
      </trkpt>
      <trkpt lat="47.221" lon="3.97013">
        <ele>475.25</ele>
        <time>2021-09-22T10:17:42Z</time>
      </trkpt>
      <trkpt lat="47.22101" lon="3.97012">
        <ele>475.1</ele>
        <time>2021-09-22T10:17:43Z</time>
      </trkpt>
      <trkpt lat="47.22101" lon="3.9701">
        <ele>474.83</ele>
        <time>2021-09-22T10:17:44Z</time>
      </trkpt>
      <trkpt lat="47.22102" lon="3.97009">
        <ele>474.56</ele>
        <time>2021-09-22T10:17:45Z</time>
      </trkpt>
      <trkpt lat="47.22104" lon="3.97007">
        <ele>474.87</ele>
        <time>2021-09-22T10:17:47Z</time>
      </trkpt>
      <trkpt lat="47.22104" lon="3.97005">
        <ele>475.17</ele>
        <time>2021-09-22T10:17:48Z</time>
      </trkpt>
      <trkpt lat="47.22109" lon="3.96999">
        <ele>475.23</ele>
        <time>2021-09-22T10:17:54Z</time>
      </trkpt>
      <trkpt lat="47.22112" lon="3.9699">
        <ele>473.53</ele>
        <time>2021-09-22T10:18:00Z</time>
      </trkpt>
      <trkpt lat="47.22113" lon="3.96988">
        <ele>473.35</ele>
        <time>2021-09-22T10:18:01Z</time>
      </trkpt>
      <trkpt lat="47.22114" lon="3.96987">
        <ele>473.16</ele>
        <time>2021-09-22T10:18:02Z</time>
      </trkpt>
      <trkpt lat="47.22115" lon="3.96986">
        <ele>472.96</ele>
        <time>2021-09-22T10:18:03Z</time>
      </trkpt>
      <trkpt lat="47.22116" lon="3.96985">
        <ele>472.78</ele>
        <time>2021-09-22T10:18:04Z</time>
      </trkpt>
      <trkpt lat="47.22116" lon="3.96984">
        <ele>472.62</ele>
        <time>2021-09-22T10:18:05Z</time>
      </trkpt>
      <trkpt lat="47.22117" lon="3.96983">
        <ele>472.45</ele>
        <time>2021-09-22T10:18:06Z</time>
      </trkpt>
      <trkpt lat="47.22131" lon="3.96959">
        <ele>470.24</ele>
        <time>2021-09-22T10:18:24Z</time>
      </trkpt>
      <trkpt lat="47.22151" lon="3.96928">
        <ele>467.32</ele>
        <time>2021-09-22T10:18:48Z</time>
      </trkpt>
      <trkpt lat="47.22172" lon="3.96899">
        <ele>466.86</ele>
        <time>2021-09-22T10:19:12Z</time>
      </trkpt>
      <trkpt lat="47.22173" lon="3.96896">
        <ele>466.73</ele>
        <time>2021-09-22T10:19:14Z</time>
      </trkpt>
      <trkpt lat="47.22174" lon="3.96893">
        <ele>466.66</ele>
        <time>2021-09-22T10:19:16Z</time>
      </trkpt>
      <trkpt lat="47.22174" lon="3.96891">
        <ele>466.64</ele>
        <time>2021-09-22T10:19:17Z</time>
      </trkpt>
      <trkpt lat="47.22175" lon="3.9689">
        <ele>466.62</ele>
        <time>2021-09-22T10:19:18Z</time>
      </trkpt>
      <trkpt lat="47.22175" lon="3.96888">
        <ele>466.62</ele>
        <time>2021-09-22T10:19:19Z</time>
      </trkpt>
      <trkpt lat="47.22175" lon="3.96886">
        <ele>466.62</ele>
        <time>2021-09-22T10:19:20Z</time>
      </trkpt>
      <trkpt lat="47.22176" lon="3.96883">
        <ele>466.67</ele>
        <time>2021-09-22T10:19:22Z</time>
      </trkpt>
      <trkpt lat="47.22175" lon="3.96873">
        <ele>466.95</ele>
        <time>2021-09-22T10:19:31Z</time>
      </trkpt>
      <trkpt lat="47.22177" lon="3.96869">
        <ele>466.79</ele>
        <time>2021-09-22T10:19:34Z</time>
      </trkpt>
      <trkpt lat="47.22177" lon="3.96867">
        <ele>466.79</ele>
        <time>2021-09-22T10:19:35Z</time>
      </trkpt>
      <trkpt lat="47.22189" lon="3.96835">
        <ele>467.98</ele>
        <time>2021-09-22T10:19:56Z</time>
      </trkpt>
      <trkpt lat="47.222" lon="3.96808">
        <ele>469.42</ele>
        <time>2021-09-22T10:20:15Z</time>
      </trkpt>
      <trkpt lat="47.22209" lon="3.9679">
        <ele>470.6</ele>
        <time>2021-09-22T10:20:29Z</time>
      </trkpt>
      <trkpt lat="47.2221" lon="3.96789">
        <ele>470.64</ele>
        <time>2021-09-22T10:20:30Z</time>
      </trkpt>
      <trkpt lat="47.2221" lon="3.96787">
        <ele>470.66</ele>
        <time>2021-09-22T10:20:31Z</time>
      </trkpt>
      <trkpt lat="47.22211" lon="3.96786">
        <ele>470.69</ele>
        <time>2021-09-22T10:20:32Z</time>
      </trkpt>
      <trkpt lat="47.22211" lon="3.96784">
        <ele>470.72</ele>
        <time>2021-09-22T10:20:33Z</time>
      </trkpt>
      <trkpt lat="47.2222" lon="3.96765">
        <ele>472.36</ele>
        <time>2021-09-22T10:20:48Z</time>
      </trkpt>
      <trkpt lat="47.22228" lon="3.96747">
        <ele>473.53</ele>
        <time>2021-09-22T10:21:03Z</time>
      </trkpt>
      <trkpt lat="47.22229" lon="3.96745">
        <ele>473.64</ele>
        <time>2021-09-22T10:21:04Z</time>
      </trkpt>
      <trkpt lat="47.2224" lon="3.96727">
        <ele>475.06</ele>
        <time>2021-09-22T10:21:20Z</time>
      </trkpt>
      <trkpt lat="47.22244" lon="3.96717">
        <ele>476</ele>
        <time>2021-09-22T10:21:28Z</time>
      </trkpt>
      <trkpt lat="47.22251" lon="3.96697">
        <ele>478.28</ele>
        <time>2021-09-22T10:21:45Z</time>
      </trkpt>
      <trkpt lat="47.22262" lon="3.96669">
        <ele>481.34</ele>
        <time>2021-09-22T10:22:07Z</time>
      </trkpt>
      <trkpt lat="47.22273" lon="3.96641">
        <ele>482.99</ele>
        <time>2021-09-22T10:22:26Z</time>
      </trkpt>
      <trkpt lat="47.22286" lon="3.96614">
        <ele>483.19</ele>
        <time>2021-09-22T10:22:45Z</time>
      </trkpt>
      <trkpt lat="47.223" lon="3.96585">
        <ele>484.3</ele>
        <time>2021-09-22T10:23:07Z</time>
      </trkpt>
      <trkpt lat="47.22306" lon="3.96576">
        <ele>484.75</ele>
        <time>2021-09-22T10:23:15Z</time>
      </trkpt>
      <trkpt lat="47.22323" lon="3.96553">
        <ele>486.38</ele>
        <time>2021-09-22T10:23:37Z</time>
      </trkpt>
      <trkpt lat="47.22336" lon="3.96551">
        <ele>488.46</ele>
        <time>2021-09-22T10:23:52Z</time>
      </trkpt>
      <trkpt lat="47.22342" lon="3.96561">
        <ele>491.42</ele>
        <time>2021-09-22T10:24:09Z</time>
      </trkpt>
      <trkpt lat="47.22351" lon="3.96572">
        <ele>492.96</ele>
        <time>2021-09-22T10:24:30Z</time>
      </trkpt>
      <trkpt lat="47.22354" lon="3.96584">
        <ele>496.04</ele>
        <time>2021-09-22T10:24:48Z</time>
      </trkpt>
      <trkpt lat="47.22361" lon="3.96597">
        <ele>499.21</ele>
        <time>2021-09-22T10:25:08Z</time>
      </trkpt>
      <trkpt lat="47.22374" lon="3.96621">
        <ele>502.08</ele>
        <time>2021-09-22T10:25:29Z</time>
      </trkpt>
      <trkpt lat="47.22384" lon="3.96641">
        <ele>505.15</ele>
        <time>2021-09-22T10:25:47Z</time>
      </trkpt>
      <trkpt lat="47.22394" lon="3.9666">
        <ele>507.86</ele>
        <time>2021-09-22T10:26:06Z</time>
      </trkpt>
      <trkpt lat="47.22404" lon="3.96685">
        <ele>510.61</ele>
        <time>2021-09-22T10:26:26Z</time>
      </trkpt>
      <trkpt lat="47.22406" lon="3.96689">
        <ele>510.93</ele>
        <time>2021-09-22T10:26:29Z</time>
      </trkpt>
      <trkpt lat="47.22414" lon="3.96711">
        <ele>512.6</ele>
        <time>2021-09-22T10:26:44Z</time>
      </trkpt>
      <trkpt lat="47.22415" lon="3.96713">
        <ele>512.88</ele>
        <time>2021-09-22T10:26:46Z</time>
      </trkpt>
      <trkpt lat="47.22416" lon="3.96715">
        <ele>512.93</ele>
        <time>2021-09-22T10:26:47Z</time>
      </trkpt>
      <trkpt lat="47.22417" lon="3.96716">
        <ele>512.99</ele>
        <time>2021-09-22T10:26:48Z</time>
      </trkpt>
      <trkpt lat="47.2242" lon="3.96722">
        <ele>513.19</ele>
        <time>2021-09-22T10:26:53Z</time>
      </trkpt>
      <trkpt lat="47.2242" lon="3.96723">
        <ele>513.26</ele>
        <time>2021-09-22T10:26:54Z</time>
      </trkpt>
      <trkpt lat="47.22432" lon="3.96738">
        <ele>514.16</ele>
        <time>2021-09-22T10:27:08Z</time>
      </trkpt>
      <trkpt lat="47.22447" lon="3.9676">
        <ele>515.3</ele>
        <time>2021-09-22T10:27:28Z</time>
      </trkpt>
      <trkpt lat="47.22458" lon="3.96776">
        <ele>516.08</ele>
        <time>2021-09-22T10:27:42Z</time>
      </trkpt>
      <trkpt lat="47.22463" lon="3.96786">
        <ele>516.68</ele>
        <time>2021-09-22T10:27:50Z</time>
      </trkpt>
      <trkpt lat="47.22463" lon="3.96787">
        <ele>516.77</ele>
        <time>2021-09-22T10:27:51Z</time>
      </trkpt>
      <trkpt lat="47.22464" lon="3.96789">
        <ele>516.86</ele>
        <time>2021-09-22T10:27:52Z</time>
      </trkpt>
      <trkpt lat="47.22474" lon="3.96809">
        <ele>517.43</ele>
        <time>2021-09-22T10:28:07Z</time>
      </trkpt>
      <trkpt lat="47.22486" lon="3.96822">
        <ele>517.91</ele>
        <time>2021-09-22T10:28:20Z</time>
      </trkpt>
      <trkpt lat="47.22503" lon="3.96836">
        <ele>518.68</ele>
        <time>2021-09-22T10:28:34Z</time>
      </trkpt>
      <trkpt lat="47.22523" lon="3.96848">
        <ele>519.15</ele>
        <time>2021-09-22T10:28:51Z</time>
      </trkpt>
      <trkpt lat="47.22534" lon="3.96851">
        <ele>519.81</ele>
        <time>2021-09-22T10:29:06Z</time>
      </trkpt>
      <trkpt lat="47.22563" lon="3.96857">
        <ele>521.15</ele>
        <time>2021-09-22T10:29:29Z</time>
      </trkpt>
      <trkpt lat="47.22582" lon="3.96859">
        <ele>522.4</ele>
        <time>2021-09-22T10:29:44Z</time>
      </trkpt>
      <trkpt lat="47.22597" lon="3.96858">
        <ele>524.36</ele>
        <time>2021-09-22T10:30:04Z</time>
      </trkpt>
      <trkpt lat="47.22609" lon="3.96859">
        <ele>526.1</ele>
        <time>2021-09-22T10:30:23Z</time>
      </trkpt>
      <trkpt lat="47.22632" lon="3.96852">
        <ele>528.06</ele>
        <time>2021-09-22T10:30:45Z</time>
      </trkpt>
      <trkpt lat="47.22659" lon="3.9684">
        <ele>530.18</ele>
        <time>2021-09-22T10:31:08Z</time>
      </trkpt>
      <trkpt lat="47.22679" lon="3.96828">
        <ele>532.43</ele>
        <time>2021-09-22T10:31:31Z</time>
      </trkpt>
      <trkpt lat="47.22703" lon="3.96814">
        <ele>534.37</ele>
        <time>2021-09-22T10:31:55Z</time>
      </trkpt>
      <trkpt lat="47.22704" lon="3.96813">
        <ele>534.41</ele>
        <time>2021-09-22T10:31:56Z</time>
      </trkpt>
      <trkpt lat="47.22727" lon="3.96803">
        <ele>536.1</ele>
        <time>2021-09-22T10:32:17Z</time>
      </trkpt>
      <trkpt lat="47.22742" lon="3.96812">
        <ele>537.93</ele>
        <time>2021-09-22T10:32:33Z</time>
      </trkpt>
      <trkpt lat="47.22756" lon="3.96828">
        <ele>539.78</ele>
        <time>2021-09-22T10:32:51Z</time>
      </trkpt>
      <trkpt lat="47.22756" lon="3.9683">
        <ele>539.93</ele>
        <time>2021-09-22T10:32:52Z</time>
      </trkpt>
      <trkpt lat="47.22768" lon="3.9685">
        <ele>542.08</ele>
        <time>2021-09-22T10:33:10Z</time>
      </trkpt>
      <trkpt lat="47.22781" lon="3.9687">
        <ele>543.8</ele>
        <time>2021-09-22T10:33:31Z</time>
      </trkpt>
      <trkpt lat="47.22789" lon="3.96879">
        <ele>544.36</ele>
        <time>2021-09-22T10:33:40Z</time>
      </trkpt>
      <trkpt lat="47.22807" lon="3.96895">
        <ele>545.28</ele>
        <time>2021-09-22T10:33:55Z</time>
      </trkpt>
      <trkpt lat="47.22821" lon="3.9692">
        <ele>545.94</ele>
        <time>2021-09-22T10:34:12Z</time>
      </trkpt>
      <trkpt lat="47.22834" lon="3.96947">
        <ele>546.56</ele>
        <time>2021-09-22T10:34:30Z</time>
      </trkpt>
      <trkpt lat="47.22836" lon="3.96953">
        <ele>546.6</ele>
        <time>2021-09-22T10:34:34Z</time>
      </trkpt>
      <trkpt lat="47.22844" lon="3.96977">
        <ele>546.86</ele>
        <time>2021-09-22T10:34:49Z</time>
      </trkpt>
      <trkpt lat="47.22851" lon="3.96998">
        <ele>546.89</ele>
        <time>2021-09-22T10:35:03Z</time>
      </trkpt>
      <trkpt lat="47.22859" lon="3.97015">
        <ele>546.39</ele>
        <time>2021-09-22T10:35:17Z</time>
      </trkpt>
      <trkpt lat="47.22862" lon="3.97021">
        <ele>546.18</ele>
        <time>2021-09-22T10:35:21Z</time>
      </trkpt>
      <trkpt lat="47.22862" lon="3.97022">
        <ele>546.13</ele>
        <time>2021-09-22T10:35:22Z</time>
      </trkpt>
      <trkpt lat="47.2287" lon="3.97047">
        <ele>544.95</ele>
        <time>2021-09-22T10:35:36Z</time>
      </trkpt>
      <trkpt lat="47.22873" lon="3.97079">
        <ele>543.83</ele>
        <time>2021-09-22T10:35:52Z</time>
      </trkpt>
      <trkpt lat="47.22873" lon="3.97113">
        <ele>543.33</ele>
        <time>2021-09-22T10:36:12Z</time>
      </trkpt>
      <trkpt lat="47.22874" lon="3.97146">
        <ele>543.27</ele>
        <time>2021-09-22T10:36:33Z</time>
      </trkpt>
      <trkpt lat="47.2288" lon="3.97171">
        <ele>544.24</ele>
        <time>2021-09-22T10:36:51Z</time>
      </trkpt>
      <trkpt lat="47.22902" lon="3.97189">
        <ele>544.83</ele>
        <time>2021-09-22T10:37:13Z</time>
      </trkpt>
      <trkpt lat="47.22931" lon="3.97188">
        <ele>545.3</ele>
        <time>2021-09-22T10:37:38Z</time>
      </trkpt>
      <trkpt lat="47.22961" lon="3.97197">
        <ele>546.36</ele>
        <time>2021-09-22T10:38:05Z</time>
      </trkpt>
      <trkpt lat="47.22987" lon="3.97222">
        <ele>548.94</ele>
        <time>2021-09-22T10:38:32Z</time>
      </trkpt>
      <trkpt lat="47.23011" lon="3.97247">
        <ele>550.79</ele>
        <time>2021-09-22T10:38:58Z</time>
      </trkpt>
      <trkpt lat="47.23033" lon="3.97268">
        <ele>553.1</ele>
        <time>2021-09-22T10:39:22Z</time>
      </trkpt>
      <trkpt lat="47.23057" lon="3.97293">
        <ele>555.46</ele>
        <time>2021-09-22T10:39:49Z</time>
      </trkpt>
      <trkpt lat="47.2308" lon="3.97317">
        <ele>558.06</ele>
        <time>2021-09-22T10:40:15Z</time>
      </trkpt>
      <trkpt lat="47.23103" lon="3.9734">
        <ele>560.3</ele>
        <time>2021-09-22T10:40:39Z</time>
      </trkpt>
      <trkpt lat="47.23127" lon="3.97369">
        <ele>562.65</ele>
        <time>2021-09-22T10:41:06Z</time>
      </trkpt>
      <trkpt lat="47.23138" lon="3.97382">
        <ele>564.62</ele>
        <time>2021-09-22T10:41:19Z</time>
      </trkpt>
      <trkpt lat="47.23157" lon="3.97404">
        <ele>564.23</ele>
        <time>2021-09-22T10:41:40Z</time>
      </trkpt>
      <trkpt lat="47.23177" lon="3.97422">
        <ele>565.55</ele>
        <time>2021-09-22T10:42:01Z</time>
      </trkpt>
      <trkpt lat="47.23185" lon="3.97417">
        <ele>566.14</ele>
        <time>2021-09-22T10:42:11Z</time>
      </trkpt>
      <trkpt lat="47.23186" lon="3.97415">
        <ele>566.16</ele>
        <time>2021-09-22T10:42:12Z</time>
      </trkpt>
      <trkpt lat="47.23186" lon="3.97414">
        <ele>566.2</ele>
        <time>2021-09-22T10:42:13Z</time>
      </trkpt>
      <trkpt lat="47.23186" lon="3.97412">
        <ele>566.23</ele>
        <time>2021-09-22T10:42:14Z</time>
      </trkpt>
      <trkpt lat="47.23187" lon="3.9741">
        <ele>566.34</ele>
        <time>2021-09-22T10:42:15Z</time>
      </trkpt>
      <trkpt lat="47.23187" lon="3.97409">
        <ele>566.39</ele>
        <time>2021-09-22T10:42:16Z</time>
      </trkpt>
      <trkpt lat="47.23187" lon="3.97407">
        <ele>566.41</ele>
        <time>2021-09-22T10:42:17Z</time>
      </trkpt>
      <trkpt lat="47.23199" lon="3.97356">
        <ele>566.59</ele>
        <time>2021-09-22T10:42:46Z</time>
      </trkpt>
      <trkpt lat="47.23204" lon="3.97318">
        <ele>566.32</ele>
        <time>2021-09-22T10:43:09Z</time>
      </trkpt>
      <trkpt lat="47.23216" lon="3.97276">
        <ele>565.83</ele>
        <time>2021-09-22T10:43:34Z</time>
      </trkpt>
      <trkpt lat="47.23225" lon="3.97245">
        <ele>566.37</ele>
        <time>2021-09-22T10:43:53Z</time>
      </trkpt>
      <trkpt lat="47.23235" lon="3.97201">
        <ele>565.88</ele>
        <time>2021-09-22T10:44:19Z</time>
      </trkpt>
      <trkpt lat="47.23255" lon="3.97176">
        <ele>565.03</ele>
        <time>2021-09-22T10:44:41Z</time>
      </trkpt>
      <trkpt lat="47.23269" lon="3.97168">
        <ele>565.75</ele>
        <time>2021-09-22T10:44:57Z</time>
      </trkpt>
      <trkpt lat="47.23277" lon="3.97137">
        <ele>568.44</ele>
        <time>2021-09-22T10:45:15Z</time>
      </trkpt>
      <trkpt lat="47.23286" lon="3.97086">
        <ele>567.48</ele>
        <time>2021-09-22T10:45:41Z</time>
      </trkpt>
      <trkpt lat="47.23298" lon="3.97042">
        <ele>565.7</ele>
        <time>2021-09-22T10:46:06Z</time>
      </trkpt>
      <trkpt lat="47.23324" lon="3.97026">
        <ele>565.16</ele>
        <time>2021-09-22T10:46:28Z</time>
      </trkpt>
      <trkpt lat="47.23357" lon="3.97013">
        <ele>564.04</ele>
        <time>2021-09-22T10:46:54Z</time>
      </trkpt>
      <trkpt lat="47.23384" lon="3.97004">
        <ele>562.82</ele>
        <time>2021-09-22T10:47:15Z</time>
      </trkpt>
      <trkpt lat="47.23396" lon="3.96984">
        <ele>561.52</ele>
        <time>2021-09-22T10:47:33Z</time>
      </trkpt>
      <trkpt lat="47.23393" lon="3.96952">
        <ele>558.34</ele>
        <time>2021-09-22T10:47:50Z</time>
      </trkpt>
      <trkpt lat="47.23393" lon="3.96945">
        <ele>557.62</ele>
        <time>2021-09-22T10:47:54Z</time>
      </trkpt>
      <trkpt lat="47.23417" lon="3.96924">
        <ele>554.56</ele>
        <time>2021-09-22T10:48:17Z</time>
      </trkpt>
      <trkpt lat="47.23448" lon="3.96908">
        <ele>552.03</ele>
        <time>2021-09-22T10:48:41Z</time>
      </trkpt>
      <trkpt lat="47.23464" lon="3.96899">
        <ele>550.95</ele>
        <time>2021-09-22T10:48:55Z</time>
      </trkpt>
      <trkpt lat="47.23465" lon="3.96899">
        <ele>550.88</ele>
        <time>2021-09-22T10:48:56Z</time>
      </trkpt>
      <trkpt lat="47.23466" lon="3.96898">
        <ele>550.8</ele>
        <time>2021-09-22T10:48:57Z</time>
      </trkpt>
      <trkpt lat="47.23467" lon="3.96897">
        <ele>550.73</ele>
        <time>2021-09-22T10:48:58Z</time>
      </trkpt>
      <trkpt lat="47.23469" lon="3.96896">
        <ele>550.67</ele>
        <time>2021-09-22T10:48:59Z</time>
      </trkpt>
      <trkpt lat="47.23496" lon="3.96886">
        <ele>548.33</ele>
        <time>2021-09-22T10:49:20Z</time>
      </trkpt>
      <trkpt lat="47.23516" lon="3.96867">
        <ele>545.42</ele>
        <time>2021-09-22T10:49:42Z</time>
      </trkpt>
      <trkpt lat="47.23517" lon="3.96867">
        <ele>544.39</ele>
        <time>2021-09-22T10:50:01Z</time>
      </trkpt>
      <trkpt lat="47.23518" lon="3.96867">
        <ele>544.39</ele>
        <time>2021-09-22T10:50:02Z</time>
      </trkpt>
      <trkpt lat="47.23519" lon="3.96866">
        <ele>544.39</ele>
        <time>2021-09-22T10:50:03Z</time>
      </trkpt>
      <trkpt lat="47.2352" lon="3.96865">
        <ele>544.39</ele>
        <time>2021-09-22T10:50:04Z</time>
      </trkpt>
      <trkpt lat="47.23521" lon="3.96864">
        <ele>544.3</ele>
        <time>2021-09-22T10:50:05Z</time>
      </trkpt>
      <trkpt lat="47.23522" lon="3.96862">
        <ele>544.04</ele>
        <time>2021-09-22T10:50:06Z</time>
      </trkpt>
      <trkpt lat="47.23523" lon="3.96861">
        <ele>543.77</ele>
        <time>2021-09-22T10:50:07Z</time>
      </trkpt>
      <trkpt lat="47.23544" lon="3.9684">
        <ele>540.7</ele>
        <time>2021-09-22T10:50:27Z</time>
      </trkpt>
      <trkpt lat="47.23563" lon="3.9682">
        <ele>537.64</ele>
        <time>2021-09-22T10:50:43Z</time>
      </trkpt>
      <trkpt lat="47.23576" lon="3.96805">
        <ele>535.13</ele>
        <time>2021-09-22T10:50:56Z</time>
      </trkpt>
      <trkpt lat="47.23576" lon="3.96804">
        <ele>534.95</ele>
        <time>2021-09-22T10:50:57Z</time>
      </trkpt>
      <trkpt lat="47.23577" lon="3.96803">
        <ele>534.79</ele>
        <time>2021-09-22T10:50:58Z</time>
      </trkpt>
      <trkpt lat="47.23593" lon="3.96779">
        <ele>532.18</ele>
        <time>2021-09-22T10:51:16Z</time>
      </trkpt>
      <trkpt lat="47.23606" lon="3.96756">
        <ele>529.05</ele>
        <time>2021-09-22T10:51:32Z</time>
      </trkpt>
      <trkpt lat="47.23617" lon="3.96725">
        <ele>525.98</ele>
        <time>2021-09-22T10:51:51Z</time>
      </trkpt>
      <trkpt lat="47.2363" lon="3.96702">
        <ele>522.91</ele>
        <time>2021-09-22T10:52:07Z</time>
      </trkpt>
      <trkpt lat="47.23639" lon="3.96675">
        <ele>520.26</ele>
        <time>2021-09-22T10:52:23Z</time>
      </trkpt>
      <trkpt lat="47.23649" lon="3.96649">
        <ele>517.21</ele>
        <time>2021-09-22T10:52:39Z</time>
      </trkpt>
      <trkpt lat="47.2366" lon="3.96626">
        <ele>515.25</ele>
        <time>2021-09-22T10:52:55Z</time>
      </trkpt>
      <trkpt lat="47.23662" lon="3.96625">
        <ele>515.04</ele>
        <time>2021-09-22T10:52:57Z</time>
      </trkpt>
      <trkpt lat="47.23662" lon="3.96623">
        <ele>514.96</ele>
        <time>2021-09-22T10:52:58Z</time>
      </trkpt>
      <trkpt lat="47.23663" lon="3.96622">
        <ele>514.83</ele>
        <time>2021-09-22T10:52:59Z</time>
      </trkpt>
      <trkpt lat="47.23678" lon="3.96597">
        <ele>512.2</ele>
        <time>2021-09-22T10:53:18Z</time>
      </trkpt>
      <trkpt lat="47.2368" lon="3.96595">
        <ele>510.02</ele>
        <time>2021-09-22T10:53:32Z</time>
      </trkpt>
      <trkpt lat="47.23681" lon="3.96593">
        <ele>509.95</ele>
        <time>2021-09-22T10:53:33Z</time>
      </trkpt>
      <trkpt lat="47.23682" lon="3.96592">
        <ele>509.92</ele>
        <time>2021-09-22T10:53:34Z</time>
      </trkpt>
      <trkpt lat="47.23683" lon="3.96591">
        <ele>509.89</ele>
        <time>2021-09-22T10:53:35Z</time>
      </trkpt>
      <trkpt lat="47.23684" lon="3.9659">
        <ele>509.85</ele>
        <time>2021-09-22T10:53:36Z</time>
      </trkpt>
      <trkpt lat="47.23685" lon="3.96589">
        <ele>509.77</ele>
        <time>2021-09-22T10:53:37Z</time>
      </trkpt>
      <trkpt lat="47.23686" lon="3.96588">
        <ele>509.61</ele>
        <time>2021-09-22T10:53:38Z</time>
      </trkpt>
      <trkpt lat="47.23687" lon="3.96587">
        <ele>509.39</ele>
        <time>2021-09-22T10:53:39Z</time>
      </trkpt>
      <trkpt lat="47.23688" lon="3.96586">
        <ele>509.17</ele>
        <time>2021-09-22T10:53:40Z</time>
      </trkpt>
      <trkpt lat="47.2369" lon="3.96586">
        <ele>508.97</ele>
        <time>2021-09-22T10:53:41Z</time>
      </trkpt>
      <trkpt lat="47.23691" lon="3.96585">
        <ele>508.79</ele>
        <time>2021-09-22T10:53:42Z</time>
      </trkpt>
      <trkpt lat="47.23692" lon="3.96585">
        <ele>508.62</ele>
        <time>2021-09-22T10:53:43Z</time>
      </trkpt>
      <trkpt lat="47.23693" lon="3.96584">
        <ele>508.48</ele>
        <time>2021-09-22T10:53:44Z</time>
      </trkpt>
      <trkpt lat="47.23695" lon="3.96583">
        <ele>508.37</ele>
        <time>2021-09-22T10:53:45Z</time>
      </trkpt>
      <trkpt lat="47.23723" lon="3.96581">
        <ele>505.77</ele>
        <time>2021-09-22T10:54:07Z</time>
      </trkpt>
      <trkpt lat="47.23741" lon="3.96591">
        <ele>504.25</ele>
        <time>2021-09-22T10:54:23Z</time>
      </trkpt>
      <trkpt lat="47.23742" lon="3.96592">
        <ele>503.39</ele>
        <time>2021-09-22T10:54:31Z</time>
      </trkpt>
      <trkpt lat="47.23744" lon="3.96594">
        <ele>503.36</ele>
        <time>2021-09-22T10:54:33Z</time>
      </trkpt>
      <trkpt lat="47.23745" lon="3.96594">
        <ele>503.33</ele>
        <time>2021-09-22T10:54:34Z</time>
      </trkpt>
      <trkpt lat="47.23769" lon="3.96617">
        <ele>501.43</ele>
        <time>2021-09-22T10:54:56Z</time>
      </trkpt>
      <trkpt lat="47.23791" lon="3.96635">
        <ele>498.58</ele>
        <time>2021-09-22T10:55:17Z</time>
      </trkpt>
      <trkpt lat="47.23802" lon="3.96638">
        <ele>497.49</ele>
        <time>2021-09-22T10:55:26Z</time>
      </trkpt>
      <trkpt lat="47.23818" lon="3.96646">
        <ele>494.44</ele>
        <time>2021-09-22T10:55:39Z</time>
      </trkpt>
      <trkpt lat="47.23828" lon="3.9665">
        <ele>492.34</ele>
        <time>2021-09-22T10:55:56Z</time>
      </trkpt>
      <trkpt lat="47.2383" lon="3.9665">
        <ele>492.14</ele>
        <time>2021-09-22T10:56:00Z</time>
      </trkpt>
      <trkpt lat="47.23832" lon="3.96651">
        <ele>492.07</ele>
        <time>2021-09-22T10:56:02Z</time>
      </trkpt>
      <trkpt lat="47.23834" lon="3.96652">
        <ele>492.01</ele>
        <time>2021-09-22T10:56:03Z</time>
      </trkpt>
      <trkpt lat="47.23835" lon="3.96653">
        <ele>491.94</ele>
        <time>2021-09-22T10:56:04Z</time>
      </trkpt>
      <trkpt lat="47.23858" lon="3.96668">
        <ele>488.91</ele>
        <time>2021-09-22T10:56:23Z</time>
      </trkpt>
      <trkpt lat="47.23874" lon="3.96692">
        <ele>485.8</ele>
        <time>2021-09-22T10:56:39Z</time>
      </trkpt>
      <trkpt lat="47.2389" lon="3.96719">
        <ele>482.77</ele>
        <time>2021-09-22T10:56:57Z</time>
      </trkpt>
      <trkpt lat="47.2391" lon="3.96756">
        <ele>479.76</ele>
        <time>2021-09-22T10:57:21Z</time>
      </trkpt>
      <trkpt lat="47.23923" lon="3.96782">
        <ele>477.57</ele>
        <time>2021-09-22T10:57:40Z</time>
      </trkpt>
      <trkpt lat="47.23933" lon="3.96806">
        <ele>476.05</ele>
        <time>2021-09-22T10:57:56Z</time>
      </trkpt>
      <trkpt lat="47.23936" lon="3.96814">
        <ele>475.75</ele>
        <time>2021-09-22T10:58:01Z</time>
      </trkpt>
      <trkpt lat="47.23937" lon="3.96815">
        <ele>475.53</ele>
        <time>2021-09-22T10:58:02Z</time>
      </trkpt>
      <trkpt lat="47.23947" lon="3.96841">
        <ele>474.37</ele>
        <time>2021-09-22T10:58:17Z</time>
      </trkpt>
      <trkpt lat="47.23948" lon="3.96842">
        <ele>474.26</ele>
        <time>2021-09-22T10:58:18Z</time>
      </trkpt>
      <trkpt lat="47.23948" lon="3.96844">
        <ele>474.2</ele>
        <time>2021-09-22T10:58:19Z</time>
      </trkpt>
      <trkpt lat="47.23957" lon="3.96864">
        <ele>473.04</ele>
        <time>2021-09-22T10:58:31Z</time>
      </trkpt>
      <trkpt lat="47.23965" lon="3.96893">
        <ele>472.39</ele>
        <time>2021-09-22T10:58:46Z</time>
      </trkpt>
      <trkpt lat="47.23972" lon="3.96903">
        <ele>471.47</ele>
        <time>2021-09-22T10:58:59Z</time>
      </trkpt>
      <trkpt lat="47.23977" lon="3.96901">
        <ele>471.42</ele>
        <time>2021-09-22T10:59:04Z</time>
      </trkpt>
      <trkpt lat="47.23984" lon="3.969">
        <ele>470.64</ele>
        <time>2021-09-22T10:59:09Z</time>
      </trkpt>
      <trkpt lat="47.24009" lon="3.96896">
        <ele>470.77</ele>
        <time>2021-09-22T10:59:28Z</time>
      </trkpt>
      <trkpt lat="47.24021" lon="3.96892">
        <ele>471.21</ele>
        <time>2021-09-22T10:59:39Z</time>
      </trkpt>
      <trkpt lat="47.24021" lon="3.96891">
        <ele>471.21</ele>
        <time>2021-09-22T10:59:40Z</time>
      </trkpt>
      <trkpt lat="47.2402" lon="3.96884">
        <ele>471.16</ele>
        <time>2021-09-22T10:59:44Z</time>
      </trkpt>
      <trkpt lat="47.24016" lon="3.96854">
        <ele>470.49</ele>
        <time>2021-09-22T11:00:00Z</time>
      </trkpt>
      <trkpt lat="47.24011" lon="3.96817">
        <ele>469.7</ele>
        <time>2021-09-22T11:00:20Z</time>
      </trkpt>
      <trkpt lat="47.24006" lon="3.96781">
        <ele>468.31</ele>
        <time>2021-09-22T11:00:40Z</time>
      </trkpt>
      <trkpt lat="47.24006" lon="3.96751">
        <ele>469.46</ele>
        <time>2021-09-22T11:00:58Z</time>
      </trkpt>
      <trkpt lat="47.24011" lon="3.96711">
        <ele>469.24</ele>
        <time>2021-09-22T11:01:18Z</time>
      </trkpt>
      <trkpt lat="47.24021" lon="3.96688">
        <ele>469.63</ele>
        <time>2021-09-22T11:01:32Z</time>
      </trkpt>
      <trkpt lat="47.24022" lon="3.96687">
        <ele>469.66</ele>
        <time>2021-09-22T11:01:33Z</time>
      </trkpt>
      <trkpt lat="47.24023" lon="3.96686">
        <ele>469.73</ele>
        <time>2021-09-22T11:01:34Z</time>
      </trkpt>
      <trkpt lat="47.24024" lon="3.96684">
        <ele>469.84</ele>
        <time>2021-09-22T11:01:35Z</time>
      </trkpt>
      <trkpt lat="47.24025" lon="3.96683">
        <ele>469.91</ele>
        <time>2021-09-22T11:01:36Z</time>
      </trkpt>
      <trkpt lat="47.24037" lon="3.96649">
        <ele>470.49</ele>
        <time>2021-09-22T11:01:55Z</time>
      </trkpt>
      <trkpt lat="47.24051" lon="3.96615">
        <ele>470.77</ele>
        <time>2021-09-22T11:02:15Z</time>
      </trkpt>
      <trkpt lat="47.24063" lon="3.96579">
        <ele>468.92</ele>
        <time>2021-09-22T11:02:35Z</time>
      </trkpt>
      <trkpt lat="47.24074" lon="3.96548">
        <ele>468.85</ele>
        <time>2021-09-22T11:02:54Z</time>
      </trkpt>
      <trkpt lat="47.24088" lon="3.96513">
        <ele>468.13</ele>
        <time>2021-09-22T11:03:16Z</time>
      </trkpt>
      <trkpt lat="47.24098" lon="3.96492">
        <ele>467.7</ele>
        <time>2021-09-22T11:03:30Z</time>
      </trkpt>
      <trkpt lat="47.24108" lon="3.96489">
        <ele>468.41</ele>
        <time>2021-09-22T11:03:41Z</time>
      </trkpt>
      <trkpt lat="47.2411" lon="3.96487">
        <ele>468.65</ele>
        <time>2021-09-22T11:03:43Z</time>
      </trkpt>
      <trkpt lat="47.2411" lon="3.96485">
        <ele>468.76</ele>
        <time>2021-09-22T11:03:44Z</time>
      </trkpt>
      <trkpt lat="47.24119" lon="3.96468">
        <ele>469.53</ele>
        <time>2021-09-22T11:03:59Z</time>
      </trkpt>
      <trkpt lat="47.24123" lon="3.96451">
        <ele>471.04</ele>
        <time>2021-09-22T11:04:10Z</time>
      </trkpt>
      <trkpt lat="47.24127" lon="3.96442">
        <ele>472.87</ele>
        <time>2021-09-22T11:04:15Z</time>
      </trkpt>
      <trkpt lat="47.24139" lon="3.96419">
        <ele>474.25</ele>
        <time>2021-09-22T11:04:31Z</time>
      </trkpt>
      <trkpt lat="47.24152" lon="3.96389">
        <ele>475.61</ele>
        <time>2021-09-22T11:04:52Z</time>
      </trkpt>
      <trkpt lat="47.24163" lon="3.96369">
        <ele>477.19</ele>
        <time>2021-09-22T11:05:07Z</time>
      </trkpt>
      <trkpt lat="47.24164" lon="3.96368">
        <ele>477.27</ele>
        <time>2021-09-22T11:05:08Z</time>
      </trkpt>
      <trkpt lat="47.24165" lon="3.96366">
        <ele>477.34</ele>
        <time>2021-09-22T11:05:09Z</time>
      </trkpt>
      <trkpt lat="47.24165" lon="3.96363">
        <ele>477.4</ele>
        <time>2021-09-22T11:05:10Z</time>
      </trkpt>
      <trkpt lat="47.24181" lon="3.96343">
        <ele>479.68</ele>
        <time>2021-09-22T11:05:27Z</time>
      </trkpt>
      <trkpt lat="47.24196" lon="3.9633">
        <ele>483.04</ele>
        <time>2021-09-22T11:05:43Z</time>
      </trkpt>
      <trkpt lat="47.24212" lon="3.96318">
        <ele>485.75</ele>
        <time>2021-09-22T11:06:00Z</time>
      </trkpt>
      <trkpt lat="47.24225" lon="3.96309">
        <ele>488.37</ele>
        <time>2021-09-22T11:06:15Z</time>
      </trkpt>
      <trkpt lat="47.24239" lon="3.96301">
        <ele>491.41</ele>
        <time>2021-09-22T11:06:33Z</time>
      </trkpt>
      <trkpt lat="47.24255" lon="3.96299">
        <ele>493.78</ele>
        <time>2021-09-22T11:06:48Z</time>
      </trkpt>
      <trkpt lat="47.24271" lon="3.96292">
        <ele>496.29</ele>
        <time>2021-09-22T11:07:06Z</time>
      </trkpt>
      <trkpt lat="47.24281" lon="3.96285">
        <ele>497.86</ele>
        <time>2021-09-22T11:07:17Z</time>
      </trkpt>
      <trkpt lat="47.24285" lon="3.96281">
        <ele>498.81</ele>
        <time>2021-09-22T11:07:22Z</time>
      </trkpt>
      <trkpt lat="47.24286" lon="3.9628">
        <ele>498.94</ele>
        <time>2021-09-22T11:07:23Z</time>
      </trkpt>
      <trkpt lat="47.24301" lon="3.96267">
        <ele>500.82</ele>
        <time>2021-09-22T11:07:39Z</time>
      </trkpt>
      <trkpt lat="47.24316" lon="3.96257">
        <ele>502.53</ele>
        <time>2021-09-22T11:07:55Z</time>
      </trkpt>
      <trkpt lat="47.24331" lon="3.96239">
        <ele>505.27</ele>
        <time>2021-09-22T11:08:14Z</time>
      </trkpt>
      <trkpt lat="47.24347" lon="3.96222">
        <ele>507.31</ele>
        <time>2021-09-22T11:08:32Z</time>
      </trkpt>
      <trkpt lat="47.24355" lon="3.96212">
        <ele>508.76</ele>
        <time>2021-09-22T11:08:44Z</time>
      </trkpt>
      <trkpt lat="47.24356" lon="3.9621">
        <ele>508.87</ele>
        <time>2021-09-22T11:08:45Z</time>
      </trkpt>
      <trkpt lat="47.24358" lon="3.96207">
        <ele>509.17</ele>
        <time>2021-09-22T11:08:48Z</time>
      </trkpt>
      <trkpt lat="47.24371" lon="3.96198">
        <ele>510.08</ele>
        <time>2021-09-22T11:09:00Z</time>
      </trkpt>
      <trkpt lat="47.24387" lon="3.96185">
        <ele>511.66</ele>
        <time>2021-09-22T11:09:16Z</time>
      </trkpt>
      <trkpt lat="47.24388" lon="3.96185">
        <ele>511.78</ele>
        <time>2021-09-22T11:09:17Z</time>
      </trkpt>
      <trkpt lat="47.24389" lon="3.96184">
        <ele>511.94</ele>
        <time>2021-09-22T11:09:18Z</time>
      </trkpt>
      <trkpt lat="47.2439" lon="3.96183">
        <ele>512.13</ele>
        <time>2021-09-22T11:09:19Z</time>
      </trkpt>
      <trkpt lat="47.24391" lon="3.96182">
        <ele>512.41</ele>
        <time>2021-09-22T11:09:20Z</time>
      </trkpt>
      <trkpt lat="47.24392" lon="3.96181">
        <ele>512.5</ele>
        <time>2021-09-22T11:09:21Z</time>
      </trkpt>
      <trkpt lat="47.24406" lon="3.96161">
        <ele>514.51</ele>
        <time>2021-09-22T11:09:39Z</time>
      </trkpt>
      <trkpt lat="47.24413" lon="3.96151">
        <ele>515.66</ele>
        <time>2021-09-22T11:09:47Z</time>
      </trkpt>
      <trkpt lat="47.24427" lon="3.96135">
        <ele>517.68</ele>
        <time>2021-09-22T11:10:04Z</time>
      </trkpt>
      <trkpt lat="47.24441" lon="3.96124">
        <ele>519.77</ele>
        <time>2021-09-22T11:10:19Z</time>
      </trkpt>
      <trkpt lat="47.24457" lon="3.96114">
        <ele>522.2</ele>
        <time>2021-09-22T11:10:35Z</time>
      </trkpt>
      <trkpt lat="47.24472" lon="3.96106">
        <ele>524.26</ele>
        <time>2021-09-22T11:10:50Z</time>
      </trkpt>
      <trkpt lat="47.24487" lon="3.96096">
        <ele>526.53</ele>
        <time>2021-09-22T11:11:06Z</time>
      </trkpt>
      <trkpt lat="47.245" lon="3.96091">
        <ele>528.18</ele>
        <time>2021-09-22T11:11:20Z</time>
      </trkpt>
      <trkpt lat="47.24506" lon="3.96089">
        <ele>528.87</ele>
        <time>2021-09-22T11:11:25Z</time>
      </trkpt>
      <trkpt lat="47.24514" lon="3.96086">
        <ele>529.82</ele>
        <time>2021-09-22T11:11:33Z</time>
      </trkpt>
      <trkpt lat="47.24535" lon="3.96084">
        <ele>531.71</ele>
        <time>2021-09-22T11:11:53Z</time>
      </trkpt>
      <trkpt lat="47.24555" lon="3.96085">
        <ele>533.23</ele>
        <time>2021-09-22T11:12:12Z</time>
      </trkpt>
      <trkpt lat="47.24564" lon="3.96075">
        <ele>532.72</ele>
        <time>2021-09-22T11:12:25Z</time>
      </trkpt>
      <trkpt lat="47.24571" lon="3.96063">
        <ele>531.85</ele>
        <time>2021-09-22T11:12:34Z</time>
      </trkpt>
      <trkpt lat="47.24572" lon="3.96059">
        <ele>531.7</ele>
        <time>2021-09-22T11:12:36Z</time>
      </trkpt>
      <trkpt lat="47.24574" lon="3.96053">
        <ele>531.11</ele>
        <time>2021-09-22T11:12:50Z</time>
      </trkpt>
      <trkpt lat="47.24574" lon="3.96051">
        <ele>531.11</ele>
        <time>2021-09-22T11:12:51Z</time>
      </trkpt>
      <trkpt lat="47.24575" lon="3.96049">
        <ele>531.1</ele>
        <time>2021-09-22T11:12:52Z</time>
      </trkpt>
      <trkpt lat="47.24575" lon="3.96048">
        <ele>531.08</ele>
        <time>2021-09-22T11:12:53Z</time>
      </trkpt>
      <trkpt lat="47.24576" lon="3.96047">
        <ele>531.06</ele>
        <time>2021-09-22T11:12:54Z</time>
      </trkpt>
      <trkpt lat="47.24577" lon="3.96045">
        <ele>531.08</ele>
        <time>2021-09-22T11:12:55Z</time>
      </trkpt>
      <trkpt lat="47.24578" lon="3.96044">
        <ele>531.09</ele>
        <time>2021-09-22T11:12:56Z</time>
      </trkpt>
      <trkpt lat="47.24585" lon="3.96024">
        <ele>531.94</ele>
        <time>2021-09-22T11:13:10Z</time>
      </trkpt>
      <trkpt lat="47.24586" lon="3.96022">
        <ele>531.91</ele>
        <time>2021-09-22T11:13:11Z</time>
      </trkpt>
      <trkpt lat="47.24587" lon="3.96021">
        <ele>531.89</ele>
        <time>2021-09-22T11:13:12Z</time>
      </trkpt>
      <trkpt lat="47.24587" lon="3.9602">
        <ele>531.86</ele>
        <time>2021-09-22T11:13:13Z</time>
      </trkpt>
      <trkpt lat="47.24588" lon="3.96018">
        <ele>531.84</ele>
        <time>2021-09-22T11:13:14Z</time>
      </trkpt>
      <trkpt lat="47.24589" lon="3.96017">
        <ele>531.83</ele>
        <time>2021-09-22T11:13:15Z</time>
      </trkpt>
      <trkpt lat="47.2459" lon="3.96016">
        <ele>531.82</ele>
        <time>2021-09-22T11:13:16Z</time>
      </trkpt>
      <trkpt lat="47.24591" lon="3.96015">
        <ele>531.81</ele>
        <time>2021-09-22T11:13:17Z</time>
      </trkpt>
      <trkpt lat="47.24595" lon="3.96004">
        <ele>530.44</ele>
        <time>2021-09-22T11:13:25Z</time>
      </trkpt>
      <trkpt lat="47.24598" lon="3.95982">
        <ele>531</ele>
        <time>2021-09-22T11:13:39Z</time>
      </trkpt>
      <trkpt lat="47.24596" lon="3.95952">
        <ele>530.16</ele>
        <time>2021-09-22T11:13:56Z</time>
      </trkpt>
      <trkpt lat="47.24596" lon="3.95925">
        <ele>529.99</ele>
        <time>2021-09-22T11:14:13Z</time>
      </trkpt>
      <trkpt lat="47.24597" lon="3.95935">
        <ele>530.09</ele>
        <time>2021-09-22T11:14:25Z</time>
      </trkpt>
      <trkpt lat="47.246" lon="3.95971">
        <ele>529.93</ele>
        <time>2021-09-22T11:14:43Z</time>
      </trkpt>
      <trkpt lat="47.24601" lon="3.96003">
        <ele>531.1</ele>
        <time>2021-09-22T11:15:00Z</time>
      </trkpt>
      <trkpt lat="47.24603" lon="3.96005">
        <ele>530.98</ele>
        <time>2021-09-22T11:15:03Z</time>
      </trkpt>
      <trkpt lat="47.24605" lon="3.96005">
        <ele>530.9</ele>
        <time>2021-09-22T11:15:04Z</time>
      </trkpt>
      <trkpt lat="47.24606" lon="3.96005">
        <ele>530.85</ele>
        <time>2021-09-22T11:15:05Z</time>
      </trkpt>
      <trkpt lat="47.24608" lon="3.96005">
        <ele>530.8</ele>
        <time>2021-09-22T11:15:06Z</time>
      </trkpt>
      <trkpt lat="47.24625" lon="3.95993">
        <ele>529.74</ele>
        <time>2021-09-22T11:15:23Z</time>
      </trkpt>
      <trkpt lat="47.24638" lon="3.9598">
        <ele>527.63</ele>
        <time>2021-09-22T11:15:40Z</time>
      </trkpt>
      <trkpt lat="47.24645" lon="3.95971">
        <ele>526.39</ele>
        <time>2021-09-22T11:15:48Z</time>
      </trkpt>
      <trkpt lat="47.24659" lon="3.95957">
        <ele>523.64</ele>
        <time>2021-09-22T11:16:04Z</time>
      </trkpt>
      <trkpt lat="47.24672" lon="3.95944">
        <ele>522.08</ele>
        <time>2021-09-22T11:16:21Z</time>
      </trkpt>
      <trkpt lat="47.24682" lon="3.95933">
        <ele>518.97</ele>
        <time>2021-09-22T11:16:38Z</time>
      </trkpt>
      <trkpt lat="47.24684" lon="3.95932">
        <ele>518.68</ele>
        <time>2021-09-22T11:16:42Z</time>
      </trkpt>
      <trkpt lat="47.24685" lon="3.95931">
        <ele>518.52</ele>
        <time>2021-09-22T11:16:43Z</time>
      </trkpt>
      <trkpt lat="47.24686" lon="3.9593">
        <ele>518.31</ele>
        <time>2021-09-22T11:16:44Z</time>
      </trkpt>
      <trkpt lat="47.24687" lon="3.95929">
        <ele>518.17</ele>
        <time>2021-09-22T11:16:45Z</time>
      </trkpt>
      <trkpt lat="47.24688" lon="3.95928">
        <ele>518.08</ele>
        <time>2021-09-22T11:16:46Z</time>
      </trkpt>
      <trkpt lat="47.24689" lon="3.95927">
        <ele>518.04</ele>
        <time>2021-09-22T11:16:47Z</time>
      </trkpt>
      <trkpt lat="47.2469" lon="3.95926">
        <ele>518.09</ele>
        <time>2021-09-22T11:16:48Z</time>
      </trkpt>
      <trkpt lat="47.24691" lon="3.95925">
        <ele>518.18</ele>
        <time>2021-09-22T11:16:49Z</time>
      </trkpt>
      <trkpt lat="47.24692" lon="3.95924">
        <ele>518.23</ele>
        <time>2021-09-22T11:16:50Z</time>
      </trkpt>
      <trkpt lat="47.24693" lon="3.95924">
        <ele>518.25</ele>
        <time>2021-09-22T11:16:51Z</time>
      </trkpt>
      <trkpt lat="47.24707" lon="3.9591">
        <ele>515.24</ele>
        <time>2021-09-22T11:17:04Z</time>
      </trkpt>
      <trkpt lat="47.24714" lon="3.95903">
        <ele>511.72</ele>
        <time>2021-09-22T11:17:11Z</time>
      </trkpt>
      <trkpt lat="47.24718" lon="3.95901">
        <ele>508.47</ele>
        <time>2021-09-22T11:17:15Z</time>
      </trkpt>
      <trkpt lat="47.24719" lon="3.959">
        <ele>508.23</ele>
        <time>2021-09-22T11:17:16Z</time>
      </trkpt>
      <trkpt lat="47.24734" lon="3.95884">
        <ele>510.93</ele>
        <time>2021-09-22T11:17:30Z</time>
      </trkpt>
      <trkpt lat="47.2474" lon="3.95872">
        <ele>507.85</ele>
        <time>2021-09-22T11:17:38Z</time>
      </trkpt>
      <trkpt lat="47.24747" lon="3.95865">
        <ele>506.15</ele>
        <time>2021-09-22T11:17:45Z</time>
      </trkpt>
      <trkpt lat="47.24752" lon="3.95854">
        <ele>505.5</ele>
        <time>2021-09-22T11:17:54Z</time>
      </trkpt>
      <trkpt lat="47.24756" lon="3.95846">
        <ele>506.26</ele>
        <time>2021-09-22T11:18:10Z</time>
      </trkpt>
      <trkpt lat="47.24757" lon="3.95842">
        <ele>506.24</ele>
        <time>2021-09-22T11:18:22Z</time>
      </trkpt>
      <trkpt lat="47.24762" lon="3.95818">
        <ele>507.73</ele>
        <time>2021-09-22T11:18:41Z</time>
      </trkpt>
      <trkpt lat="47.24762" lon="3.95815">
        <ele>507.95</ele>
        <time>2021-09-22T11:18:43Z</time>
      </trkpt>
      <trkpt lat="47.24761" lon="3.95811">
        <ele>508.61</ele>
        <time>2021-09-22T11:18:58Z</time>
      </trkpt>
      <trkpt lat="47.2476" lon="3.95815">
        <ele>508.56</ele>
        <time>2021-09-22T11:19:00Z</time>
      </trkpt>
      <trkpt lat="47.2476" lon="3.95819">
        <ele>508.53</ele>
        <time>2021-09-22T11:19:03Z</time>
      </trkpt>
      <trkpt lat="47.2476" lon="3.9582">
        <ele>508.52</ele>
        <time>2021-09-22T11:19:04Z</time>
      </trkpt>
      <trkpt lat="47.2476" lon="3.95827">
        <ele>508.48</ele>
        <time>2021-09-22T11:19:08Z</time>
      </trkpt>
      <trkpt lat="47.24757" lon="3.95844">
        <ele>507.72</ele>
        <time>2021-09-22T11:19:23Z</time>
      </trkpt>
      <trkpt lat="47.24758" lon="3.95841">
        <ele>507.14</ele>
        <time>2021-09-22T11:19:43Z</time>
      </trkpt>
      <trkpt lat="47.24763" lon="3.95822">
        <ele>508.26</ele>
        <time>2021-09-22T11:19:58Z</time>
      </trkpt>
      <trkpt lat="47.24765" lon="3.95802">
        <ele>508.69</ele>
        <time>2021-09-22T11:20:11Z</time>
      </trkpt>
      <trkpt lat="47.24768" lon="3.95771">
        <ele>510</ele>
        <time>2021-09-22T11:20:29Z</time>
      </trkpt>
      <trkpt lat="47.24772" lon="3.9575">
        <ele>510.8</ele>
        <time>2021-09-22T11:20:42Z</time>
      </trkpt>
      <trkpt lat="47.24772" lon="3.95748">
        <ele>510.86</ele>
        <time>2021-09-22T11:20:43Z</time>
      </trkpt>
      <trkpt lat="47.24778" lon="3.95719">
        <ele>512.3</ele>
        <time>2021-09-22T11:20:59Z</time>
      </trkpt>
      <trkpt lat="47.24787" lon="3.95693">
        <ele>513.31</ele>
        <time>2021-09-22T11:21:19Z</time>
      </trkpt>
      <trkpt lat="47.24795" lon="3.95666">
        <ele>514.21</ele>
        <time>2021-09-22T11:21:35Z</time>
      </trkpt>
      <trkpt lat="47.24804" lon="3.95643">
        <ele>515.22</ele>
        <time>2021-09-22T11:21:50Z</time>
      </trkpt>
      <trkpt lat="47.24805" lon="3.95642">
        <ele>515.37</ele>
        <time>2021-09-22T11:21:51Z</time>
      </trkpt>
      <trkpt lat="47.24813" lon="3.95621">
        <ele>516.33</ele>
        <time>2021-09-22T11:22:06Z</time>
      </trkpt>
      <trkpt lat="47.24818" lon="3.95597">
        <ele>517.45</ele>
        <time>2021-09-22T11:22:21Z</time>
      </trkpt>
      <trkpt lat="47.24826" lon="3.95573">
        <ele>518.51</ele>
        <time>2021-09-22T11:22:37Z</time>
      </trkpt>
      <trkpt lat="47.24838" lon="3.9554">
        <ele>520.45</ele>
        <time>2021-09-22T11:22:59Z</time>
      </trkpt>
      <trkpt lat="47.24847" lon="3.95511">
        <ele>522.41</ele>
        <time>2021-09-22T11:23:18Z</time>
      </trkpt>
      <trkpt lat="47.24855" lon="3.95486">
        <ele>523.53</ele>
        <time>2021-09-22T11:23:35Z</time>
      </trkpt>
      <trkpt lat="47.24859" lon="3.95476">
        <ele>523.82</ele>
        <time>2021-09-22T11:23:43Z</time>
      </trkpt>
      <trkpt lat="47.24859" lon="3.95474">
        <ele>523.87</ele>
        <time>2021-09-22T11:23:44Z</time>
      </trkpt>
      <trkpt lat="47.24861" lon="3.95471">
        <ele>523.98</ele>
        <time>2021-09-22T11:23:46Z</time>
      </trkpt>
      <trkpt lat="47.24861" lon="3.9547">
        <ele>524.03</ele>
        <time>2021-09-22T11:23:47Z</time>
      </trkpt>
      <trkpt lat="47.24872" lon="3.95443">
        <ele>524.45</ele>
        <time>2021-09-22T11:24:03Z</time>
      </trkpt>
      <trkpt lat="47.24876" lon="3.95438">
        <ele>524.55</ele>
        <time>2021-09-22T11:24:19Z</time>
      </trkpt>
      <trkpt lat="47.2488" lon="3.9543">
        <ele>523.95</ele>
        <time>2021-09-22T11:24:32Z</time>
      </trkpt>
      <trkpt lat="47.2489" lon="3.95407">
        <ele>523.87</ele>
        <time>2021-09-22T11:24:48Z</time>
      </trkpt>
      <trkpt lat="47.24893" lon="3.95401">
        <ele>523.79</ele>
        <time>2021-09-22T11:24:51Z</time>
      </trkpt>
      <trkpt lat="47.24906" lon="3.9538">
        <ele>520.99</ele>
        <time>2021-09-22T11:25:06Z</time>
      </trkpt>
      <trkpt lat="47.24919" lon="3.95365">
        <ele>520.84</ele>
        <time>2021-09-22T11:25:21Z</time>
      </trkpt>
      <trkpt lat="47.24929" lon="3.95353">
        <ele>517.67</ele>
        <time>2021-09-22T11:25:31Z</time>
      </trkpt>
      <trkpt lat="47.24937" lon="3.95325">
        <ele>515.51</ele>
        <time>2021-09-22T11:25:46Z</time>
      </trkpt>
      <trkpt lat="47.24945" lon="3.95297">
        <ele>514.8</ele>
        <time>2021-09-22T11:26:02Z</time>
      </trkpt>
      <trkpt lat="47.24945" lon="3.95292">
        <ele>514.82</ele>
        <time>2021-09-22T11:26:05Z</time>
      </trkpt>
      <trkpt lat="47.24944" lon="3.95288">
        <ele>514.87</ele>
        <time>2021-09-22T11:26:07Z</time>
      </trkpt>
      <trkpt lat="47.24944" lon="3.95286">
        <ele>514.92</ele>
        <time>2021-09-22T11:26:08Z</time>
      </trkpt>
      <trkpt lat="47.24943" lon="3.95285">
        <ele>514.94</ele>
        <time>2021-09-22T11:26:09Z</time>
      </trkpt>
      <trkpt lat="47.24942" lon="3.95283">
        <ele>514.97</ele>
        <time>2021-09-22T11:26:10Z</time>
      </trkpt>
      <trkpt lat="47.24941" lon="3.95281">
        <ele>514.99</ele>
        <time>2021-09-22T11:26:11Z</time>
      </trkpt>
      <trkpt lat="47.2494" lon="3.9528">
        <ele>515.03</ele>
        <time>2021-09-22T11:26:12Z</time>
      </trkpt>
      <trkpt lat="47.2494" lon="3.95278">
        <ele>515.05</ele>
        <time>2021-09-22T11:26:13Z</time>
      </trkpt>
      <trkpt lat="47.24927" lon="3.95247">
        <ele>515.84</ele>
        <time>2021-09-22T11:26:33Z</time>
      </trkpt>
      <trkpt lat="47.24927" lon="3.95226">
        <ele>518.08</ele>
        <time>2021-09-22T11:26:48Z</time>
      </trkpt>
      <trkpt lat="47.24927" lon="3.95225">
        <ele>518.22</ele>
        <time>2021-09-22T11:26:49Z</time>
      </trkpt>
      <trkpt lat="47.24927" lon="3.95223">
        <ele>518.35</ele>
        <time>2021-09-22T11:26:50Z</time>
      </trkpt>
      <trkpt lat="47.24927" lon="3.95221">
        <ele>518.48</ele>
        <time>2021-09-22T11:26:51Z</time>
      </trkpt>
      <trkpt lat="47.24927" lon="3.9522">
        <ele>518.62</ele>
        <time>2021-09-22T11:26:52Z</time>
      </trkpt>
      <trkpt lat="47.24934" lon="3.95187">
        <ele>520.55</ele>
        <time>2021-09-22T11:27:14Z</time>
      </trkpt>
      <trkpt lat="47.24946" lon="3.95163">
        <ele>521.66</ele>
        <time>2021-09-22T11:27:33Z</time>
      </trkpt>
      <trkpt lat="47.24948" lon="3.95161">
        <ele>521.13</ele>
        <time>2021-09-22T11:27:35Z</time>
      </trkpt>
      <trkpt lat="47.24949" lon="3.9516">
        <ele>520.48</ele>
        <time>2021-09-22T11:27:36Z</time>
      </trkpt>
      <trkpt lat="47.24952" lon="3.95155">
        <ele>517.43</ele>
        <time>2021-09-22T11:27:40Z</time>
      </trkpt>
      <trkpt lat="47.24953" lon="3.95154">
        <ele>517.21</ele>
        <time>2021-09-22T11:27:41Z</time>
      </trkpt>
      <trkpt lat="47.24955" lon="3.9515">
        <ele>521.61</ele>
        <time>2021-09-22T11:27:44Z</time>
      </trkpt>
      <trkpt lat="47.24969" lon="3.9513">
        <ele>524.16</ele>
        <time>2021-09-22T11:28:01Z</time>
      </trkpt>
      <trkpt lat="47.24976" lon="3.95125">
        <ele>523.99</ele>
        <time>2021-09-22T11:28:08Z</time>
      </trkpt>
      <trkpt lat="47.24981" lon="3.95117">
        <ele>524.11</ele>
        <time>2021-09-22T11:28:15Z</time>
      </trkpt>
      <trkpt lat="47.24983" lon="3.95116">
        <ele>524.18</ele>
        <time>2021-09-22T11:28:16Z</time>
      </trkpt>
      <trkpt lat="47.25006" lon="3.9509">
        <ele>525.36</ele>
        <time>2021-09-22T11:28:37Z</time>
      </trkpt>
      <trkpt lat="47.25036" lon="3.95058">
        <ele>523.77</ele>
        <time>2021-09-22T11:29:05Z</time>
      </trkpt>
      <trkpt lat="47.25064" lon="3.9504">
        <ele>521.81</ele>
        <time>2021-09-22T11:29:28Z</time>
      </trkpt>
      <trkpt lat="47.2509" lon="3.95033">
        <ele>521.03</ele>
        <time>2021-09-22T11:29:48Z</time>
      </trkpt>
      <trkpt lat="47.25108" lon="3.9501">
        <ele>519.32</ele>
        <time>2021-09-22T11:30:05Z</time>
      </trkpt>
      <trkpt lat="47.25118" lon="3.95001">
        <ele>517.93</ele>
        <time>2021-09-22T11:30:14Z</time>
      </trkpt>
      <trkpt lat="47.25119" lon="3.95001">
        <ele>517.82</ele>
        <time>2021-09-22T11:30:15Z</time>
      </trkpt>
      <trkpt lat="47.25125" lon="3.94999">
        <ele>517.03</ele>
        <time>2021-09-22T11:30:22Z</time>
      </trkpt>
      <trkpt lat="47.2514" lon="3.94992">
        <ele>514.81</ele>
        <time>2021-09-22T11:30:37Z</time>
      </trkpt>
      <trkpt lat="47.25164" lon="3.9499">
        <ele>512.74</ele>
        <time>2021-09-22T11:30:55Z</time>
      </trkpt>
      <trkpt lat="47.25182" lon="3.94994">
        <ele>511.42</ele>
        <time>2021-09-22T11:31:08Z</time>
      </trkpt>
      <trkpt lat="47.25196" lon="3.94989">
        <ele>509.61</ele>
        <time>2021-09-22T11:31:19Z</time>
      </trkpt>
      <trkpt lat="47.25198" lon="3.94966">
        <ele>506.44</ele>
        <time>2021-09-22T11:31:31Z</time>
      </trkpt>
      <trkpt lat="47.25193" lon="3.94947">
        <ele>503.38</ele>
        <time>2021-09-22T11:31:44Z</time>
      </trkpt>
      <trkpt lat="47.25192" lon="3.94942">
        <ele>502.74</ele>
        <time>2021-09-22T11:31:47Z</time>
      </trkpt>
      <trkpt lat="47.25192" lon="3.94941">
        <ele>502.54</ele>
        <time>2021-09-22T11:31:48Z</time>
      </trkpt>
      <trkpt lat="47.25192" lon="3.94939">
        <ele>502.3</ele>
        <time>2021-09-22T11:31:49Z</time>
      </trkpt>
      <trkpt lat="47.25192" lon="3.94937">
        <ele>502.05</ele>
        <time>2021-09-22T11:31:50Z</time>
      </trkpt>
      <trkpt lat="47.25192" lon="3.94935">
        <ele>501.67</ele>
        <time>2021-09-22T11:31:51Z</time>
      </trkpt>
      <trkpt lat="47.25192" lon="3.94933">
        <ele>501.49</ele>
        <time>2021-09-22T11:31:52Z</time>
      </trkpt>
      <trkpt lat="47.25192" lon="3.94932">
        <ele>501.28</ele>
        <time>2021-09-22T11:31:53Z</time>
      </trkpt>
      <trkpt lat="47.25187" lon="3.94907">
        <ele>498.57</ele>
        <time>2021-09-22T11:32:07Z</time>
      </trkpt>
      <trkpt lat="47.25183" lon="3.94897">
        <ele>497.47</ele>
        <time>2021-09-22T11:32:13Z</time>
      </trkpt>
      <trkpt lat="47.25183" lon="3.94895">
        <ele>497.29</ele>
        <time>2021-09-22T11:32:14Z</time>
      </trkpt>
      <trkpt lat="47.25182" lon="3.94894">
        <ele>497.11</ele>
        <time>2021-09-22T11:32:15Z</time>
      </trkpt>
      <trkpt lat="47.2517" lon="3.94869">
        <ele>494.19</ele>
        <time>2021-09-22T11:32:32Z</time>
      </trkpt>
      <trkpt lat="47.25169" lon="3.94866">
        <ele>493.9</ele>
        <time>2021-09-22T11:32:34Z</time>
      </trkpt>
      <trkpt lat="47.25161" lon="3.94838">
        <ele>492.4</ele>
        <time>2021-09-22T11:32:49Z</time>
      </trkpt>
      <trkpt lat="47.25157" lon="3.94822">
        <ele>490.84</ele>
        <time>2021-09-22T11:32:57Z</time>
      </trkpt>
      <trkpt lat="47.25157" lon="3.9482">
        <ele>490.67</ele>
        <time>2021-09-22T11:32:58Z</time>
      </trkpt>
      <trkpt lat="47.25157" lon="3.94818">
        <ele>490.55</ele>
        <time>2021-09-22T11:32:59Z</time>
      </trkpt>
      <trkpt lat="47.25154" lon="3.94786">
        <ele>488.77</ele>
        <time>2021-09-22T11:33:16Z</time>
      </trkpt>
      <trkpt lat="47.25154" lon="3.94768">
        <ele>487.21</ele>
        <time>2021-09-22T11:33:25Z</time>
      </trkpt>
      <trkpt lat="47.25155" lon="3.94766">
        <ele>486.95</ele>
        <time>2021-09-22T11:33:26Z</time>
      </trkpt>
      <trkpt lat="47.25155" lon="3.94764">
        <ele>486.69</ele>
        <time>2021-09-22T11:33:27Z</time>
      </trkpt>
      <trkpt lat="47.25155" lon="3.94762">
        <ele>486.48</ele>
        <time>2021-09-22T11:33:28Z</time>
      </trkpt>
      <trkpt lat="47.25155" lon="3.94761">
        <ele>486.3</ele>
        <time>2021-09-22T11:33:29Z</time>
      </trkpt>
      <trkpt lat="47.25161" lon="3.9474">
        <ele>483.29</ele>
        <time>2021-09-22T11:33:41Z</time>
      </trkpt>
      <trkpt lat="47.25162" lon="3.94727">
        <ele>481.32</ele>
        <time>2021-09-22T11:33:48Z</time>
      </trkpt>
      <trkpt lat="47.25167" lon="3.94715">
        <ele>480.19</ele>
        <time>2021-09-22T11:33:54Z</time>
      </trkpt>
      <trkpt lat="47.25168" lon="3.94713">
        <ele>480.04</ele>
        <time>2021-09-22T11:33:55Z</time>
      </trkpt>
      <trkpt lat="47.25169" lon="3.94712">
        <ele>479.87</ele>
        <time>2021-09-22T11:33:56Z</time>
      </trkpt>
      <trkpt lat="47.25173" lon="3.947">
        <ele>478.51</ele>
        <time>2021-09-22T11:34:02Z</time>
      </trkpt>
      <trkpt lat="47.25173" lon="3.94697">
        <ele>478.27</ele>
        <time>2021-09-22T11:34:03Z</time>
      </trkpt>
      <trkpt lat="47.25174" lon="3.94695">
        <ele>478.03</ele>
        <time>2021-09-22T11:34:04Z</time>
      </trkpt>
      <trkpt lat="47.25175" lon="3.94693">
        <ele>477.82</ele>
        <time>2021-09-22T11:34:05Z</time>
      </trkpt>
      <trkpt lat="47.25176" lon="3.94691">
        <ele>477.62</ele>
        <time>2021-09-22T11:34:06Z</time>
      </trkpt>
      <trkpt lat="47.25186" lon="3.94663">
        <ele>474.49</ele>
        <time>2021-09-22T11:34:22Z</time>
      </trkpt>
      <trkpt lat="47.25187" lon="3.94652">
        <ele>472.51</ele>
        <time>2021-09-22T11:34:34Z</time>
      </trkpt>
      <trkpt lat="47.25187" lon="3.9465">
        <ele>472.39</ele>
        <time>2021-09-22T11:34:35Z</time>
      </trkpt>
      <trkpt lat="47.25195" lon="3.94618">
        <ele>469.21</ele>
        <time>2021-09-22T11:34:53Z</time>
      </trkpt>
      <trkpt lat="47.25196" lon="3.94617">
        <ele>469.02</ele>
        <time>2021-09-22T11:34:54Z</time>
      </trkpt>
      <trkpt lat="47.25197" lon="3.94615">
        <ele>468.79</ele>
        <time>2021-09-22T11:34:55Z</time>
      </trkpt>
      <trkpt lat="47.25197" lon="3.94614">
        <ele>468.57</ele>
        <time>2021-09-22T11:34:56Z</time>
      </trkpt>
      <trkpt lat="47.25198" lon="3.94612">
        <ele>468.41</ele>
        <time>2021-09-22T11:34:57Z</time>
      </trkpt>
      <trkpt lat="47.25204" lon="3.94582">
        <ele>465.26</ele>
        <time>2021-09-22T11:35:13Z</time>
      </trkpt>
      <trkpt lat="47.25213" lon="3.94551">
        <ele>461.47</ele>
        <time>2021-09-22T11:35:30Z</time>
      </trkpt>
      <trkpt lat="47.25214" lon="3.94549">
        <ele>461.19</ele>
        <time>2021-09-22T11:35:31Z</time>
      </trkpt>
      <trkpt lat="47.25223" lon="3.94516">
        <ele>459.68</ele>
        <time>2021-09-22T11:35:50Z</time>
      </trkpt>
      <trkpt lat="47.25238" lon="3.94482">
        <ele>459.49</ele>
        <time>2021-09-22T11:36:11Z</time>
      </trkpt>
      <trkpt lat="47.25263" lon="3.94436">
        <ele>458.09</ele>
        <time>2021-09-22T11:36:40Z</time>
      </trkpt>
      <trkpt lat="47.2528" lon="3.94401">
        <ele>458.47</ele>
        <time>2021-09-22T11:37:03Z</time>
      </trkpt>
      <trkpt lat="47.25277" lon="3.94374">
        <ele>457.55</ele>
        <time>2021-09-22T11:37:19Z</time>
      </trkpt>
      <trkpt lat="47.25273" lon="3.94338">
        <ele>456.33</ele>
        <time>2021-09-22T11:37:39Z</time>
      </trkpt>
      <trkpt lat="47.25282" lon="3.94308">
        <ele>456.35</ele>
        <time>2021-09-22T11:37:55Z</time>
      </trkpt>
      <trkpt lat="47.25287" lon="3.94277">
        <ele>455.61</ele>
        <time>2021-09-22T11:38:11Z</time>
      </trkpt>
      <trkpt lat="47.2529" lon="3.94257">
        <ele>454.86</ele>
        <time>2021-09-22T11:38:20Z</time>
      </trkpt>
      <trkpt lat="47.2529" lon="3.94255">
        <ele>454.75</ele>
        <time>2021-09-22T11:38:21Z</time>
      </trkpt>
      <trkpt lat="47.25308" lon="3.94236">
        <ele>452.55</ele>
        <time>2021-09-22T11:38:37Z</time>
      </trkpt>
      <trkpt lat="47.25326" lon="3.94231">
        <ele>450.56</ele>
        <time>2021-09-22T11:38:51Z</time>
      </trkpt>
      <trkpt lat="47.25333" lon="3.94227">
        <ele>449.44</ele>
        <time>2021-09-22T11:38:59Z</time>
      </trkpt>
      <trkpt lat="47.25334" lon="3.94226">
        <ele>449.12</ele>
        <time>2021-09-22T11:39:00Z</time>
      </trkpt>
      <trkpt lat="47.25335" lon="3.94225">
        <ele>448.96</ele>
        <time>2021-09-22T11:39:01Z</time>
      </trkpt>
      <trkpt lat="47.25337" lon="3.94223">
        <ele>448.78</ele>
        <time>2021-09-22T11:39:02Z</time>
      </trkpt>
      <trkpt lat="47.25338" lon="3.94221">
        <ele>448.55</ele>
        <time>2021-09-22T11:39:03Z</time>
      </trkpt>
      <trkpt lat="47.2536" lon="3.94176">
        <ele>445.73</ele>
        <time>2021-09-22T11:39:28Z</time>
      </trkpt>
      <trkpt lat="47.25392" lon="3.94171">
        <ele>443.1</ele>
        <time>2021-09-22T11:39:51Z</time>
      </trkpt>
      <trkpt lat="47.25427" lon="3.94169">
        <ele>440.89</ele>
        <time>2021-09-22T11:40:16Z</time>
      </trkpt>
      <trkpt lat="47.25453" lon="3.94149">
        <ele>440.54</ele>
        <time>2021-09-22T11:40:38Z</time>
      </trkpt>
      <trkpt lat="47.25475" lon="3.9412">
        <ele>440.97</ele>
        <time>2021-09-22T11:41:01Z</time>
      </trkpt>
      <trkpt lat="47.25495" lon="3.94119">
        <ele>441.68</ele>
        <time>2021-09-22T11:41:17Z</time>
      </trkpt>
      <trkpt lat="47.25518" lon="3.94142">
        <ele>443.57</ele>
        <time>2021-09-22T11:41:39Z</time>
      </trkpt>
      <trkpt lat="47.25538" lon="3.94159">
        <ele>444.54</ele>
        <time>2021-09-22T11:41:58Z</time>
      </trkpt>
      <trkpt lat="47.25562" lon="3.94178">
        <ele>445.87</ele>
        <time>2021-09-22T11:42:18Z</time>
      </trkpt>
      <trkpt lat="47.25575" lon="3.94201">
        <ele>445.91</ele>
        <time>2021-09-22T11:42:34Z</time>
      </trkpt>
      <trkpt lat="47.25583" lon="3.94233">
        <ele>446.12</ele>
        <time>2021-09-22T11:42:52Z</time>
      </trkpt>
      <trkpt lat="47.25596" lon="3.9425">
        <ele>446.9</ele>
        <time>2021-09-22T11:43:08Z</time>
      </trkpt>
      <trkpt lat="47.25597" lon="3.9425">
        <ele>446.85</ele>
        <time>2021-09-22T11:43:09Z</time>
      </trkpt>
      <trkpt lat="47.25624" lon="3.94249">
        <ele>445.98</ele>
        <time>2021-09-22T11:43:28Z</time>
      </trkpt>
      <trkpt lat="47.25657" lon="3.94253">
        <ele>443.7</ele>
        <time>2021-09-22T11:43:52Z</time>
      </trkpt>
      <trkpt lat="47.25684" lon="3.94268">
        <ele>440.76</ele>
        <time>2021-09-22T11:44:14Z</time>
      </trkpt>
      <trkpt lat="47.2571" lon="3.94284">
        <ele>438.18</ele>
        <time>2021-09-22T11:44:36Z</time>
      </trkpt>
      <trkpt lat="47.25737" lon="3.94287">
        <ele>437.22</ele>
        <time>2021-09-22T11:44:58Z</time>
      </trkpt>
      <trkpt lat="47.25764" lon="3.94289">
        <ele>437.16</ele>
        <time>2021-09-22T11:45:21Z</time>
      </trkpt>
      <trkpt lat="47.25784" lon="3.94292">
        <ele>439.22</ele>
        <time>2021-09-22T11:45:39Z</time>
      </trkpt>
      <trkpt lat="47.25808" lon="3.94292">
        <ele>439.6</ele>
        <time>2021-09-22T11:45:58Z</time>
      </trkpt>
      <trkpt lat="47.2584" lon="3.943">
        <ele>436.71</ele>
        <time>2021-09-22T11:46:22Z</time>
      </trkpt>
      <trkpt lat="47.25873" lon="3.94297">
        <ele>435.46</ele>
        <time>2021-09-22T11:46:48Z</time>
      </trkpt>
      <trkpt lat="47.25891" lon="3.94263">
        <ele>432.94</ele>
        <time>2021-09-22T11:47:11Z</time>
      </trkpt>
      <trkpt lat="47.25907" lon="3.94219">
        <ele>429.92</ele>
        <time>2021-09-22T11:47:37Z</time>
      </trkpt>
      <trkpt lat="47.25925" lon="3.94173">
        <ele>427.69</ele>
        <time>2021-09-22T11:48:04Z</time>
      </trkpt>
      <trkpt lat="47.25944" lon="3.9413">
        <ele>424.64</ele>
        <time>2021-09-22T11:48:30Z</time>
      </trkpt>
      <trkpt lat="47.25956" lon="3.94088">
        <ele>421.55</ele>
        <time>2021-09-22T11:48:53Z</time>
      </trkpt>
      <trkpt lat="47.2597" lon="3.94054">
        <ele>418.63</ele>
        <time>2021-09-22T11:49:14Z</time>
      </trkpt>
      <trkpt lat="47.25971" lon="3.94052">
        <ele>418.44</ele>
        <time>2021-09-22T11:49:15Z</time>
      </trkpt>
      <trkpt lat="47.25988" lon="3.94019">
        <ele>416.23</ele>
        <time>2021-09-22T11:49:37Z</time>
      </trkpt>
      <trkpt lat="47.25994" lon="3.9401">
        <ele>415.97</ele>
        <time>2021-09-22T11:49:44Z</time>
      </trkpt>
      <trkpt lat="47.26008" lon="3.93991">
        <ele>415.19</ele>
        <time>2021-09-22T11:49:58Z</time>
      </trkpt>
      <trkpt lat="47.26024" lon="3.93971">
        <ele>414.3</ele>
        <time>2021-09-22T11:50:14Z</time>
      </trkpt>
      <trkpt lat="47.26043" lon="3.93941">
        <ele>413.57</ele>
        <time>2021-09-22T11:50:35Z</time>
      </trkpt>
      <trkpt lat="47.26062" lon="3.93914">
        <ele>413.41</ele>
        <time>2021-09-22T11:50:54Z</time>
      </trkpt>
      <trkpt lat="47.26077" lon="3.9388">
        <ele>413.17</ele>
        <time>2021-09-22T11:51:13Z</time>
      </trkpt>
      <trkpt lat="47.26084" lon="3.9385">
        <ele>413.14</ele>
        <time>2021-09-22T11:51:28Z</time>
      </trkpt>
      <trkpt lat="47.26086" lon="3.93814">
        <ele>412.6</ele>
        <time>2021-09-22T11:51:46Z</time>
      </trkpt>
      <trkpt lat="47.26087" lon="3.93806">
        <ele>412.84</ele>
        <time>2021-09-22T11:51:50Z</time>
      </trkpt>
      <trkpt lat="47.26087" lon="3.93804">
        <ele>412.84</ele>
        <time>2021-09-22T11:51:51Z</time>
      </trkpt>
      <trkpt lat="47.26088" lon="3.93803">
        <ele>412.74</ele>
        <time>2021-09-22T11:51:52Z</time>
      </trkpt>
      <trkpt lat="47.26105" lon="3.93783">
        <ele>412.69</ele>
        <time>2021-09-22T11:52:09Z</time>
      </trkpt>
      <trkpt lat="47.26128" lon="3.93769">
        <ele>413.18</ele>
        <time>2021-09-22T11:52:30Z</time>
      </trkpt>
      <trkpt lat="47.26143" lon="3.93743">
        <ele>411.63</ele>
        <time>2021-09-22T11:52:48Z</time>
      </trkpt>
    </trkseg>
  </trk>
</gpx>